<?xml version='1.0' encoding='UTF-8'?><gpx version="1.1" creator="JPX - https://github.com/jenetics/jpx" xmlns="http://www.topografix.com/GPX/1/1"><trk><trkseg><trkpt lat="43.7714182" lon="11.0578502"><ele>91.0</ele><time>2026-04-11T08:19:35.081Z</time></trkpt><trkpt lat="43.7713432" lon="11.0579889"><ele>91.0</ele><time>2026-04-11T08:21:49.049Z</time></trkpt><trkpt lat="43.7713959" lon="11.0579297"><ele>91.0</ele><time>2026-04-11T08:22:02.096Z</time></trkpt><trkpt lat="43.7715146" lon="11.0579811"><ele>91.0</ele><time>2026-04-11T08:22:06.049Z</time></trkpt><trkpt lat="43.7715713" lon="11.0580209"><ele>91.0</ele><time>2026-04-11T08:22:07.049Z</time></trkpt><trkpt lat="43.771636" lon="11.0581"><ele>91.0</ele><time>2026-04-11T08:22:09.049Z</time></trkpt><trkpt lat="43.7716717" lon="11.0581787"><ele>91.0</ele><time>2026-04-11T08:22:16.049Z</time></trkpt><trkpt lat="43.7717459" lon="11.0581018"><ele>91.0</ele><time>2026-04-11T08:22:18.048Z</time></trkpt><trkpt lat="43.7718058" lon="11.0580484"><ele>91.0</ele><time>2026-04-11T08:22:19.048Z</time></trkpt><trkpt lat="43.7719083" lon="11.0579889"><ele>91.0</ele><time>2026-04-11T08:22:21.049Z</time></trkpt><trkpt lat="43.7719758" lon="11.0579857"><ele>91.0</ele><time>2026-04-11T08:22:28.049Z</time></trkpt><trkpt lat="43.7718899" lon="11.0579796"><ele>91.0</ele><time>2026-04-11T08:22:32.049Z</time></trkpt><trkpt lat="43.7718119" lon="11.0580377"><ele>91.0</ele><time>2026-04-11T08:22:34.049Z</time></trkpt><trkpt lat="43.7717085" lon="11.0580883"><ele>91.0</ele><time>2026-04-11T08:22:36.049Z</time></trkpt><trkpt lat="43.7716445" lon="11.0580746"><ele>91.0</ele><time>2026-04-11T08:22:38.049Z</time></trkpt><trkpt lat="43.7716072" lon="11.057971"><ele>91.0</ele><time>2026-04-11T08:22:41.049Z</time></trkpt><trkpt lat="43.7715365" lon="11.0578704"><ele>91.0</ele><time>2026-04-11T08:22:43.049Z</time></trkpt><trkpt lat="43.7714607" lon="11.0577797"><ele>91.0</ele><time>2026-04-11T08:22:45.049Z</time></trkpt><trkpt lat="43.7715252" lon="11.0578268"><ele>91.0</ele><time>2026-04-11T08:24:54.047Z</time></trkpt><trkpt lat="43.7716168" lon="11.0579189"><ele>91.0</ele><time>2026-04-11T08:24:56.048Z</time></trkpt><trkpt lat="43.7716583" lon="11.0580281"><ele>91.0</ele><time>2026-04-11T08:24:58.048Z</time></trkpt><trkpt lat="43.771707" lon="11.0581053"><ele>91.0</ele><time>2026-04-11T08:25:01.048Z</time></trkpt><trkpt lat="43.7717889" lon="11.0580407"><ele>91.0</ele><time>2026-04-11T08:25:03.048Z</time></trkpt><trkpt lat="43.7718623" lon="11.0580044"><ele>91.0</ele><time>2026-04-11T08:25:04.048Z</time></trkpt><trkpt lat="43.771963" lon="11.0579567"><ele>91.0</ele><time>2026-04-11T08:25:06.048Z</time></trkpt><trkpt lat="43.7720148" lon="11.0578615"><ele>91.0</ele><time>2026-04-11T08:25:08.048Z</time></trkpt><trkpt lat="43.7719571" lon="11.0577274"><ele>91.0</ele><time>2026-04-11T08:25:10.048Z</time></trkpt><trkpt lat="43.7718952" lon="11.0576665"><ele>91.0</ele><time>2026-04-11T08:25:11.048Z</time></trkpt><trkpt lat="43.7718049" lon="11.0575798"><ele>91.0</ele><time>2026-04-11T08:25:12.048Z</time></trkpt><trkpt lat="43.7717038" lon="11.0574859"><ele>91.0</ele><time>2026-04-11T08:25:13.048Z</time></trkpt><trkpt lat="43.7715732" lon="11.0574141"><ele>91.0</ele><time>2026-04-11T08:25:14.048Z</time></trkpt><trkpt lat="43.7714265" lon="11.0573622"><ele>91.0</ele><time>2026-04-11T08:25:15.048Z</time></trkpt><trkpt lat="43.7712883" lon="11.0573395"><ele>92.33333333333333</ele><time>2026-04-11T08:25:16.048Z</time></trkpt><trkpt lat="43.7711748" lon="11.0573244"><ele>93.66666666666666</ele><time>2026-04-11T08:25:17.048Z</time></trkpt><trkpt lat="43.771096" lon="11.0572783"><ele>95.0</ele><time>2026-04-11T08:25:18.047Z</time></trkpt><trkpt lat="43.771058" lon="11.0572082"><ele>96.33333333333333</ele><time>2026-04-11T08:25:19.048Z</time></trkpt><trkpt lat="43.7710471" lon="11.0571142"><ele>97.66666666666667</ele><time>2026-04-11T08:25:20.047Z</time></trkpt><trkpt lat="43.7710718" lon="11.0570252"><ele>99.0</ele><time>2026-04-11T08:25:21.048Z</time></trkpt><trkpt lat="43.7711382" lon="11.0569223"><ele>99.0</ele><time>2026-04-11T08:25:22.048Z</time></trkpt><trkpt lat="43.7712207" lon="11.0568186"><ele>99.0</ele><time>2026-04-11T08:25:23.048Z</time></trkpt><trkpt lat="43.7713062" lon="11.0567147"><ele>99.0</ele><time>2026-04-11T08:25:24.048Z</time></trkpt><trkpt lat="43.7713751" lon="11.0566012"><ele>99.0</ele><time>2026-04-11T08:25:25.047Z</time></trkpt><trkpt lat="43.7714088" lon="11.0564746"><ele>99.0</ele><time>2026-04-11T08:25:26.047Z</time></trkpt><trkpt lat="43.7714005" lon="11.0563515"><ele>100.80000000000001</ele><time>2026-04-11T08:25:27.048Z</time></trkpt><trkpt lat="43.7713558" lon="11.0562428"><ele>102.60000000000001</ele><time>2026-04-11T08:25:28.047Z</time></trkpt><trkpt lat="43.7712865" lon="11.0561632"><ele>104.4</ele><time>2026-04-11T08:25:29.048Z</time></trkpt><trkpt lat="43.7711885" lon="11.0560902"><ele>106.2</ele><time>2026-04-11T08:25:30.048Z</time></trkpt><trkpt lat="43.7710834" lon="11.0560339"><ele>108.0</ele><time>2026-04-11T08:25:31.047Z</time></trkpt><trkpt lat="43.7709868" lon="11.0559755"><ele>101.2</ele><time>2026-04-11T08:25:32.048Z</time></trkpt><trkpt lat="43.7709123" lon="11.0558842"><ele>94.4</ele><time>2026-04-11T08:25:33.048Z</time></trkpt><trkpt lat="43.7708771" lon="11.0557851"><ele>87.60000000000001</ele><time>2026-04-11T08:25:34.048Z</time></trkpt><trkpt lat="43.7708652" lon="11.0556491"><ele>80.80000000000001</ele><time>2026-04-11T08:25:35.048Z</time></trkpt><trkpt lat="43.7708862" lon="11.0554914"><ele>74.0</ele><time>2026-04-11T08:25:36.047Z</time></trkpt><trkpt lat="43.7709327" lon="11.0553342"><ele>74.0</ele><time>2026-04-11T08:25:37.048Z</time></trkpt><trkpt lat="43.770988" lon="11.0551825"><ele>74.0</ele><time>2026-04-11T08:25:38.048Z</time></trkpt><trkpt lat="43.7710375" lon="11.0550354"><ele>74.0</ele><time>2026-04-11T08:25:39.048Z</time></trkpt><trkpt lat="43.7710602" lon="11.0548944"><ele>74.0</ele><time>2026-04-11T08:25:40.048Z</time></trkpt><trkpt lat="43.7710443" lon="11.0547778"><ele>74.0</ele><time>2026-04-11T08:25:41.048Z</time></trkpt><trkpt lat="43.7709812" lon="11.0546918"><ele>77.5</ele><time>2026-04-11T08:25:42.048Z</time></trkpt><trkpt lat="43.7708895" lon="11.0546522"><ele>81.0</ele><time>2026-04-11T08:25:43.048Z</time></trkpt><trkpt lat="43.7707628" lon="11.0546546"><ele>84.5</ele><time>2026-04-11T08:25:44.047Z</time></trkpt><trkpt lat="43.7706191" lon="11.0546792"><ele>88.0</ele><time>2026-04-11T08:25:45.048Z</time></trkpt><trkpt lat="43.7704704" lon="11.0547024"><ele>88.0</ele><time>2026-04-11T08:25:46.048Z</time></trkpt><trkpt lat="43.770332" lon="11.0547263"><ele>88.0</ele><time>2026-04-11T08:25:47.048Z</time></trkpt><trkpt lat="43.770194" lon="11.0547472"><ele>88.0</ele><time>2026-04-11T08:25:48.048Z</time></trkpt><trkpt lat="43.7700656" lon="11.0547894"><ele>88.0</ele><time>2026-04-11T08:25:49.048Z</time></trkpt><trkpt lat="43.769942" lon="11.0548482"><ele>88.2</ele><time>2026-04-11T08:25:50.048Z</time></trkpt><trkpt lat="43.7698223" lon="11.0549141"><ele>88.4</ele><time>2026-04-11T08:25:51.047Z</time></trkpt><trkpt lat="43.7697195" lon="11.0549805"><ele>88.60000000000001</ele><time>2026-04-11T08:25:52.048Z</time></trkpt><trkpt lat="43.7696295" lon="11.0550278"><ele>88.80000000000001</ele><time>2026-04-11T08:25:53.048Z</time></trkpt><trkpt lat="43.769562" lon="11.0550533"><ele>89.0</ele><time>2026-04-11T08:25:54.048Z</time></trkpt><trkpt lat="43.7694706" lon="11.0550436"><ele>89.0</ele><time>2026-04-11T08:25:56.048Z</time></trkpt><trkpt lat="43.7694964" lon="11.0548801"><ele>89.0</ele><time>2026-04-11T08:25:58.048Z</time></trkpt><trkpt lat="43.7695453" lon="11.0547597"><ele>89.0</ele><time>2026-04-11T08:25:59.048Z</time></trkpt><trkpt lat="43.769613" lon="11.0546408"><ele>89.0</ele><time>2026-04-11T08:26:00.048Z</time></trkpt><trkpt lat="43.7696955" lon="11.0545309"><ele>89.0</ele><time>2026-04-11T08:26:01.048Z</time></trkpt><trkpt lat="43.7697716" lon="11.0544051"><ele>89.0</ele><time>2026-04-11T08:26:02.048Z</time></trkpt><trkpt lat="43.7698544" lon="11.0542723"><ele>89.0</ele><time>2026-04-11T08:26:03.048Z</time></trkpt><trkpt lat="43.7699409" lon="11.0541329"><ele>89.0</ele><time>2026-04-11T08:26:04.048Z</time></trkpt><trkpt lat="43.7700244" lon="11.053992"><ele>89.0</ele><time>2026-04-11T08:26:05.048Z</time></trkpt><trkpt lat="43.7701052" lon="11.0538578"><ele>89.6</ele><time>2026-04-11T08:26:06.048Z</time></trkpt><trkpt lat="43.7701883" lon="11.0537296"><ele>90.2</ele><time>2026-04-11T08:26:07.048Z</time></trkpt><trkpt lat="43.7702619" lon="11.0536204"><ele>90.8</ele><time>2026-04-11T08:26:08.048Z</time></trkpt><trkpt lat="43.7703361" lon="11.0535425"><ele>91.39999999999999</ele><time>2026-04-11T08:26:09.048Z</time></trkpt><trkpt lat="43.7704385" lon="11.0534977"><ele>92.0</ele><time>2026-04-11T08:26:10.048Z</time></trkpt><trkpt lat="43.7705566" lon="11.0534561"><ele>95.25</ele><time>2026-04-11T08:26:11.048Z</time></trkpt><trkpt lat="43.7706779" lon="11.0534115"><ele>98.5</ele><time>2026-04-11T08:26:12.047Z</time></trkpt><trkpt lat="43.7708009" lon="11.0533692"><ele>101.75</ele><time>2026-04-11T08:26:13.048Z</time></trkpt><trkpt lat="43.7709268" lon="11.0533192"><ele>105.0</ele><time>2026-04-11T08:26:14.047Z</time></trkpt><trkpt lat="43.7710511" lon="11.0532657"><ele>108.0</ele><time>2026-04-11T08:26:15.048Z</time></trkpt><trkpt lat="43.7711625" lon="11.053207"><ele>111.0</ele><time>2026-04-11T08:26:16.048Z</time></trkpt><trkpt lat="43.771251" lon="11.0531518"><ele>114.0</ele><time>2026-04-11T08:26:17.048Z</time></trkpt><trkpt lat="43.771312" lon="11.0530656"><ele>117.0</ele><time>2026-04-11T08:26:18.048Z</time></trkpt><trkpt lat="43.7713303" lon="11.0529419"><ele>120.0</ele><time>2026-04-11T08:26:19.048Z</time></trkpt><trkpt lat="43.7713233" lon="11.052798"><ele>120.0</ele><time>2026-04-11T08:26:20.048Z</time></trkpt><trkpt lat="43.7713099" lon="11.0526474"><ele>120.0</ele><time>2026-04-11T08:26:21.048Z</time></trkpt><trkpt lat="43.7713063" lon="11.0524991"><ele>120.0</ele><time>2026-04-11T08:26:22.048Z</time></trkpt><trkpt lat="43.7713288" lon="11.0523584"><ele>120.0</ele><time>2026-04-11T08:26:23.048Z</time></trkpt><trkpt lat="43.7713604" lon="11.0522303"><ele>120.0</ele><time>2026-04-11T08:26:24.047Z</time></trkpt><trkpt lat="43.7713914" lon="11.052102"><ele>119.5</ele><time>2026-04-11T08:26:25.048Z</time></trkpt><trkpt lat="43.7713922" lon="11.0519678"><ele>119.0</ele><time>2026-04-11T08:26:26.048Z</time></trkpt><trkpt lat="43.7713728" lon="11.0518377"><ele>118.5</ele><time>2026-04-11T08:26:27.048Z</time></trkpt><trkpt lat="43.7713432" lon="11.0517133"><ele>118.0</ele><time>2026-04-11T08:26:28.048Z</time></trkpt><trkpt lat="43.7713105" lon="11.0516035"><ele>117.5</ele><time>2026-04-11T08:26:29.048Z</time></trkpt><trkpt lat="43.7712813" lon="11.0515157"><ele>117.0</ele><time>2026-04-11T08:26:30.048Z</time></trkpt><trkpt lat="43.771217" lon="11.0513807"><ele>117.0</ele><time>2026-04-11T08:26:32.048Z</time></trkpt><trkpt lat="43.7711495" lon="11.0512119"><ele>116.99999999999999</ele><time>2026-04-11T08:26:34.048Z</time></trkpt><trkpt lat="43.7711161" lon="11.0510989"><ele>116.99999999999999</ele><time>2026-04-11T08:26:35.048Z</time></trkpt><trkpt lat="43.7710735" lon="11.0509855"><ele>117.0</ele><time>2026-04-11T08:26:36.047Z</time></trkpt><trkpt lat="43.7710386" lon="11.0508795"><ele>117.0</ele><time>2026-04-11T08:26:37.047Z</time></trkpt><trkpt lat="43.7710079" lon="11.0507995"><ele>115.5</ele><time>2026-04-11T08:26:38.048Z</time></trkpt><trkpt lat="43.7709467" lon="11.0506629"><ele>114.0</ele><time>2026-04-11T08:26:40.048Z</time></trkpt><trkpt lat="43.7709159" lon="11.0505787"><ele>112.5</ele><time>2026-04-11T08:26:41.048Z</time></trkpt><trkpt lat="43.7708854" lon="11.0504755"><ele>111.0</ele><time>2026-04-11T08:26:42.048Z</time></trkpt><trkpt lat="43.7708513" lon="11.0503744"><ele>109.5</ele><time>2026-04-11T08:26:43.047Z</time></trkpt><trkpt lat="43.770813" lon="11.0502682"><ele>108.0</ele><time>2026-04-11T08:26:44.048Z</time></trkpt><trkpt lat="43.7707715" lon="11.0501686"><ele>108.0</ele><time>2026-04-11T08:26:45.048Z</time></trkpt><trkpt lat="43.7707338" lon="11.0500681"><ele>108.0</ele><time>2026-04-11T08:26:46.047Z</time></trkpt><trkpt lat="43.7706983" lon="11.0499709"><ele>108.0</ele><time>2026-04-11T08:26:47.047Z</time></trkpt><trkpt lat="43.7706542" lon="11.0499043"><ele>108.0</ele><time>2026-04-11T08:26:48.047Z</time></trkpt><trkpt lat="43.770595" lon="11.0498662"><ele>108.0</ele><time>2026-04-11T08:26:49.048Z</time></trkpt><trkpt lat="43.7705292" lon="11.0498446"><ele>108.0</ele><time>2026-04-11T08:26:50.048Z</time></trkpt><trkpt lat="43.7704576" lon="11.0498452"><ele>108.0</ele><time>2026-04-11T08:26:51.048Z</time></trkpt><trkpt lat="43.7703939" lon="11.0498595"><ele>108.33333333333333</ele><time>2026-04-11T08:26:52.047Z</time></trkpt><trkpt lat="43.7703331" lon="11.049888"><ele>108.66666666666666</ele><time>2026-04-11T08:26:53.048Z</time></trkpt><trkpt lat="43.7702596" lon="11.049935"><ele>109.0</ele><time>2026-04-11T08:26:54.048Z</time></trkpt><trkpt lat="43.770183" lon="11.049992"><ele>109.33333333333333</ele><time>2026-04-11T08:26:55.048Z</time></trkpt><trkpt lat="43.7700957" lon="11.0500596"><ele>109.66666666666666</ele><time>2026-04-11T08:26:56.048Z</time></trkpt><trkpt lat="43.7700105" lon="11.0501259"><ele>110.0</ele><time>2026-04-11T08:26:57.048Z</time></trkpt><trkpt lat="43.7699297" lon="11.0501886"><ele>108.6</ele><time>2026-04-11T08:26:58.048Z</time></trkpt><trkpt lat="43.7698475" lon="11.0502499"><ele>107.2</ele><time>2026-04-11T08:26:59.047Z</time></trkpt><trkpt lat="43.769753" lon="11.0503214"><ele>105.80000000000001</ele><time>2026-04-11T08:27:00.048Z</time></trkpt><trkpt lat="43.7696616" lon="11.0503897"><ele>104.4</ele><time>2026-04-11T08:27:01.047Z</time></trkpt><trkpt lat="43.7695695" lon="11.0504591"><ele>103.0</ele><time>2026-04-11T08:27:02.047Z</time></trkpt><trkpt lat="43.7694814" lon="11.0505322"><ele>103.0</ele><time>2026-04-11T08:27:03.048Z</time></trkpt><trkpt lat="43.7693872" lon="11.050612"><ele>103.0</ele><time>2026-04-11T08:27:04.048Z</time></trkpt><trkpt lat="43.769288" lon="11.0506908"><ele>103.0</ele><time>2026-04-11T08:27:05.048Z</time></trkpt><trkpt lat="43.7691887" lon="11.0507653"><ele>103.0</ele><time>2026-04-11T08:27:06.048Z</time></trkpt><trkpt lat="43.7691003" lon="11.0508377"><ele>103.0</ele><time>2026-04-11T08:27:07.048Z</time></trkpt><trkpt lat="43.7690207" lon="11.0509042"><ele>101.4</ele><time>2026-04-11T08:27:08.048Z</time></trkpt><trkpt lat="43.7689403" lon="11.0509658"><ele>99.80000000000001</ele><time>2026-04-11T08:27:09.048Z</time></trkpt><trkpt lat="43.7688604" lon="11.0510282"><ele>98.2</ele><time>2026-04-11T08:27:10.048Z</time></trkpt><trkpt lat="43.7687851" lon="11.0510897"><ele>96.6</ele><time>2026-04-11T08:27:11.048Z</time></trkpt><trkpt lat="43.7687039" lon="11.0511414"><ele>95.0</ele><time>2026-04-11T08:27:12.047Z</time></trkpt><trkpt lat="43.7686217" lon="11.051202"><ele>95.0</ele><time>2026-04-11T08:27:13.048Z</time></trkpt><trkpt lat="43.7685396" lon="11.0512695"><ele>95.0</ele><time>2026-04-11T08:27:14.047Z</time></trkpt><trkpt lat="43.7684618" lon="11.05133"><ele>95.0</ele><time>2026-04-11T08:27:15.048Z</time></trkpt><trkpt lat="43.7683824" lon="11.0513872"><ele>95.0</ele><time>2026-04-11T08:27:16.048Z</time></trkpt><trkpt lat="43.7683001" lon="11.0514504"><ele>95.0</ele><time>2026-04-11T08:27:17.048Z</time></trkpt><trkpt lat="43.768226" lon="11.0515038"><ele>95.0</ele><time>2026-04-11T08:27:18.047Z</time></trkpt><trkpt lat="43.7681445" lon="11.0515371"><ele>95.0</ele><time>2026-04-11T08:27:19.048Z</time></trkpt><trkpt lat="43.7680585" lon="11.0515702"><ele>95.0</ele><time>2026-04-11T08:27:20.047Z</time></trkpt><trkpt lat="43.7679678" lon="11.0516019"><ele>95.0</ele><time>2026-04-11T08:27:21.048Z</time></trkpt><trkpt lat="43.7678731" lon="11.0516349"><ele>95.0</ele><time>2026-04-11T08:27:22.047Z</time></trkpt><trkpt lat="43.7677787" lon="11.0516682"><ele>92.6</ele><time>2026-04-11T08:27:23.047Z</time></trkpt><trkpt lat="43.7676822" lon="11.0516975"><ele>90.2</ele><time>2026-04-11T08:27:24.048Z</time></trkpt><trkpt lat="43.7675874" lon="11.0517262"><ele>87.80000000000001</ele><time>2026-04-11T08:27:25.048Z</time></trkpt><trkpt lat="43.7674869" lon="11.051756"><ele>85.4</ele><time>2026-04-11T08:27:26.048Z</time></trkpt><trkpt lat="43.7673925" lon="11.0517858"><ele>83.0</ele><time>2026-04-11T08:27:27.048Z</time></trkpt><trkpt lat="43.7673001" lon="11.0518113"><ele>83.0</ele><time>2026-04-11T08:27:28.048Z</time></trkpt><trkpt lat="43.7672134" lon="11.0518333"><ele>83.0</ele><time>2026-04-11T08:27:29.048Z</time></trkpt><trkpt lat="43.7671331" lon="11.0518548"><ele>83.0</ele><time>2026-04-11T08:27:30.048Z</time></trkpt><trkpt lat="43.7670583" lon="11.0518765"><ele>83.0</ele><time>2026-04-11T08:27:31.047Z</time></trkpt><trkpt lat="43.7669983" lon="11.0519055"><ele>83.0</ele><time>2026-04-11T08:27:32.047Z</time></trkpt><trkpt lat="43.7669365" lon="11.0519355"><ele>83.0</ele><time>2026-04-11T08:27:33.048Z</time></trkpt><trkpt lat="43.7668348" lon="11.0519909"><ele>82.4</ele><time>2026-04-11T08:27:35.048Z</time></trkpt><trkpt lat="43.7667532" lon="11.0520189"><ele>81.80000000000001</ele><time>2026-04-11T08:27:37.048Z</time></trkpt><trkpt lat="43.766684" lon="11.0519571"><ele>81.2</ele><time>2026-04-11T08:27:39.047Z</time></trkpt><trkpt lat="43.766616" lon="11.051816"><ele>80.6</ele><time>2026-04-11T08:27:41.048Z</time></trkpt><trkpt lat="43.7665545" lon="11.0516512"><ele>80.0</ele><time>2026-04-11T08:27:43.047Z</time></trkpt><trkpt lat="43.7665076" lon="11.0515705"><ele>81.8</ele><time>2026-04-11T08:27:44.048Z</time></trkpt><trkpt lat="43.7664347" lon="11.051489"><ele>83.6</ele><time>2026-04-11T08:27:45.048Z</time></trkpt><trkpt lat="43.7663504" lon="11.0513957"><ele>85.4</ele><time>2026-04-11T08:27:46.047Z</time></trkpt><trkpt lat="43.7662732" lon="11.0513042"><ele>87.2</ele><time>2026-04-11T08:27:47.047Z</time></trkpt><trkpt lat="43.7662099" lon="11.0512262"><ele>89.0</ele><time>2026-04-11T08:27:48.048Z</time></trkpt><trkpt lat="43.7661604" lon="11.0511479"><ele>89.0</ele><time>2026-04-11T08:27:49.048Z</time></trkpt><trkpt lat="43.7661185" lon="11.0510721"><ele>89.0</ele><time>2026-04-11T08:27:50.048Z</time></trkpt><trkpt lat="43.7660723" lon="11.0509911"><ele>89.0</ele><time>2026-04-11T08:27:51.048Z</time></trkpt><trkpt lat="43.7660238" lon="11.0508985"><ele>89.0</ele><time>2026-04-11T08:27:52.048Z</time></trkpt><trkpt lat="43.7659798" lon="11.0508039"><ele>89.0</ele><time>2026-04-11T08:27:53.047Z</time></trkpt><trkpt lat="43.7659298" lon="11.0507134"><ele>89.0</ele><time>2026-04-11T08:27:54.048Z</time></trkpt><trkpt lat="43.7658825" lon="11.0506371"><ele>85.83333333333334</ele><time>2026-04-11T08:27:55.048Z</time></trkpt><trkpt lat="43.7658355" lon="11.0505587"><ele>82.66666666666667</ele><time>2026-04-11T08:27:56.048Z</time></trkpt><trkpt lat="43.7657876" lon="11.0504867"><ele>79.5</ele><time>2026-04-11T08:27:57.048Z</time></trkpt><trkpt lat="43.7657396" lon="11.0504047"><ele>76.33333333333333</ele><time>2026-04-11T08:27:58.048Z</time></trkpt><trkpt lat="43.7656924" lon="11.0503177"><ele>73.16666666666666</ele><time>2026-04-11T08:27:59.047Z</time></trkpt><trkpt lat="43.7656404" lon="11.0502345"><ele>70.0</ele><time>2026-04-11T08:28:00.048Z</time></trkpt><trkpt lat="43.7655848" lon="11.050148"><ele>70.0</ele><time>2026-04-11T08:28:01.047Z</time></trkpt><trkpt lat="43.7655333" lon="11.0500612"><ele>70.0</ele><time>2026-04-11T08:28:02.047Z</time></trkpt><trkpt lat="43.7654825" lon="11.0499754"><ele>70.0</ele><time>2026-04-11T08:28:03.048Z</time></trkpt><trkpt lat="43.7654277" lon="11.0499021"><ele>70.0</ele><time>2026-04-11T08:28:04.048Z</time></trkpt><trkpt lat="43.765369" lon="11.0498266"><ele>70.0</ele><time>2026-04-11T08:28:05.048Z</time></trkpt><trkpt lat="43.7653137" lon="11.0497516"><ele>70.0</ele><time>2026-04-11T08:28:06.048Z</time></trkpt><trkpt lat="43.7652648" lon="11.0496837"><ele>70.16666666666666</ele><time>2026-04-11T08:28:07.047Z</time></trkpt><trkpt lat="43.7652148" lon="11.0496102"><ele>70.33333333333333</ele><time>2026-04-11T08:28:08.048Z</time></trkpt><trkpt lat="43.76517" lon="11.0495183"><ele>70.5</ele><time>2026-04-11T08:28:09.048Z</time></trkpt><trkpt lat="43.765128" lon="11.0494121"><ele>70.66666666666667</ele><time>2026-04-11T08:28:10.048Z</time></trkpt><trkpt lat="43.7650864" lon="11.0493021"><ele>70.83333333333334</ele><time>2026-04-11T08:28:11.048Z</time></trkpt><trkpt lat="43.7650619" lon="11.0491928"><ele>71.0</ele><time>2026-04-11T08:28:12.048Z</time></trkpt><trkpt lat="43.7650457" lon="11.0490681"><ele>68.16666666666667</ele><time>2026-04-11T08:28:13.048Z</time></trkpt><trkpt lat="43.7650452" lon="11.0489429"><ele>65.33333333333334</ele><time>2026-04-11T08:28:14.048Z</time></trkpt><trkpt lat="43.7650382" lon="11.0488312"><ele>62.5</ele><time>2026-04-11T08:28:15.048Z</time></trkpt><trkpt lat="43.7650279" lon="11.0487221"><ele>59.66666666666667</ele><time>2026-04-11T08:28:16.048Z</time></trkpt><trkpt lat="43.765021" lon="11.0486186"><ele>56.833333333333336</ele><time>2026-04-11T08:28:17.048Z</time></trkpt><trkpt lat="43.7650106" lon="11.0485189"><ele>54.0</ele><time>2026-04-11T08:28:18.048Z</time></trkpt><trkpt lat="43.7649994" lon="11.0484229"><ele>54.0</ele><time>2026-04-11T08:28:19.048Z</time></trkpt><trkpt lat="43.7649815" lon="11.0483255"><ele>54.0</ele><time>2026-04-11T08:28:20.048Z</time></trkpt><trkpt lat="43.7649668" lon="11.0482235"><ele>54.0</ele><time>2026-04-11T08:28:21.048Z</time></trkpt><trkpt lat="43.764942" lon="11.048114"><ele>54.0</ele><time>2026-04-11T08:28:22.047Z</time></trkpt><trkpt lat="43.7649207" lon="11.0480003"><ele>54.0</ele><time>2026-04-11T08:28:23.048Z</time></trkpt><trkpt lat="43.7648982" lon="11.0478835"><ele>54.0</ele><time>2026-04-11T08:28:24.048Z</time></trkpt><trkpt lat="43.764868" lon="11.0477749"><ele>53.0</ele><time>2026-04-11T08:28:25.048Z</time></trkpt><trkpt lat="43.7648316" lon="11.0476713"><ele>52.0</ele><time>2026-04-11T08:28:26.048Z</time></trkpt><trkpt lat="43.7647988" lon="11.0475849"><ele>51.0</ele><time>2026-04-11T08:28:27.047Z</time></trkpt><trkpt lat="43.7647736" lon="11.0474454"><ele>50.0</ele><time>2026-04-11T08:28:29.048Z</time></trkpt><trkpt lat="43.7648028" lon="11.0473166"><ele>49.0</ele><time>2026-04-11T08:28:31.048Z</time></trkpt><trkpt lat="43.7648575" lon="11.0472462"><ele>48.0</ele><time>2026-04-11T08:28:32.048Z</time></trkpt><trkpt lat="43.7649388" lon="11.0471584"><ele>50.5</ele><time>2026-04-11T08:28:33.048Z</time></trkpt><trkpt lat="43.7650525" lon="11.0470636"><ele>53.0</ele><time>2026-04-11T08:28:34.047Z</time></trkpt><trkpt lat="43.7651681" lon="11.0469575"><ele>55.5</ele><time>2026-04-11T08:28:35.048Z</time></trkpt><trkpt lat="43.7652769" lon="11.046864"><ele>58.0</ele><time>2026-04-11T08:28:36.048Z</time></trkpt><trkpt lat="43.765371" lon="11.0467812"><ele>58.0</ele><time>2026-04-11T08:28:37.047Z</time></trkpt><trkpt lat="43.7654544" lon="11.0467106"><ele>58.0</ele><time>2026-04-11T08:28:38.048Z</time></trkpt><trkpt lat="43.7655226" lon="11.0466504"><ele>58.0</ele><time>2026-04-11T08:28:39.048Z</time></trkpt><trkpt lat="43.7655812" lon="11.0465986"><ele>58.0</ele><time>2026-04-11T08:28:40.048Z</time></trkpt><trkpt lat="43.7656902" lon="11.0465022"><ele>58.0</ele><time>2026-04-11T08:28:42.047Z</time></trkpt><trkpt lat="43.765747" lon="11.0464404"><ele>59.49999999999999</ele><time>2026-04-11T08:28:43.048Z</time></trkpt><trkpt lat="43.765805" lon="11.0463701"><ele>61.0</ele><time>2026-04-11T08:28:44.048Z</time></trkpt><trkpt lat="43.7658639" lon="11.0462868"><ele>62.5</ele><time>2026-04-11T08:28:45.048Z</time></trkpt><trkpt lat="43.7659283" lon="11.04621"><ele>64.0</ele><time>2026-04-11T08:28:46.047Z</time></trkpt><trkpt lat="43.7659901" lon="11.0461276"><ele>65.5</ele><time>2026-04-11T08:28:47.048Z</time></trkpt><trkpt lat="43.7660489" lon="11.0460448"><ele>67.0</ele><time>2026-04-11T08:28:48.047Z</time></trkpt><trkpt lat="43.7661336" lon="11.0459196"><ele>61.6</ele><time>2026-04-11T08:28:50.048Z</time></trkpt><trkpt lat="43.7662095" lon="11.0457798"><ele>56.2</ele><time>2026-04-11T08:28:52.048Z</time></trkpt><trkpt lat="43.7662766" lon="11.0456289"><ele>50.8</ele><time>2026-04-11T08:28:54.047Z</time></trkpt><trkpt lat="43.7663219" lon="11.0455527"><ele>45.4</ele><time>2026-04-11T08:28:55.048Z</time></trkpt><trkpt lat="43.7663697" lon="11.045477"><ele>40.0</ele><time>2026-04-11T08:28:56.048Z</time></trkpt><trkpt lat="43.7664135" lon="11.0453948"><ele>40.0</ele><time>2026-04-11T08:28:57.048Z</time></trkpt><trkpt lat="43.7664583" lon="11.0453113"><ele>40.0</ele><time>2026-04-11T08:28:58.048Z</time></trkpt><trkpt lat="43.7665062" lon="11.0452318"><ele>40.0</ele><time>2026-04-11T08:28:59.048Z</time></trkpt><trkpt lat="43.7665573" lon="11.0451526"><ele>40.0</ele><time>2026-04-11T08:29:00.048Z</time></trkpt><trkpt lat="43.7666119" lon="11.0450766"><ele>40.0</ele><time>2026-04-11T08:29:01.048Z</time></trkpt><trkpt lat="43.7666782" lon="11.0450063"><ele>40.0</ele><time>2026-04-11T08:29:02.047Z</time></trkpt><trkpt lat="43.7667497" lon="11.0449329"><ele>38.2</ele><time>2026-04-11T08:29:03.048Z</time></trkpt><trkpt lat="43.7668179" lon="11.0448581"><ele>36.4</ele><time>2026-04-11T08:29:04.048Z</time></trkpt><trkpt lat="43.766877" lon="11.0447733"><ele>34.6</ele><time>2026-04-11T08:29:05.048Z</time></trkpt><trkpt lat="43.7669267" lon="11.0446835"><ele>32.8</ele><time>2026-04-11T08:29:06.047Z</time></trkpt><trkpt lat="43.7669738" lon="11.0445307"><ele>31.0</ele><time>2026-04-11T08:29:07.047Z</time></trkpt><trkpt lat="43.7670205" lon="11.0443231"><ele>36.66666666666667</ele><time>2026-04-11T08:29:08.048Z</time></trkpt><trkpt lat="43.7670847" lon="11.0441008"><ele>42.333333333333336</ele><time>2026-04-11T08:29:09.048Z</time></trkpt><trkpt lat="43.7671514" lon="11.0438831"><ele>48.0</ele><time>2026-04-11T08:29:10.048Z</time></trkpt><trkpt lat="43.767226" lon="11.0436898"><ele>48.0</ele><time>2026-04-11T08:29:11.047Z</time></trkpt><trkpt lat="43.7672883" lon="11.0435184"><ele>48.0</ele><time>2026-04-11T08:29:12.047Z</time></trkpt><trkpt lat="43.7673476" lon="11.043329"><ele>48.0</ele><time>2026-04-11T08:29:13.048Z</time></trkpt><trkpt lat="43.7674121" lon="11.0431315"><ele>48.0</ele><time>2026-04-11T08:29:14.048Z</time></trkpt><trkpt lat="43.7674755" lon="11.0429315"><ele>45.25</ele><time>2026-04-11T08:29:15.048Z</time></trkpt><trkpt lat="43.7675335" lon="11.0427295"><ele>42.5</ele><time>2026-04-11T08:29:16.048Z</time></trkpt><trkpt lat="43.7675841" lon="11.0425477"><ele>39.75</ele><time>2026-04-11T08:29:17.048Z</time></trkpt><trkpt lat="43.7676292" lon="11.0423916"><ele>37.0</ele><time>2026-04-11T08:29:18.048Z</time></trkpt><trkpt lat="43.7676662" lon="11.0422498"><ele>38.6</ele><time>2026-04-11T08:29:19.047Z</time></trkpt><trkpt lat="43.7677026" lon="11.0421223"><ele>40.2</ele><time>2026-04-11T08:29:20.048Z</time></trkpt><trkpt lat="43.7677389" lon="11.0419852"><ele>41.8</ele><time>2026-04-11T08:29:21.048Z</time></trkpt><trkpt lat="43.7677661" lon="11.0418406"><ele>43.4</ele><time>2026-04-11T08:29:22.048Z</time></trkpt><trkpt lat="43.7677955" lon="11.0416913"><ele>45.0</ele><time>2026-04-11T08:29:23.048Z</time></trkpt><trkpt lat="43.7678245" lon="11.0415396"><ele>45.0</ele><time>2026-04-11T08:29:24.048Z</time></trkpt><trkpt lat="43.7678526" lon="11.0413914"><ele>45.0</ele><time>2026-04-11T08:29:25.048Z</time></trkpt><trkpt lat="43.7678774" lon="11.0412459"><ele>45.0</ele><time>2026-04-11T08:29:26.048Z</time></trkpt><trkpt lat="43.7679002" lon="11.0411061"><ele>45.0</ele><time>2026-04-11T08:29:27.048Z</time></trkpt><trkpt lat="43.7679286" lon="11.0409632"><ele>45.0</ele><time>2026-04-11T08:29:28.048Z</time></trkpt><trkpt lat="43.7679619" lon="11.0408245"><ele>43.75</ele><time>2026-04-11T08:29:29.048Z</time></trkpt><trkpt lat="43.7680074" lon="11.0406722"><ele>42.5</ele><time>2026-04-11T08:29:30.048Z</time></trkpt><trkpt lat="43.768061" lon="11.0404994"><ele>41.25</ele><time>2026-04-11T08:29:31.048Z</time></trkpt><trkpt lat="43.7681073" lon="11.0403153"><ele>40.0</ele><time>2026-04-11T08:29:32.048Z</time></trkpt><trkpt lat="43.7681393" lon="11.0401396"><ele>40.0</ele><time>2026-04-11T08:29:33.048Z</time></trkpt><trkpt lat="43.7681644" lon="11.0400002"><ele>40.0</ele><time>2026-04-11T08:29:34.048Z</time></trkpt><trkpt lat="43.7681889" lon="11.0398563"><ele>40.0</ele><time>2026-04-11T08:29:35.047Z</time></trkpt><trkpt lat="43.7682126" lon="11.0396972"><ele>40.0</ele><time>2026-04-11T08:29:36.048Z</time></trkpt><trkpt lat="43.7682495" lon="11.0395298"><ele>38.5</ele><time>2026-04-11T08:29:37.048Z</time></trkpt><trkpt lat="43.7682931" lon="11.0393564"><ele>37.0</ele><time>2026-04-11T08:29:38.048Z</time></trkpt><trkpt lat="43.76834" lon="11.0391798"><ele>35.5</ele><time>2026-04-11T08:29:39.047Z</time></trkpt><trkpt lat="43.7683767" lon="11.0390125"><ele>34.0</ele><time>2026-04-11T08:29:40.047Z</time></trkpt><trkpt lat="43.7684192" lon="11.0388467"><ele>32.75</ele><time>2026-04-11T08:29:41.047Z</time></trkpt><trkpt lat="43.7684559" lon="11.0386896"><ele>31.5</ele><time>2026-04-11T08:29:42.048Z</time></trkpt><trkpt lat="43.768493" lon="11.0385208"><ele>30.25</ele><time>2026-04-11T08:29:43.048Z</time></trkpt><trkpt lat="43.7685343" lon="11.03836"><ele>29.0</ele><time>2026-04-11T08:29:44.048Z</time></trkpt><trkpt lat="43.7685729" lon="11.0382108"><ele>32.4</ele><time>2026-04-11T08:29:45.048Z</time></trkpt><trkpt lat="43.7686027" lon="11.0380695"><ele>35.8</ele><time>2026-04-11T08:29:46.048Z</time></trkpt><trkpt lat="43.7686345" lon="11.0379337"><ele>39.199999999999996</ele><time>2026-04-11T08:29:47.048Z</time></trkpt><trkpt lat="43.7686608" lon="11.0378064"><ele>42.599999999999994</ele><time>2026-04-11T08:29:48.048Z</time></trkpt><trkpt lat="43.7686864" lon="11.0376849"><ele>46.0</ele><time>2026-04-11T08:29:49.048Z</time></trkpt><trkpt lat="43.7687045" lon="11.0375856"><ele>48.25</ele><time>2026-04-11T08:29:50.048Z</time></trkpt><trkpt lat="43.7687004" lon="11.0374269"><ele>50.5</ele><time>2026-04-11T08:29:52.048Z</time></trkpt><trkpt lat="43.7685953" lon="11.0372968"><ele>52.75</ele><time>2026-04-11T08:29:54.048Z</time></trkpt><trkpt lat="43.7685006" lon="11.0372461"><ele>55.0</ele><time>2026-04-11T08:29:55.048Z</time></trkpt><trkpt lat="43.7683976" lon="11.0371992"><ele>51.83333333333333</ele><time>2026-04-11T08:29:56.047Z</time></trkpt><trkpt lat="43.7683027" lon="11.0371552"><ele>48.666666666666664</ele><time>2026-04-11T08:29:57.048Z</time></trkpt><trkpt lat="43.7682256" lon="11.0371058"><ele>45.5</ele><time>2026-04-11T08:29:58.046Z</time></trkpt><trkpt lat="43.7681585" lon="11.0370428"><ele>42.33333333333333</ele><time>2026-04-11T08:29:59.048Z</time></trkpt><trkpt lat="43.7680985" lon="11.036976"><ele>39.166666666666664</ele><time>2026-04-11T08:30:00.048Z</time></trkpt><trkpt lat="43.7680457" lon="11.0368998"><ele>36.0</ele><time>2026-04-11T08:30:01.048Z</time></trkpt><trkpt lat="43.7680082" lon="11.0368233"><ele>36.0</ele><time>2026-04-11T08:30:02.047Z</time></trkpt><trkpt lat="43.7679843" lon="11.0367165"><ele>36.0</ele><time>2026-04-11T08:30:03.047Z</time></trkpt><trkpt lat="43.7679601" lon="11.0365889"><ele>36.0</ele><time>2026-04-11T08:30:04.047Z</time></trkpt><trkpt lat="43.7679402" lon="11.0364533"><ele>36.0</ele><time>2026-04-11T08:30:05.047Z</time></trkpt><trkpt lat="43.767924" lon="11.0363284"><ele>36.0</ele><time>2026-04-11T08:30:06.046Z</time></trkpt><trkpt lat="43.7679144" lon="11.0362136"><ele>36.166666666666664</ele><time>2026-04-11T08:30:07.046Z</time></trkpt><trkpt lat="43.7679172" lon="11.0361145"><ele>36.333333333333336</ele><time>2026-04-11T08:30:08.047Z</time></trkpt><trkpt lat="43.7679442" lon="11.0360347"><ele>36.5</ele><time>2026-04-11T08:30:09.047Z</time></trkpt><trkpt lat="43.7679806" lon="11.0359438"><ele>36.66666666666667</ele><time>2026-04-11T08:30:10.047Z</time></trkpt><trkpt lat="43.768021" lon="11.0358415"><ele>36.833333333333336</ele><time>2026-04-11T08:30:11.047Z</time></trkpt><trkpt lat="43.7680564" lon="11.0357327"><ele>37.0</ele><time>2026-04-11T08:30:12.047Z</time></trkpt><trkpt lat="43.7680845" lon="11.0356291"><ele>37.285714285714285</ele><time>2026-04-11T08:30:13.046Z</time></trkpt><trkpt lat="43.7681078" lon="11.0355273"><ele>37.57142857142857</ele><time>2026-04-11T08:30:14.046Z</time></trkpt><trkpt lat="43.7681262" lon="11.0354365"><ele>37.85714285714286</ele><time>2026-04-11T08:30:15.047Z</time></trkpt><trkpt lat="43.7681487" lon="11.0353469"><ele>38.14285714285714</ele><time>2026-04-11T08:30:16.046Z</time></trkpt><trkpt lat="43.7681684" lon="11.0352608"><ele>38.42857142857142</ele><time>2026-04-11T08:30:17.047Z</time></trkpt><trkpt lat="43.7681894" lon="11.0351639"><ele>38.714285714285715</ele><time>2026-04-11T08:30:18.047Z</time></trkpt><trkpt lat="43.7682142" lon="11.0350613"><ele>39.0</ele><time>2026-04-11T08:30:19.046Z</time></trkpt><trkpt lat="43.7682372" lon="11.0349614"><ele>40.5</ele><time>2026-04-11T08:30:20.047Z</time></trkpt><trkpt lat="43.7682521" lon="11.0348683"><ele>42.0</ele><time>2026-04-11T08:30:21.047Z</time></trkpt><trkpt lat="43.7682499" lon="11.0347649"><ele>43.5</ele><time>2026-04-11T08:30:22.047Z</time></trkpt><trkpt lat="43.7682354" lon="11.0346379"><ele>45.0</ele><time>2026-04-11T08:30:23.047Z</time></trkpt><trkpt lat="43.7682244" lon="11.0345107"><ele>46.5</ele><time>2026-04-11T08:30:24.047Z</time></trkpt><trkpt lat="43.7682036" lon="11.0343985"><ele>48.0</ele><time>2026-04-11T08:30:25.047Z</time></trkpt><trkpt lat="43.7681695" lon="11.0343156"><ele>48.0</ele><time>2026-04-11T08:30:26.047Z</time></trkpt><trkpt lat="43.7681185" lon="11.0342387"><ele>48.0</ele><time>2026-04-11T08:30:27.047Z</time></trkpt><trkpt lat="43.7680705" lon="11.0341615"><ele>48.0</ele><time>2026-04-11T08:30:28.047Z</time></trkpt><trkpt lat="43.7680286" lon="11.0340844"><ele>48.0</ele><time>2026-04-11T08:30:29.046Z</time></trkpt><trkpt lat="43.7679825" lon="11.0340037"><ele>48.0</ele><time>2026-04-11T08:30:31.047Z</time></trkpt><trkpt lat="43.7679107" lon="11.034037"><ele>48.0</ele><time>2026-04-11T08:31:05.047Z</time></trkpt><trkpt lat="43.7678903" lon="11.0341983"><ele>48.0</ele><time>2026-04-11T08:31:07.047Z</time></trkpt><trkpt lat="43.7678901" lon="11.0342968"><ele>48.0</ele><time>2026-04-11T08:31:08.047Z</time></trkpt><trkpt lat="43.7678873" lon="11.0343842"><ele>48.0</ele><time>2026-04-11T08:31:09.046Z</time></trkpt><trkpt lat="43.7678643" lon="11.0345336"><ele>48.0</ele><time>2026-04-11T08:31:11.047Z</time></trkpt><trkpt lat="43.7678337" lon="11.0346335"><ele>48.0</ele><time>2026-04-11T08:31:13.047Z</time></trkpt><trkpt lat="43.7677262" lon="11.0346272"><ele>48.0</ele><time>2026-04-11T08:31:16.047Z</time></trkpt><trkpt lat="43.7676464" lon="11.0345462"><ele>46.599999999999994</ele><time>2026-04-11T08:31:18.047Z</time></trkpt><trkpt lat="43.7675663" lon="11.0344684"><ele>45.199999999999996</ele><time>2026-04-11T08:31:20.047Z</time></trkpt><trkpt lat="43.7674764" lon="11.0343975"><ele>43.8</ele><time>2026-04-11T08:31:22.046Z</time></trkpt><trkpt lat="43.7674132" lon="11.0342905"><ele>42.4</ele><time>2026-04-11T08:31:24.047Z</time></trkpt><trkpt lat="43.7673651" lon="11.03413"><ele>41.0</ele><time>2026-04-11T08:31:26.047Z</time></trkpt><trkpt lat="43.7673131" lon="11.0339588"><ele>41.0</ele><time>2026-04-11T08:31:28.047Z</time></trkpt><trkpt lat="43.7672837" lon="11.0338602"><ele>41.0</ele><time>2026-04-11T08:31:29.046Z</time></trkpt><trkpt lat="43.7672605" lon="11.0337561"><ele>41.0</ele><time>2026-04-11T08:31:30.047Z</time></trkpt><trkpt lat="43.7672396" lon="11.0336525"><ele>41.0</ele><time>2026-04-11T08:31:31.047Z</time></trkpt><trkpt lat="43.7672198" lon="11.0335547"><ele>41.0</ele><time>2026-04-11T08:31:32.047Z</time></trkpt><trkpt lat="43.7672013" lon="11.0334422"><ele>41.0</ele><time>2026-04-11T08:31:33.047Z</time></trkpt><trkpt lat="43.7671749" lon="11.0333397"><ele>41.199999999999996</ele><time>2026-04-11T08:31:34.046Z</time></trkpt><trkpt lat="43.7671467" lon="11.0332305"><ele>41.4</ele><time>2026-04-11T08:31:35.047Z</time></trkpt><trkpt lat="43.7671193" lon="11.0331079"><ele>41.6</ele><time>2026-04-11T08:31:36.047Z</time></trkpt><trkpt lat="43.7670916" lon="11.0329665"><ele>41.8</ele><time>2026-04-11T08:31:37.047Z</time></trkpt><trkpt lat="43.7670687" lon="11.0328047"><ele>42.0</ele><time>2026-04-11T08:31:38.046Z</time></trkpt><trkpt lat="43.7670339" lon="11.0326028"><ele>42.666666666666664</ele><time>2026-04-11T08:31:39.046Z</time></trkpt><trkpt lat="43.7669959" lon="11.0323658"><ele>43.33333333333333</ele><time>2026-04-11T08:31:40.047Z</time></trkpt><trkpt lat="43.7669594" lon="11.0321056"><ele>44.0</ele><time>2026-04-11T08:31:41.046Z</time></trkpt><trkpt lat="43.7669309" lon="11.0318487"><ele>44.33333333333333</ele><time>2026-04-11T08:31:42.047Z</time></trkpt><trkpt lat="43.7668967" lon="11.0316202"><ele>44.666666666666664</ele><time>2026-04-11T08:31:43.046Z</time></trkpt><trkpt lat="43.7668721" lon="11.031419"><ele>45.0</ele><time>2026-04-11T08:31:44.046Z</time></trkpt><trkpt lat="43.7668499" lon="11.0312281"><ele>43.0</ele><time>2026-04-11T08:31:45.046Z</time></trkpt><trkpt lat="43.7668279" lon="11.0310731"><ele>41.0</ele><time>2026-04-11T08:31:46.047Z</time></trkpt><trkpt lat="43.7668138" lon="11.0309397"><ele>39.0</ele><time>2026-04-11T08:31:47.047Z</time></trkpt><trkpt lat="43.7668118" lon="11.0308182"><ele>37.0</ele><time>2026-04-11T08:31:48.047Z</time></trkpt><trkpt lat="43.7668231" lon="11.0307047"><ele>35.0</ele><time>2026-04-11T08:31:49.047Z</time></trkpt><trkpt lat="43.7668509" lon="11.0305793"><ele>36.0</ele><time>2026-04-11T08:31:50.047Z</time></trkpt><trkpt lat="43.7668848" lon="11.0304329"><ele>37.0</ele><time>2026-04-11T08:31:51.047Z</time></trkpt><trkpt lat="43.7669285" lon="11.0302737"><ele>38.0</ele><time>2026-04-11T08:31:52.047Z</time></trkpt><trkpt lat="43.766975" lon="11.0301209"><ele>39.0</ele><time>2026-04-11T08:31:53.047Z</time></trkpt><trkpt lat="43.7670219" lon="11.0299848"><ele>38.0</ele><time>2026-04-11T08:31:54.047Z</time></trkpt><trkpt lat="43.7670736" lon="11.0298588"><ele>37.0</ele><time>2026-04-11T08:31:55.047Z</time></trkpt><trkpt lat="43.7671287" lon="11.0297394"><ele>36.0</ele><time>2026-04-11T08:31:56.047Z</time></trkpt><trkpt lat="43.7671812" lon="11.0296356"><ele>35.0</ele><time>2026-04-11T08:31:57.047Z</time></trkpt><trkpt lat="43.7672304" lon="11.0295427"><ele>34.0</ele><time>2026-04-11T08:31:58.047Z</time></trkpt><trkpt lat="43.767271" lon="11.0294638"><ele>34.0</ele><time>2026-04-11T08:31:59.047Z</time></trkpt><trkpt lat="43.767317" lon="11.0293901"><ele>34.0</ele><time>2026-04-11T08:32:01.047Z</time></trkpt><trkpt lat="43.767394" lon="11.0294141"><ele>34.0</ele><time>2026-04-11T08:32:04.046Z</time></trkpt><trkpt lat="43.7674674" lon="11.0293547"><ele>34.0</ele><time>2026-04-11T08:32:13.047Z</time></trkpt><trkpt lat="43.7674884" lon="11.0292582"><ele>34.0</ele><time>2026-04-11T08:32:15.047Z</time></trkpt><trkpt lat="43.7675014" lon="11.029139"><ele>34.0</ele><time>2026-04-11T08:32:19.047Z</time></trkpt><trkpt lat="43.7674862" lon="11.0292531"><ele>34.0</ele><time>2026-04-11T08:32:25.047Z</time></trkpt><trkpt lat="43.767405" lon="11.0293906"><ele>34.0</ele><time>2026-04-11T08:32:27.047Z</time></trkpt><trkpt lat="43.7673461" lon="11.0294276"><ele>34.0</ele><time>2026-04-11T08:32:29.047Z</time></trkpt><trkpt lat="43.7672853" lon="11.0293439"><ele>34.0</ele><time>2026-04-11T08:32:32.046Z</time></trkpt><trkpt lat="43.767277" lon="11.0292362"><ele>34.0</ele><time>2026-04-11T08:32:34.047Z</time></trkpt><trkpt lat="43.7672726" lon="11.0291255"><ele>34.0</ele><time>2026-04-11T08:32:36.129Z</time></trkpt><trkpt lat="43.7672872" lon="11.0289887"><ele>34.16666666666667</ele><time>2026-04-11T08:32:38.047Z</time></trkpt><trkpt lat="43.767392" lon="11.028946"><ele>34.333333333333336</ele><time>2026-04-11T08:32:40.047Z</time></trkpt><trkpt lat="43.7674608" lon="11.0289468"><ele>34.5</ele><time>2026-04-11T08:32:41.046Z</time></trkpt><trkpt lat="43.767537" lon="11.0289249"><ele>34.666666666666664</ele><time>2026-04-11T08:32:42.047Z</time></trkpt><trkpt lat="43.7676128" lon="11.0288915"><ele>34.83333333333333</ele><time>2026-04-11T08:32:43.047Z</time></trkpt><trkpt lat="43.7676819" lon="11.0288595"><ele>35.0</ele><time>2026-04-11T08:32:44.047Z</time></trkpt><trkpt lat="43.7677941" lon="11.0288149"><ele>35.166666666666664</ele><time>2026-04-11T08:32:46.047Z</time></trkpt><trkpt lat="43.7679107" lon="11.028774"><ele>35.33333333333333</ele><time>2026-04-11T08:32:48.047Z</time></trkpt><trkpt lat="43.7679745" lon="11.028743"><ele>35.5</ele><time>2026-04-11T08:32:49.047Z</time></trkpt><trkpt lat="43.7680439" lon="11.0287077"><ele>35.666666666666664</ele><time>2026-04-11T08:32:50.047Z</time></trkpt><trkpt lat="43.7681152" lon="11.0286752"><ele>35.833333333333336</ele><time>2026-04-11T08:32:51.047Z</time></trkpt><trkpt lat="43.7681828" lon="11.0286479"><ele>36.0</ele><time>2026-04-11T08:32:52.047Z</time></trkpt><trkpt lat="43.7682462" lon="11.0286238"><ele>36.0</ele><time>2026-04-11T08:32:53.047Z</time></trkpt><trkpt lat="43.7683097" lon="11.0285999"><ele>36.0</ele><time>2026-04-11T08:32:54.047Z</time></trkpt><trkpt lat="43.7683794" lon="11.0285736"><ele>36.0</ele><time>2026-04-11T08:32:55.047Z</time></trkpt><trkpt lat="43.7684503" lon="11.0285413"><ele>36.0</ele><time>2026-04-11T08:32:56.047Z</time></trkpt><trkpt lat="43.768513" lon="11.0285108"><ele>36.0</ele><time>2026-04-11T08:32:57.047Z</time></trkpt><trkpt lat="43.768621" lon="11.02846"><ele>36.0</ele><time>2026-04-11T08:32:59.047Z</time></trkpt><trkpt lat="43.7687105" lon="11.028408"><ele>36.6</ele><time>2026-04-11T08:33:01.047Z</time></trkpt><trkpt lat="43.7687753" lon="11.028334"><ele>37.2</ele><time>2026-04-11T08:33:03.047Z</time></trkpt><trkpt lat="43.7688671" lon="11.0283713"><ele>37.8</ele><time>2026-04-11T08:33:13.046Z</time></trkpt><trkpt lat="43.7689745" lon="11.0283232"><ele>38.4</ele><time>2026-04-11T08:33:15.047Z</time></trkpt><trkpt lat="43.7690562" lon="11.0282732"><ele>39.0</ele><time>2026-04-11T08:33:16.047Z</time></trkpt><trkpt lat="43.7691372" lon="11.0282213"><ele>40.0</ele><time>2026-04-11T08:33:17.047Z</time></trkpt><trkpt lat="43.7692245" lon="11.028169"><ele>41.0</ele><time>2026-04-11T08:33:18.047Z</time></trkpt><trkpt lat="43.7693192" lon="11.0281076"><ele>42.0</ele><time>2026-04-11T08:33:19.047Z</time></trkpt><trkpt lat="43.7694094" lon="11.02806"><ele>43.0</ele><time>2026-04-11T08:33:20.047Z</time></trkpt><trkpt lat="43.7695012" lon="11.0280201"><ele>44.0</ele><time>2026-04-11T08:33:21.047Z</time></trkpt><trkpt lat="43.7695973" lon="11.0279775"><ele>44.6</ele><time>2026-04-11T08:33:22.047Z</time></trkpt><trkpt lat="43.7696907" lon="11.027931"><ele>45.2</ele><time>2026-04-11T08:33:23.046Z</time></trkpt><trkpt lat="43.7697861" lon="11.0278891"><ele>45.800000000000004</ele><time>2026-04-11T08:33:24.047Z</time></trkpt><trkpt lat="43.7698798" lon="11.0278515"><ele>46.400000000000006</ele><time>2026-04-11T08:33:25.047Z</time></trkpt><trkpt lat="43.7699747" lon="11.0278083"><ele>47.0</ele><time>2026-04-11T08:33:26.046Z</time></trkpt><trkpt lat="43.7700709" lon="11.0277711"><ele>47.0</ele><time>2026-04-11T08:33:27.047Z</time></trkpt><trkpt lat="43.7701661" lon="11.0277355"><ele>47.0</ele><time>2026-04-11T08:33:28.047Z</time></trkpt><trkpt lat="43.7702546" lon="11.0276975"><ele>47.0</ele><time>2026-04-11T08:33:29.047Z</time></trkpt><trkpt lat="43.7703345" lon="11.0276617"><ele>47.0</ele><time>2026-04-11T08:33:30.047Z</time></trkpt><trkpt lat="43.7704086" lon="11.0276266"><ele>47.0</ele><time>2026-04-11T08:33:31.046Z</time></trkpt><trkpt lat="43.7704831" lon="11.0275921"><ele>47.0</ele><time>2026-04-11T08:33:32.047Z</time></trkpt><trkpt lat="43.7705513" lon="11.0275625"><ele>47.666666666666664</ele><time>2026-04-11T08:33:33.047Z</time></trkpt><trkpt lat="43.7706136" lon="11.0275247"><ele>48.33333333333333</ele><time>2026-04-11T08:33:34.047Z</time></trkpt><trkpt lat="43.7706772" lon="11.0274896"><ele>49.0</ele><time>2026-04-11T08:33:35.046Z</time></trkpt><trkpt lat="43.7707406" lon="11.0274634"><ele>49.666666666666664</ele><time>2026-04-11T08:33:36.047Z</time></trkpt><trkpt lat="43.7708488" lon="11.0274191"><ele>50.333333333333336</ele><time>2026-04-11T08:33:38.047Z</time></trkpt><trkpt lat="43.7709163" lon="11.0273634"><ele>51.0</ele><time>2026-04-11T08:33:40.046Z</time></trkpt><trkpt lat="43.770989" lon="11.0273204"><ele>52.833333333333336</ele><time>2026-04-11T08:33:51.047Z</time></trkpt><trkpt lat="43.7710472" lon="11.0273736"><ele>54.66666666666667</ele><time>2026-04-11T08:33:53.047Z</time></trkpt><trkpt lat="43.7711092" lon="11.0274304"><ele>56.5</ele><time>2026-04-11T08:33:55.047Z</time></trkpt><trkpt lat="43.7711652" lon="11.0274929"><ele>58.333333333333336</ele><time>2026-04-11T08:33:57.047Z</time></trkpt><trkpt lat="43.7711641" lon="11.0275823"><ele>60.16666666666667</ele><time>2026-04-11T08:34:02.047Z</time></trkpt><trkpt lat="43.771096" lon="11.027535"><ele>62.0</ele><time>2026-04-11T08:34:10.047Z</time></trkpt><trkpt lat="43.7710439" lon="11.0274254"><ele>60.833333333333336</ele><time>2026-04-11T08:34:14.134Z</time></trkpt><trkpt lat="43.7709664" lon="11.0273678"><ele>59.66666666666667</ele><time>2026-04-11T08:34:17.099Z</time></trkpt><trkpt lat="43.7708995" lon="11.0273856"><ele>58.5</ele><time>2026-04-11T08:34:19.118Z</time></trkpt><trkpt lat="43.7709062" lon="11.0272803"><ele>57.33333333333333</ele><time>2026-04-11T08:34:29.047Z</time></trkpt><trkpt lat="43.7708822" lon="11.0271642"><ele>56.166666666666664</ele><time>2026-04-11T08:34:33.047Z</time></trkpt><trkpt lat="43.7709114" lon="11.0270206"><ele>55.0</ele><time>2026-04-11T08:34:35.046Z</time></trkpt><trkpt lat="43.7709729" lon="11.0269187"><ele>56.99999999999999</ele><time>2026-04-11T08:34:37.047Z</time></trkpt><trkpt lat="43.771034" lon="11.0268748"><ele>59.0</ele><time>2026-04-11T08:34:39.047Z</time></trkpt><trkpt lat="43.7711208" lon="11.0268079"><ele>61.0</ele><time>2026-04-11T08:34:41.047Z</time></trkpt><trkpt lat="43.7712285" lon="11.0267354"><ele>63.0</ele><time>2026-04-11T08:34:43.047Z</time></trkpt><trkpt lat="43.7712692" lon="11.0266371"><ele>65.0</ele><time>2026-04-11T08:34:45.047Z</time></trkpt><trkpt lat="43.7712528" lon="11.0265304"><ele>67.0</ele><time>2026-04-11T08:34:47.047Z</time></trkpt><trkpt lat="43.7712515" lon="11.026407"><ele>69.0</ele><time>2026-04-11T08:34:49.047Z</time></trkpt><trkpt lat="43.7712365" lon="11.0262891"><ele>71.0</ele><time>2026-04-11T08:34:51.046Z</time></trkpt><trkpt lat="43.771303" lon="11.0261864"><ele>73.0</ele><time>2026-04-11T08:34:54.047Z</time></trkpt><trkpt lat="43.7713513" lon="11.0261278"><ele>75.0</ele><time>2026-04-11T08:34:55.047Z</time></trkpt><trkpt lat="43.7714298" lon="11.0260446"><ele>77.0</ele><time>2026-04-11T08:34:57.047Z</time></trkpt><trkpt lat="43.7714962" lon="11.0259552"><ele>79.0</ele><time>2026-04-11T08:34:59.047Z</time></trkpt><trkpt lat="43.771547" lon="11.0258539"><ele>79.6</ele><time>2026-04-11T08:35:01.047Z</time></trkpt><trkpt lat="43.7715986" lon="11.025761"><ele>80.2</ele><time>2026-04-11T08:35:03.047Z</time></trkpt><trkpt lat="43.7716678" lon="11.0256831"><ele>80.8</ele><time>2026-04-11T08:35:06.046Z</time></trkpt><trkpt lat="43.7717416" lon="11.0256062"><ele>81.39999999999999</ele><time>2026-04-11T08:35:08.047Z</time></trkpt><trkpt lat="43.771848" lon="11.0255511"><ele>82.0</ele><time>2026-04-11T08:35:11.143Z</time></trkpt><trkpt lat="43.7719571" lon="11.0255207"><ele>84.83333333333333</ele><time>2026-04-11T08:35:13.047Z</time></trkpt><trkpt lat="43.7720531" lon="11.0254931"><ele>87.66666666666666</ele><time>2026-04-11T08:35:15.047Z</time></trkpt><trkpt lat="43.772134" lon="11.0254888"><ele>90.5</ele><time>2026-04-11T08:35:17.047Z</time></trkpt><trkpt lat="43.7722143" lon="11.0254814"><ele>93.33333333333333</ele><time>2026-04-11T08:35:19.047Z</time></trkpt><trkpt lat="43.772274" lon="11.0254308"><ele>96.16666666666667</ele><time>2026-04-11T08:35:21.047Z</time></trkpt><trkpt lat="43.7723193" lon="11.0252972"><ele>99.0</ele><time>2026-04-11T08:35:24.051Z</time></trkpt><trkpt lat="43.7723227" lon="11.025199"><ele>99.0</ele><time>2026-04-11T08:35:26.071Z</time></trkpt><trkpt lat="43.7722506" lon="11.0254207"><ele>99.0</ele><time>2026-04-11T08:37:14.047Z</time></trkpt><trkpt lat="43.7723232" lon="11.0253559"><ele>99.0</ele><time>2026-04-11T08:39:02.045Z</time></trkpt><trkpt lat="43.7723595" lon="11.0252219"><ele>99.0</ele><time>2026-04-11T08:39:04.046Z</time></trkpt><trkpt lat="43.7724065" lon="11.0251294"><ele>99.0</ele><time>2026-04-11T08:39:06.046Z</time></trkpt><trkpt lat="43.7724513" lon="11.0250307"><ele>100.0</ele><time>2026-04-11T08:39:08.046Z</time></trkpt><trkpt lat="43.7724948" lon="11.024912"><ele>101.0</ele><time>2026-04-11T08:39:10.045Z</time></trkpt><trkpt lat="43.77257" lon="11.0247969"><ele>102.0</ele><time>2026-04-11T08:39:12.045Z</time></trkpt><trkpt lat="43.7726447" lon="11.0246702"><ele>103.0</ele><time>2026-04-11T08:39:14.046Z</time></trkpt><trkpt lat="43.772689" lon="11.0245925"><ele>104.0</ele><time>2026-04-11T08:39:15.046Z</time></trkpt><trkpt lat="43.7727389" lon="11.0245174"><ele>105.49999999999999</ele><time>2026-04-11T08:39:16.046Z</time></trkpt><trkpt lat="43.7727879" lon="11.024431"><ele>107.0</ele><time>2026-04-11T08:39:17.046Z</time></trkpt><trkpt lat="43.7728372" lon="11.0243473"><ele>108.5</ele><time>2026-04-11T08:39:18.046Z</time></trkpt><trkpt lat="43.7728814" lon="11.024251"><ele>110.0</ele><time>2026-04-11T08:39:19.046Z</time></trkpt><trkpt lat="43.7729317" lon="11.0241536"><ele>111.49999999999999</ele><time>2026-04-11T08:39:20.046Z</time></trkpt><trkpt lat="43.7729882" lon="11.0240619"><ele>113.0</ele><time>2026-04-11T08:39:21.046Z</time></trkpt><trkpt lat="43.7730438" lon="11.0239733"><ele>113.85714285714286</ele><time>2026-04-11T08:39:22.046Z</time></trkpt><trkpt lat="43.7730904" lon="11.0238936"><ele>114.71428571428571</ele><time>2026-04-11T08:39:23.046Z</time></trkpt><trkpt lat="43.7731361" lon="11.0238148"><ele>115.57142857142857</ele><time>2026-04-11T08:39:24.045Z</time></trkpt><trkpt lat="43.7731769" lon="11.0237314"><ele>116.42857142857143</ele><time>2026-04-11T08:39:25.046Z</time></trkpt><trkpt lat="43.7732074" lon="11.023648"><ele>117.28571428571428</ele><time>2026-04-11T08:39:26.046Z</time></trkpt><trkpt lat="43.7732456" lon="11.0235308"><ele>118.14285714285714</ele><time>2026-04-11T08:39:28.046Z</time></trkpt><trkpt lat="43.7732822" lon="11.0234532"><ele>119.0</ele><time>2026-04-11T08:39:31.046Z</time></trkpt><trkpt lat="43.7733403" lon="11.0233926"><ele>119.0</ele><time>2026-04-11T08:39:33.045Z</time></trkpt><trkpt lat="43.7734307" lon="11.0233272"><ele>119.0</ele><time>2026-04-11T08:39:35.046Z</time></trkpt><trkpt lat="43.7735298" lon="11.0232388"><ele>119.0</ele><time>2026-04-11T08:39:37.046Z</time></trkpt><trkpt lat="43.7736233" lon="11.023142"><ele>119.0</ele><time>2026-04-11T08:39:39.045Z</time></trkpt><trkpt lat="43.7736722" lon="11.0230773"><ele>119.0</ele><time>2026-04-11T08:39:40.046Z</time></trkpt><trkpt lat="43.7737279" lon="11.0230129"><ele>121.66666666666666</ele><time>2026-04-11T08:39:41.046Z</time></trkpt><trkpt lat="43.7737811" lon="11.0229494"><ele>124.33333333333333</ele><time>2026-04-11T08:39:42.046Z</time></trkpt><trkpt lat="43.7738416" lon="11.0228989"><ele>127.0</ele><time>2026-04-11T08:39:43.046Z</time></trkpt><trkpt lat="43.7739026" lon="11.0228635"><ele>129.66666666666666</ele><time>2026-04-11T08:39:44.046Z</time></trkpt><trkpt lat="43.7739897" lon="11.0228226"><ele>132.33333333333334</ele><time>2026-04-11T08:39:46.046Z</time></trkpt><trkpt lat="43.7740975" lon="11.0227994"><ele>135.0</ele><time>2026-04-11T08:39:54.045Z</time></trkpt><trkpt lat="43.7742195" lon="11.0227841"><ele>135.0</ele><time>2026-04-11T08:39:56.045Z</time></trkpt><trkpt lat="43.7743381" lon="11.0227552"><ele>135.0</ele><time>2026-04-11T08:39:58.046Z</time></trkpt><trkpt lat="43.7744552" lon="11.0227131"><ele>135.0</ele><time>2026-04-11T08:40:00.046Z</time></trkpt><trkpt lat="43.7745605" lon="11.0226863"><ele>135.0</ele><time>2026-04-11T08:40:02.046Z</time></trkpt><trkpt lat="43.7746587" lon="11.0226388"><ele>138.66666666666666</ele><time>2026-04-11T08:40:04.046Z</time></trkpt><trkpt lat="43.774738" lon="11.0225312"><ele>142.33333333333334</ele><time>2026-04-11T08:40:06.046Z</time></trkpt><trkpt lat="43.7747916" lon="11.0224606"><ele>146.0</ele><time>2026-04-11T08:40:08.046Z</time></trkpt><trkpt lat="43.7748403" lon="11.0225281"><ele>149.66666666666669</ele><time>2026-04-11T08:40:12.045Z</time></trkpt><trkpt lat="43.7749001" lon="11.0226265"><ele>153.33333333333334</ele><time>2026-04-11T08:40:14.046Z</time></trkpt><trkpt lat="43.7749546" lon="11.0226882"><ele>157.0</ele><time>2026-04-11T08:40:15.046Z</time></trkpt><trkpt lat="43.7750577" lon="11.0227734"><ele>157.0</ele><time>2026-04-11T08:40:17.046Z</time></trkpt><trkpt lat="43.7751749" lon="11.0228039"><ele>157.0</ele><time>2026-04-11T08:40:19.046Z</time></trkpt><trkpt lat="43.7752531" lon="11.0228117"><ele>157.0</ele><time>2026-04-11T08:40:20.046Z</time></trkpt><trkpt lat="43.7753189" lon="11.0228061"><ele>157.0</ele><time>2026-04-11T08:40:21.046Z</time></trkpt><trkpt lat="43.7754216" lon="11.0227666"><ele>157.0</ele><time>2026-04-11T08:40:23.046Z</time></trkpt><trkpt lat="43.7755209" lon="11.0226458"><ele>158.7142857142857</ele><time>2026-04-11T08:40:25.046Z</time></trkpt><trkpt lat="43.775559" lon="11.0225655"><ele>160.42857142857142</ele><time>2026-04-11T08:40:26.046Z</time></trkpt><trkpt lat="43.7755798" lon="11.0224732"><ele>162.14285714285714</ele><time>2026-04-11T08:40:27.046Z</time></trkpt><trkpt lat="43.775588" lon="11.0223708"><ele>163.85714285714283</ele><time>2026-04-11T08:40:28.045Z</time></trkpt><trkpt lat="43.7755875" lon="11.0222661"><ele>165.57142857142856</ele><time>2026-04-11T08:40:29.046Z</time></trkpt><trkpt lat="43.7755948" lon="11.0221793"><ele>167.28571428571428</ele><time>2026-04-11T08:40:30.046Z</time></trkpt><trkpt lat="43.7756005" lon="11.022075"><ele>169.0</ele><time>2026-04-11T08:40:32.046Z</time></trkpt><trkpt lat="43.7755964" lon="11.0219869"><ele>171.33333333333334</ele><time>2026-04-11T08:40:35.045Z</time></trkpt><trkpt lat="43.7755757" lon="11.0218334"><ele>173.66666666666669</ele><time>2026-04-11T08:40:42.046Z</time></trkpt><trkpt lat="43.7755626" lon="11.0217128"><ele>176.0</ele><time>2026-04-11T08:40:43.046Z</time></trkpt><trkpt lat="43.7755503" lon="11.0215928"><ele>178.33333333333334</ele><time>2026-04-11T08:40:44.046Z</time></trkpt><trkpt lat="43.7755364" lon="11.0214745"><ele>180.66666666666666</ele><time>2026-04-11T08:40:45.046Z</time></trkpt><trkpt lat="43.7755097" lon="11.0213828"><ele>183.0</ele><time>2026-04-11T08:40:46.046Z</time></trkpt><trkpt lat="43.77542" lon="11.0212804"><ele>185.4</ele><time>2026-04-11T08:40:48.046Z</time></trkpt><trkpt lat="43.7753211" lon="11.021206"><ele>187.8</ele><time>2026-04-11T08:40:50.046Z</time></trkpt><trkpt lat="43.7752677" lon="11.0211181"><ele>190.2</ele><time>2026-04-11T08:40:52.046Z</time></trkpt><trkpt lat="43.7752645" lon="11.0210082"><ele>192.6</ele><time>2026-04-11T08:40:54.046Z</time></trkpt><trkpt lat="43.7752842" lon="11.0208519"><ele>195.0</ele><time>2026-04-11T08:40:56.046Z</time></trkpt><trkpt lat="43.7752702" lon="11.0207026"><ele>195.33333333333334</ele><time>2026-04-11T08:40:58.046Z</time></trkpt><trkpt lat="43.7752204" lon="11.0206202"><ele>195.66666666666669</ele><time>2026-04-11T08:41:00.046Z</time></trkpt><trkpt lat="43.7751803" lon="11.0205467"><ele>196.0</ele><time>2026-04-11T08:41:02.046Z</time></trkpt><trkpt lat="43.7751522" lon="11.0204046"><ele>196.33333333333334</ele><time>2026-04-11T08:41:04.045Z</time></trkpt><trkpt lat="43.7751546" lon="11.0202379"><ele>196.66666666666669</ele><time>2026-04-11T08:41:06.045Z</time></trkpt><trkpt lat="43.775161" lon="11.0201497"><ele>197.0</ele><time>2026-04-11T08:41:07.046Z</time></trkpt><trkpt lat="43.7751695" lon="11.0200608"><ele>198.2</ele><time>2026-04-11T08:41:08.046Z</time></trkpt><trkpt lat="43.7751842" lon="11.0198974"><ele>199.39999999999998</ele><time>2026-04-11T08:41:10.046Z</time></trkpt><trkpt lat="43.7751993" lon="11.0197539"><ele>200.60000000000002</ele><time>2026-04-11T08:41:12.045Z</time></trkpt><trkpt lat="43.7752163" lon="11.0196148"><ele>201.8</ele><time>2026-04-11T08:41:14.046Z</time></trkpt><trkpt lat="43.77522" lon="11.0194751"><ele>203.0</ele><time>2026-04-11T08:41:16.045Z</time></trkpt><trkpt lat="43.7751985" lon="11.0193592"><ele>198.8</ele><time>2026-04-11T08:41:18.046Z</time></trkpt><trkpt lat="43.7751484" lon="11.0192683"><ele>194.60000000000002</ele><time>2026-04-11T08:41:20.046Z</time></trkpt><trkpt lat="43.775075" lon="11.0192155"><ele>190.39999999999998</ele><time>2026-04-11T08:41:22.046Z</time></trkpt><trkpt lat="43.7749872" lon="11.0191905"><ele>186.2</ele><time>2026-04-11T08:41:24.045Z</time></trkpt><trkpt lat="43.7748807" lon="11.0191753"><ele>182.0</ele><time>2026-04-11T08:41:26.046Z</time></trkpt><trkpt lat="43.7747686" lon="11.0191746"><ele>182.0</ele><time>2026-04-11T08:41:28.046Z</time></trkpt><trkpt lat="43.7746629" lon="11.0191974"><ele>182.0</ele><time>2026-04-11T08:41:30.045Z</time></trkpt><trkpt lat="43.7745424" lon="11.0191998"><ele>182.0</ele><time>2026-04-11T08:41:32.046Z</time></trkpt><trkpt lat="43.7744161" lon="11.0191618"><ele>182.0</ele><time>2026-04-11T08:41:34.045Z</time></trkpt><trkpt lat="43.7743429" lon="11.0191269"><ele>182.0</ele><time>2026-04-11T08:41:35.045Z</time></trkpt><trkpt lat="43.7742691" lon="11.019083"><ele>183.5</ele><time>2026-04-11T08:41:36.045Z</time></trkpt><trkpt lat="43.7742002" lon="11.0190303"><ele>185.0</ele><time>2026-04-11T08:41:37.046Z</time></trkpt><trkpt lat="43.77414" lon="11.0189847"><ele>186.5</ele><time>2026-04-11T08:41:38.045Z</time></trkpt><trkpt lat="43.7740226" lon="11.0189309"><ele>188.0</ele><time>2026-04-11T08:41:40.045Z</time></trkpt><trkpt lat="43.7739575" lon="11.0189116"><ele>189.5</ele><time>2026-04-11T08:41:41.046Z</time></trkpt><trkpt lat="43.7738855" lon="11.0188877"><ele>191.0</ele><time>2026-04-11T08:41:42.046Z</time></trkpt><trkpt lat="43.7738059" lon="11.0188518"><ele>191.0</ele><time>2026-04-11T08:41:43.046Z</time></trkpt><trkpt lat="43.7737265" lon="11.0188272"><ele>191.0</ele><time>2026-04-11T08:41:44.046Z</time></trkpt><trkpt lat="43.7736553" lon="11.0188182"><ele>191.0</ele><time>2026-04-11T08:41:45.046Z</time></trkpt><trkpt lat="43.77359" lon="11.018831"><ele>191.0</ele><time>2026-04-11T08:41:46.045Z</time></trkpt><trkpt lat="43.7734818" lon="11.018864"><ele>191.0</ele><time>2026-04-11T08:41:48.046Z</time></trkpt><trkpt lat="43.773403" lon="11.0188241"><ele>191.0</ele><time>2026-04-11T08:41:50.046Z</time></trkpt><trkpt lat="43.773347" lon="11.018733"><ele>190.66666666666666</ele><time>2026-04-11T08:41:52.046Z</time></trkpt><trkpt lat="43.7732896" lon="11.0186341"><ele>190.33333333333331</ele><time>2026-04-11T08:41:54.046Z</time></trkpt><trkpt lat="43.7732026" lon="11.0185347"><ele>190.0</ele><time>2026-04-11T08:41:56.046Z</time></trkpt><trkpt lat="43.7731406" lon="11.0184891"><ele>189.66666666666666</ele><time>2026-04-11T08:41:57.046Z</time></trkpt><trkpt lat="43.7730741" lon="11.0184406"><ele>189.33333333333334</ele><time>2026-04-11T08:41:58.045Z</time></trkpt><trkpt lat="43.7730002" lon="11.0183988"><ele>189.0</ele><time>2026-04-11T08:41:59.045Z</time></trkpt><trkpt lat="43.7728961" lon="11.0183729"><ele>189.0</ele><time>2026-04-11T08:42:01.046Z</time></trkpt><trkpt lat="43.7728241" lon="11.0184465"><ele>189.0</ele><time>2026-04-11T08:42:03.046Z</time></trkpt><trkpt lat="43.7727359" lon="11.0185496"><ele>189.0</ele><time>2026-04-11T08:42:05.046Z</time></trkpt><trkpt lat="43.7726298" lon="11.0186142"><ele>189.0</ele><time>2026-04-11T08:42:07.045Z</time></trkpt><trkpt lat="43.7724962" lon="11.0185968"><ele>190.16666666666666</ele><time>2026-04-11T08:42:09.046Z</time></trkpt><trkpt lat="43.7724234" lon="11.0185631"><ele>191.33333333333331</ele><time>2026-04-11T08:42:10.045Z</time></trkpt><trkpt lat="43.7723552" lon="11.0185293"><ele>192.5</ele><time>2026-04-11T08:42:11.046Z</time></trkpt><trkpt lat="43.7722925" lon="11.0185022"><ele>193.66666666666666</ele><time>2026-04-11T08:42:12.046Z</time></trkpt><trkpt lat="43.7721879" lon="11.0184527"><ele>194.83333333333331</ele><time>2026-04-11T08:42:14.046Z</time></trkpt><trkpt lat="43.772101" lon="11.0183808"><ele>196.0</ele><time>2026-04-11T08:42:16.046Z</time></trkpt><trkpt lat="43.7720538" lon="11.0183218"><ele>198.49999999999997</ele><time>2026-04-11T08:42:17.045Z</time></trkpt><trkpt lat="43.772004" lon="11.0182606"><ele>201.0</ele><time>2026-04-11T08:42:18.046Z</time></trkpt><trkpt lat="43.7719452" lon="11.0181961"><ele>203.5</ele><time>2026-04-11T08:42:19.046Z</time></trkpt><trkpt lat="43.771887" lon="11.0181437"><ele>206.0</ele><time>2026-04-11T08:42:20.046Z</time></trkpt><trkpt lat="43.7718002" lon="11.0180529"><ele>208.49999999999997</ele><time>2026-04-11T08:42:22.046Z</time></trkpt><trkpt lat="43.7717385" lon="11.0179365"><ele>211.0</ele><time>2026-04-11T08:42:24.045Z</time></trkpt><trkpt lat="43.7716731" lon="11.0178004"><ele>211.0</ele><time>2026-04-11T08:42:26.045Z</time></trkpt><trkpt lat="43.7716326" lon="11.017723"><ele>211.0</ele><time>2026-04-11T08:42:27.046Z</time></trkpt><trkpt lat="43.7715861" lon="11.0176383"><ele>211.0</ele><time>2026-04-11T08:42:28.046Z</time></trkpt><trkpt lat="43.7715428" lon="11.017561"><ele>211.0</ele><time>2026-04-11T08:42:29.045Z</time></trkpt><trkpt lat="43.7714959" lon="11.0174847"><ele>211.0</ele><time>2026-04-11T08:42:30.045Z</time></trkpt><trkpt lat="43.7714523" lon="11.0174218"><ele>211.0</ele><time>2026-04-11T08:42:31.046Z</time></trkpt><trkpt lat="43.7714045" lon="11.0173646"><ele>211.0</ele><time>2026-04-11T08:42:32.046Z</time></trkpt><trkpt lat="43.7712952" lon="11.0172773"><ele>215.49999999999997</ele><time>2026-04-11T08:42:34.046Z</time></trkpt><trkpt lat="43.7712355" lon="11.0172443"><ele>220.0</ele><time>2026-04-11T08:42:35.046Z</time></trkpt><trkpt lat="43.7711728" lon="11.0172085"><ele>224.5</ele><time>2026-04-11T08:42:36.046Z</time></trkpt><trkpt lat="43.771106" lon="11.0171782"><ele>229.0</ele><time>2026-04-11T08:42:37.046Z</time></trkpt><trkpt lat="43.7710056" lon="11.0171688"><ele>233.49999999999997</ele><time>2026-04-11T08:42:39.046Z</time></trkpt><trkpt lat="43.7709549" lon="11.0172886"><ele>238.0</ele><time>2026-04-11T08:42:41.046Z</time></trkpt><trkpt lat="43.7708881" lon="11.0174209"><ele>231.4</ele><time>2026-04-11T08:42:43.046Z</time></trkpt><trkpt lat="43.7708003" lon="11.0175128"><ele>224.8</ele><time>2026-04-11T08:42:45.046Z</time></trkpt><trkpt lat="43.7707006" lon="11.0175845"><ele>218.2</ele><time>2026-04-11T08:42:47.046Z</time></trkpt><trkpt lat="43.7705835" lon="11.0176114"><ele>211.6</ele><time>2026-04-11T08:42:49.046Z</time></trkpt><trkpt lat="43.7705178" lon="11.017607"><ele>205.0</ele><time>2026-04-11T08:42:50.046Z</time></trkpt><trkpt lat="43.7703944" lon="11.0176175"><ele>205.0</ele><time>2026-04-11T08:42:52.046Z</time></trkpt><trkpt lat="43.7702832" lon="11.0176811"><ele>205.0</ele><time>2026-04-11T08:42:54.046Z</time></trkpt><trkpt lat="43.7701883" lon="11.017773"><ele>205.0</ele><time>2026-04-11T08:42:56.046Z</time></trkpt><trkpt lat="43.7701185" lon="11.0179003"><ele>205.0</ele><time>2026-04-11T08:42:58.046Z</time></trkpt><trkpt lat="43.7700414" lon="11.017979"><ele>205.0</ele><time>2026-04-11T08:43:00.046Z</time></trkpt><trkpt lat="43.7699308" lon="11.0180103"><ele>208.49999999999997</ele><time>2026-04-11T08:43:02.046Z</time></trkpt><trkpt lat="43.7698563" lon="11.0180213"><ele>212.0</ele><time>2026-04-11T08:43:03.045Z</time></trkpt><trkpt lat="43.7697747" lon="11.0180297"><ele>215.5</ele><time>2026-04-11T08:43:04.046Z</time></trkpt><trkpt lat="43.7696944" lon="11.0180376"><ele>219.0</ele><time>2026-04-11T08:43:05.046Z</time></trkpt><trkpt lat="43.7696147" lon="11.0180459"><ele>222.49999999999997</ele><time>2026-04-11T08:43:06.045Z</time></trkpt><trkpt lat="43.7695396" lon="11.0180539"><ele>226.0</ele><time>2026-04-11T08:43:07.046Z</time></trkpt><trkpt lat="43.7694709" lon="11.0180816"><ele>226.0</ele><time>2026-04-11T08:43:08.046Z</time></trkpt><trkpt lat="43.7694129" lon="11.0181271"><ele>226.0</ele><time>2026-04-11T08:43:09.046Z</time></trkpt><trkpt lat="43.7693565" lon="11.018182"><ele>226.0</ele><time>2026-04-11T08:43:10.046Z</time></trkpt><trkpt lat="43.7692966" lon="11.0182443"><ele>226.0</ele><time>2026-04-11T08:43:11.046Z</time></trkpt><trkpt lat="43.7692355" lon="11.0183022"><ele>226.0</ele><time>2026-04-11T08:43:12.046Z</time></trkpt><trkpt lat="43.7691684" lon="11.0183525"><ele>226.0</ele><time>2026-04-11T08:43:13.046Z</time></trkpt><trkpt lat="43.7691054" lon="11.0183965"><ele>226.0</ele><time>2026-04-11T08:43:14.045Z</time></trkpt><trkpt lat="43.7690461" lon="11.0184325"><ele>222.49999999999997</ele><time>2026-04-11T08:43:15.046Z</time></trkpt><trkpt lat="43.768934" lon="11.0184954"><ele>219.0</ele><time>2026-04-11T08:43:17.046Z</time></trkpt><trkpt lat="43.7688215" lon="11.0185524"><ele>215.5</ele><time>2026-04-11T08:43:19.046Z</time></trkpt><trkpt lat="43.7687546" lon="11.0185701"><ele>212.0</ele><time>2026-04-11T08:43:20.046Z</time></trkpt><trkpt lat="43.7686868" lon="11.018574"><ele>208.49999999999997</ele><time>2026-04-11T08:43:21.046Z</time></trkpt><trkpt lat="43.7686152" lon="11.0185596"><ele>205.0</ele><time>2026-04-11T08:43:22.046Z</time></trkpt><trkpt lat="43.7685389" lon="11.0185573"><ele>206.0</ele><time>2026-04-11T08:43:23.046Z</time></trkpt><trkpt lat="43.7684229" lon="11.0185643"><ele>207.0</ele><time>2026-04-11T08:43:25.046Z</time></trkpt><trkpt lat="43.7683169" lon="11.0186192"><ele>208.0</ele><time>2026-04-11T08:43:27.045Z</time></trkpt><trkpt lat="43.7682502" lon="11.0186581"><ele>209.0</ele><time>2026-04-11T08:43:28.046Z</time></trkpt><trkpt lat="43.76818" lon="11.0186899"><ele>210.0</ele><time>2026-04-11T08:43:29.046Z</time></trkpt><trkpt lat="43.7680676" lon="11.0187359"><ele>210.0</ele><time>2026-04-11T08:43:31.046Z</time></trkpt><trkpt lat="43.7679743" lon="11.0187531"><ele>210.0</ele><time>2026-04-11T08:43:33.046Z</time></trkpt><trkpt lat="43.7678969" lon="11.0187733"><ele>210.0</ele><time>2026-04-11T08:43:35.045Z</time></trkpt><trkpt lat="43.7678079" lon="11.0187984"><ele>210.0</ele><time>2026-04-11T08:43:37.046Z</time></trkpt><trkpt lat="43.7677361" lon="11.0188636"><ele>210.0</ele><time>2026-04-11T08:43:39.046Z</time></trkpt><trkpt lat="43.7676465" lon="11.018915"><ele>210.0</ele><time>2026-04-11T08:43:41.046Z</time></trkpt><trkpt lat="43.7675384" lon="11.0189144"><ele>209.8</ele><time>2026-04-11T08:43:43.046Z</time></trkpt><trkpt lat="43.7674749" lon="11.0189141"><ele>209.6</ele><time>2026-04-11T08:43:44.045Z</time></trkpt><trkpt lat="43.7673515" lon="11.0189068"><ele>209.39999999999998</ele><time>2026-04-11T08:43:46.046Z</time></trkpt><trkpt lat="43.7672836" lon="11.0189071"><ele>209.2</ele><time>2026-04-11T08:43:47.046Z</time></trkpt><trkpt lat="43.7671695" lon="11.0189077"><ele>209.0</ele><time>2026-04-11T08:43:49.046Z</time></trkpt><trkpt lat="43.76707" lon="11.01888"><ele>209.00000000000003</ele><time>2026-04-11T08:43:51.046Z</time></trkpt><trkpt lat="43.7669801" lon="11.0188233"><ele>209.0</ele><time>2026-04-11T08:43:53.045Z</time></trkpt><trkpt lat="43.7669267" lon="11.0187746"><ele>209.0</ele><time>2026-04-11T08:43:54.046Z</time></trkpt><trkpt lat="43.7668716" lon="11.0187206"><ele>209.0</ele><time>2026-04-11T08:43:55.045Z</time></trkpt><trkpt lat="43.766822" lon="11.0186649"><ele>209.00000000000003</ele><time>2026-04-11T08:43:56.046Z</time></trkpt><trkpt lat="43.7667213" lon="11.018595"><ele>209.0</ele><time>2026-04-11T08:43:58.044Z</time></trkpt><trkpt lat="43.7666545" lon="11.0185765"><ele>207.33333333333334</ele><time>2026-04-11T08:43:59.045Z</time></trkpt><trkpt lat="43.7665847" lon="11.0185556"><ele>205.66666666666669</ele><time>2026-04-11T08:44:00.044Z</time></trkpt><trkpt lat="43.7665176" lon="11.0185378"><ele>204.0</ele><time>2026-04-11T08:44:01.045Z</time></trkpt><trkpt lat="43.7664047" lon="11.0185082"><ele>202.33333333333331</ele><time>2026-04-11T08:44:03.045Z</time></trkpt><trkpt lat="43.7663209" lon="11.0184457"><ele>200.66666666666666</ele><time>2026-04-11T08:44:05.044Z</time></trkpt><trkpt lat="43.766245" lon="11.0183912"><ele>199.0</ele><time>2026-04-11T08:44:07.045Z</time></trkpt><trkpt lat="43.7661758" lon="11.0183227"><ele>200.66666666666666</ele><time>2026-04-11T08:44:09.045Z</time></trkpt><trkpt lat="43.7661229" lon="11.0182667"><ele>202.33333333333331</ele><time>2026-04-11T08:44:10.044Z</time></trkpt><trkpt lat="43.7660665" lon="11.0182114"><ele>204.0</ele><time>2026-04-11T08:44:11.044Z</time></trkpt><trkpt lat="43.7659896" lon="11.0181027"><ele>205.66666666666669</ele><time>2026-04-11T08:44:13.045Z</time></trkpt><trkpt lat="43.7659409" lon="11.0179955"><ele>207.33333333333334</ele><time>2026-04-11T08:44:15.045Z</time></trkpt><trkpt lat="43.7658842" lon="11.0179293"><ele>209.0</ele><time>2026-04-11T08:44:17.044Z</time></trkpt><trkpt lat="43.7657972" lon="11.0178985"><ele>209.0</ele><time>2026-04-11T08:44:19.045Z</time></trkpt><trkpt lat="43.765678" lon="11.0178847"><ele>209.0</ele><time>2026-04-11T08:44:21.045Z</time></trkpt><trkpt lat="43.7656094" lon="11.0178834"><ele>209.0</ele><time>2026-04-11T08:44:22.045Z</time></trkpt><trkpt lat="43.7654946" lon="11.0178708"><ele>209.0</ele><time>2026-04-11T08:44:24.045Z</time></trkpt><trkpt lat="43.7654108" lon="11.0178697"><ele>209.0</ele><time>2026-04-11T08:44:26.044Z</time></trkpt><trkpt lat="43.765328" lon="11.017922"><ele>209.00000000000003</ele><time>2026-04-11T08:44:28.045Z</time></trkpt><trkpt lat="43.7652425" lon="11.0180151"><ele>209.0</ele><time>2026-04-11T08:44:30.045Z</time></trkpt><trkpt lat="43.7651522" lon="11.018067"><ele>209.0</ele><time>2026-04-11T08:44:32.044Z</time></trkpt><trkpt lat="43.7650817" lon="11.018064"><ele>209.0</ele><time>2026-04-11T08:44:35.045Z</time></trkpt><trkpt lat="43.7650267" lon="11.0180116"><ele>209.00000000000003</ele><time>2026-04-11T08:44:39.044Z</time></trkpt><trkpt lat="43.7649654" lon="11.0179572"><ele>209.0</ele><time>2026-04-11T08:44:46.044Z</time></trkpt><trkpt lat="43.7648684" lon="11.0179162"><ele>207.0</ele><time>2026-04-11T08:44:48.045Z</time></trkpt><trkpt lat="43.7647769" lon="11.0178581"><ele>205.0</ele><time>2026-04-11T08:44:50.044Z</time></trkpt><trkpt lat="43.7647161" lon="11.0177867"><ele>203.0</ele><time>2026-04-11T08:44:52.045Z</time></trkpt><trkpt lat="43.76466" lon="11.0176618"><ele>201.0</ele><time>2026-04-11T08:44:54.045Z</time></trkpt><trkpt lat="43.7646136" lon="11.0175186"><ele>199.0</ele><time>2026-04-11T08:44:56.045Z</time></trkpt><trkpt lat="43.7645568" lon="11.0173752"><ele>200.6</ele><time>2026-04-11T08:44:58.045Z</time></trkpt><trkpt lat="43.7644702" lon="11.0172632"><ele>202.2</ele><time>2026-04-11T08:45:00.045Z</time></trkpt><trkpt lat="43.7643822" lon="11.0171656"><ele>203.79999999999998</ele><time>2026-04-11T08:45:02.045Z</time></trkpt><trkpt lat="43.7643241" lon="11.0170706"><ele>205.39999999999998</ele><time>2026-04-11T08:45:04.044Z</time></trkpt><trkpt lat="43.7642623" lon="11.0169375"><ele>207.0</ele><time>2026-04-11T08:45:06.044Z</time></trkpt><trkpt lat="43.7642038" lon="11.0168198"><ele>207.0</ele><time>2026-04-11T08:45:08.045Z</time></trkpt><trkpt lat="43.7641478" lon="11.01675"><ele>207.0</ele><time>2026-04-11T08:45:10.045Z</time></trkpt><trkpt lat="43.7640936" lon="11.0166835"><ele>207.0</ele><time>2026-04-11T08:45:12.045Z</time></trkpt><trkpt lat="43.7640504" lon="11.0166184"><ele>207.0</ele><time>2026-04-11T08:45:14.045Z</time></trkpt><trkpt lat="43.7640271" lon="11.0165047"><ele>207.0</ele><time>2026-04-11T08:45:17.045Z</time></trkpt><trkpt lat="43.7639786" lon="11.0164209"><ele>207.0</ele><time>2026-04-11T08:45:19.045Z</time></trkpt><trkpt lat="43.7638981" lon="11.0163932"><ele>208.66666666666666</ele><time>2026-04-11T08:45:21.045Z</time></trkpt><trkpt lat="43.763829" lon="11.0163817"><ele>210.33333333333331</ele><time>2026-04-11T08:45:22.045Z</time></trkpt><trkpt lat="43.7637522" lon="11.0163825"><ele>212.0</ele><time>2026-04-11T08:45:23.044Z</time></trkpt><trkpt lat="43.7636857" lon="11.0163857"><ele>213.66666666666666</ele><time>2026-04-11T08:45:24.045Z</time></trkpt><trkpt lat="43.7636226" lon="11.0163745"><ele>215.33333333333331</ele><time>2026-04-11T08:45:25.045Z</time></trkpt><trkpt lat="43.763521" lon="11.0163415"><ele>217.0</ele><time>2026-04-11T08:45:27.044Z</time></trkpt><trkpt lat="43.76342" lon="11.0162756"><ele>217.0</ele><time>2026-04-11T08:45:29.045Z</time></trkpt><trkpt lat="43.7633184" lon="11.0161905"><ele>217.0</ele><time>2026-04-11T08:45:31.045Z</time></trkpt><trkpt lat="43.7632169" lon="11.0161342"><ele>217.0</ele><time>2026-04-11T08:45:33.045Z</time></trkpt><trkpt lat="43.7631116" lon="11.0161355"><ele>217.0</ele><time>2026-04-11T08:45:35.045Z</time></trkpt><trkpt lat="43.7630116" lon="11.0161727"><ele>217.0</ele><time>2026-04-11T08:45:37.045Z</time></trkpt><trkpt lat="43.76291" lon="11.0161974"><ele>217.0</ele><time>2026-04-11T08:45:39.045Z</time></trkpt><trkpt lat="43.7627938" lon="11.0161895"><ele>217.0</ele><time>2026-04-11T08:45:41.045Z</time></trkpt><trkpt lat="43.7626979" lon="11.0161811"><ele>217.0</ele><time>2026-04-11T08:45:43.045Z</time></trkpt><trkpt lat="43.7626314" lon="11.0162368"><ele>217.0</ele><time>2026-04-11T08:45:45.045Z</time></trkpt><trkpt lat="43.7625738" lon="11.0163618"><ele>217.0</ele><time>2026-04-11T08:45:47.045Z</time></trkpt><trkpt lat="43.7625244" lon="11.0164985"><ele>216.16666666666666</ele><time>2026-04-11T08:45:49.044Z</time></trkpt><trkpt lat="43.7624634" lon="11.0165778"><ele>215.33333333333331</ele><time>2026-04-11T08:45:51.045Z</time></trkpt><trkpt lat="43.762354" lon="11.016644"><ele>214.5</ele><time>2026-04-11T08:45:53.045Z</time></trkpt><trkpt lat="43.7622817" lon="11.0166719"><ele>213.66666666666669</ele><time>2026-04-11T08:45:54.044Z</time></trkpt><trkpt lat="43.7622087" lon="11.0166982"><ele>212.83333333333334</ele><time>2026-04-11T08:45:55.045Z</time></trkpt><trkpt lat="43.7621335" lon="11.0167267"><ele>212.0</ele><time>2026-04-11T08:45:56.044Z</time></trkpt><trkpt lat="43.7620659" lon="11.0167613"><ele>210.57142857142858</ele><time>2026-04-11T08:45:57.045Z</time></trkpt><trkpt lat="43.7620017" lon="11.0167946"><ele>209.14285714285714</ele><time>2026-04-11T08:45:58.045Z</time></trkpt><trkpt lat="43.7619378" lon="11.016818"><ele>207.71428571428572</ele><time>2026-04-11T08:45:59.044Z</time></trkpt><trkpt lat="43.7618726" lon="11.0168348"><ele>206.28571428571428</ele><time>2026-04-11T08:46:00.045Z</time></trkpt><trkpt lat="43.7618035" lon="11.0168447"><ele>204.85714285714283</ele><time>2026-04-11T08:46:01.045Z</time></trkpt><trkpt lat="43.7617252" lon="11.0168512"><ele>203.42857142857142</ele><time>2026-04-11T08:46:02.045Z</time></trkpt><trkpt lat="43.761643" lon="11.0168711"><ele>202.0</ele><time>2026-04-11T08:46:03.045Z</time></trkpt><trkpt lat="43.7615665" lon="11.0168887"><ele>202.0</ele><time>2026-04-11T08:46:04.045Z</time></trkpt><trkpt lat="43.7614921" lon="11.0169031"><ele>202.0</ele><time>2026-04-11T08:46:05.044Z</time></trkpt><trkpt lat="43.7614199" lon="11.016916"><ele>202.0</ele><time>2026-04-11T08:46:06.044Z</time></trkpt><trkpt lat="43.7613486" lon="11.016921"><ele>202.0</ele><time>2026-04-11T08:46:07.045Z</time></trkpt><trkpt lat="43.761277" lon="11.016932"><ele>202.0</ele><time>2026-04-11T08:46:08.045Z</time></trkpt><trkpt lat="43.7612123" lon="11.0169382"><ele>202.0</ele><time>2026-04-11T08:46:09.045Z</time></trkpt><trkpt lat="43.761147" lon="11.0169359"><ele>202.0</ele><time>2026-04-11T08:46:10.045Z</time></trkpt><trkpt lat="43.7610812" lon="11.0169248"><ele>202.0</ele><time>2026-04-11T08:46:11.044Z</time></trkpt><trkpt lat="43.761017" lon="11.0169031"><ele>202.0</ele><time>2026-04-11T08:46:12.045Z</time></trkpt><trkpt lat="43.7609478" lon="11.0168792"><ele>202.0</ele><time>2026-04-11T08:46:13.045Z</time></trkpt><trkpt lat="43.7608746" lon="11.016847"><ele>202.0</ele><time>2026-04-11T08:46:14.045Z</time></trkpt><trkpt lat="43.7608042" lon="11.0168144"><ele>202.0</ele><time>2026-04-11T08:46:15.045Z</time></trkpt><trkpt lat="43.7607318" lon="11.0167875"><ele>202.0</ele><time>2026-04-11T08:46:16.045Z</time></trkpt><trkpt lat="43.7606672" lon="11.0167717"><ele>202.0</ele><time>2026-04-11T08:46:17.045Z</time></trkpt><trkpt lat="43.760554" lon="11.0167584"><ele>202.0</ele><time>2026-04-11T08:46:19.045Z</time></trkpt><trkpt lat="43.7604554" lon="11.0167407"><ele>202.0</ele><time>2026-04-11T08:46:21.045Z</time></trkpt><trkpt lat="43.760358" lon="11.0167275"><ele>202.0</ele><time>2026-04-11T08:46:23.045Z</time></trkpt><trkpt lat="43.760258" lon="11.0166906"><ele>202.0</ele><time>2026-04-11T08:46:25.045Z</time></trkpt><trkpt lat="43.7601538" lon="11.0166201"><ele>202.0</ele><time>2026-04-11T08:46:27.045Z</time></trkpt><trkpt lat="43.7600993" lon="11.0165659"><ele>201.16666666666666</ele><time>2026-04-11T08:46:28.045Z</time></trkpt><trkpt lat="43.7600443" lon="11.0165109"><ele>200.33333333333331</ele><time>2026-04-11T08:46:29.045Z</time></trkpt><trkpt lat="43.7599851" lon="11.0164457"><ele>199.5</ele><time>2026-04-11T08:46:30.045Z</time></trkpt><trkpt lat="43.7599302" lon="11.0163845"><ele>198.66666666666669</ele><time>2026-04-11T08:46:31.045Z</time></trkpt><trkpt lat="43.7598307" lon="11.0162976"><ele>197.83333333333334</ele><time>2026-04-11T08:46:33.045Z</time></trkpt><trkpt lat="43.759746" lon="11.0162425"><ele>197.0</ele><time>2026-04-11T08:46:35.045Z</time></trkpt><trkpt lat="43.7596717" lon="11.016182"><ele>197.0</ele><time>2026-04-11T08:46:37.045Z</time></trkpt><trkpt lat="43.7596166" lon="11.016125"><ele>197.0</ele><time>2026-04-11T08:46:39.045Z</time></trkpt><trkpt lat="43.7597069" lon="11.01603"><ele>197.0</ele><time>2026-04-11T08:46:42.045Z</time></trkpt><trkpt lat="43.7597798" lon="11.0159712"><ele>197.0</ele><time>2026-04-11T08:46:43.045Z</time></trkpt><trkpt lat="43.7598666" lon="11.0158864"><ele>197.0</ele><time>2026-04-11T08:46:44.045Z</time></trkpt><trkpt lat="43.7599579" lon="11.0158043"><ele>198.25</ele><time>2026-04-11T08:46:45.045Z</time></trkpt><trkpt lat="43.7600618" lon="11.0157266"><ele>199.5</ele><time>2026-04-11T08:46:46.045Z</time></trkpt><trkpt lat="43.7601771" lon="11.015665"><ele>200.75</ele><time>2026-04-11T08:46:47.045Z</time></trkpt><trkpt lat="43.7602947" lon="11.0156061"><ele>202.0</ele><time>2026-04-11T08:46:48.044Z</time></trkpt><trkpt lat="43.7604012" lon="11.0155515"><ele>202.0</ele><time>2026-04-11T08:46:49.045Z</time></trkpt><trkpt lat="43.7605115" lon="11.0155092"><ele>202.0</ele><time>2026-04-11T08:46:50.045Z</time></trkpt><trkpt lat="43.7606178" lon="11.0154733"><ele>202.0</ele><time>2026-04-11T08:46:51.045Z</time></trkpt><trkpt lat="43.7607128" lon="11.0154431"><ele>202.0</ele><time>2026-04-11T08:46:52.045Z</time></trkpt><trkpt lat="43.7607987" lon="11.0154169"><ele>202.0</ele><time>2026-04-11T08:46:53.045Z</time></trkpt><trkpt lat="43.7608875" lon="11.0153829"><ele>202.0</ele><time>2026-04-11T08:46:54.045Z</time></trkpt><trkpt lat="43.7609787" lon="11.0153327"><ele>202.0</ele><time>2026-04-11T08:46:55.045Z</time></trkpt><trkpt lat="43.7610739" lon="11.015293"><ele>202.0</ele><time>2026-04-11T08:46:56.045Z</time></trkpt><trkpt lat="43.7611786" lon="11.0152694"><ele>202.0</ele><time>2026-04-11T08:46:57.045Z</time></trkpt><trkpt lat="43.7613005" lon="11.0152707"><ele>202.0</ele><time>2026-04-11T08:46:58.045Z</time></trkpt><trkpt lat="43.7614161" lon="11.0152692"><ele>203.39999999999998</ele><time>2026-04-11T08:46:59.045Z</time></trkpt><trkpt lat="43.7615258" lon="11.0152578"><ele>204.79999999999998</ele><time>2026-04-11T08:47:00.045Z</time></trkpt><trkpt lat="43.7616315" lon="11.0152352"><ele>206.2</ele><time>2026-04-11T08:47:01.045Z</time></trkpt><trkpt lat="43.7617422" lon="11.0152127"><ele>207.6</ele><time>2026-04-11T08:47:02.045Z</time></trkpt><trkpt lat="43.7618484" lon="11.0151832"><ele>209.0</ele><time>2026-04-11T08:47:03.045Z</time></trkpt><trkpt lat="43.7619586" lon="11.0151599"><ele>209.79999999999998</ele><time>2026-04-11T08:47:04.045Z</time></trkpt><trkpt lat="43.7620632" lon="11.0151484"><ele>210.6</ele><time>2026-04-11T08:47:05.044Z</time></trkpt><trkpt lat="43.7621607" lon="11.0151449"><ele>211.4</ele><time>2026-04-11T08:47:06.045Z</time></trkpt><trkpt lat="43.7622504" lon="11.0151476"><ele>212.2</ele><time>2026-04-11T08:47:07.045Z</time></trkpt><trkpt lat="43.7623436" lon="11.0151467"><ele>213.0</ele><time>2026-04-11T08:47:08.045Z</time></trkpt><trkpt lat="43.7624496" lon="11.0151359"><ele>213.0</ele><time>2026-04-11T08:47:09.045Z</time></trkpt><trkpt lat="43.7625499" lon="11.0151128"><ele>213.0</ele><time>2026-04-11T08:47:10.045Z</time></trkpt><trkpt lat="43.7626456" lon="11.0150756"><ele>213.0</ele><time>2026-04-11T08:47:11.045Z</time></trkpt><trkpt lat="43.7627519" lon="11.0150286"><ele>213.0</ele><time>2026-04-11T08:47:12.045Z</time></trkpt><trkpt lat="43.7628609" lon="11.014992"><ele>213.0</ele><time>2026-04-11T08:47:13.045Z</time></trkpt><trkpt lat="43.7629696" lon="11.0149578"><ele>213.60000000000002</ele><time>2026-04-11T08:47:14.045Z</time></trkpt><trkpt lat="43.7630805" lon="11.0149444"><ele>214.20000000000002</ele><time>2026-04-11T08:47:15.045Z</time></trkpt><trkpt lat="43.7631901" lon="11.0149474"><ele>214.8</ele><time>2026-04-11T08:47:16.044Z</time></trkpt><trkpt lat="43.7632926" lon="11.0149581"><ele>215.4</ele><time>2026-04-11T08:47:17.045Z</time></trkpt><trkpt lat="43.7633864" lon="11.0149657"><ele>216.0</ele><time>2026-04-11T08:47:18.045Z</time></trkpt><trkpt lat="43.7634817" lon="11.0149447"><ele>218.0</ele><time>2026-04-11T08:47:19.045Z</time></trkpt><trkpt lat="43.7635731" lon="11.0149099"><ele>220.00000000000003</ele><time>2026-04-11T08:47:20.045Z</time></trkpt><trkpt lat="43.7636593" lon="11.0148589"><ele>222.00000000000003</ele><time>2026-04-11T08:47:21.045Z</time></trkpt><trkpt lat="43.7637477" lon="11.0147986"><ele>224.0</ele><time>2026-04-11T08:47:22.045Z</time></trkpt><trkpt lat="43.7638303" lon="11.0147368"><ele>226.0</ele><time>2026-04-11T08:47:23.045Z</time></trkpt><trkpt lat="43.7639016" lon="11.0146715"><ele>225.99999999999997</ele><time>2026-04-11T08:47:24.044Z</time></trkpt><trkpt lat="43.7639649" lon="11.0146081"><ele>226.0</ele><time>2026-04-11T08:47:25.045Z</time></trkpt><trkpt lat="43.7640301" lon="11.0145536"><ele>226.0</ele><time>2026-04-11T08:47:26.045Z</time></trkpt><trkpt lat="43.7641021" lon="11.014514"><ele>226.0</ele><time>2026-04-11T08:47:27.045Z</time></trkpt><trkpt lat="43.7641807" lon="11.0144882"><ele>225.99999999999997</ele><time>2026-04-11T08:47:28.045Z</time></trkpt><trkpt lat="43.7642646" lon="11.0144664"><ele>226.0</ele><time>2026-04-11T08:47:29.045Z</time></trkpt><trkpt lat="43.7643493" lon="11.0144417"><ele>227.83333333333331</ele><time>2026-04-11T08:47:30.045Z</time></trkpt><trkpt lat="43.7644335" lon="11.0144228"><ele>229.66666666666666</ele><time>2026-04-11T08:47:31.045Z</time></trkpt><trkpt lat="43.7645166" lon="11.0144148"><ele>231.5</ele><time>2026-04-11T08:47:32.045Z</time></trkpt><trkpt lat="43.7645912" lon="11.0144292"><ele>233.33333333333331</ele><time>2026-04-11T08:47:33.045Z</time></trkpt><trkpt lat="43.7646715" lon="11.0144595"><ele>235.16666666666666</ele><time>2026-04-11T08:47:34.044Z</time></trkpt><trkpt lat="43.7647528" lon="11.0145182"><ele>237.0</ele><time>2026-04-11T08:47:35.045Z</time></trkpt><trkpt lat="43.7648303" lon="11.0145959"><ele>237.0</ele><time>2026-04-11T08:47:36.045Z</time></trkpt><trkpt lat="43.7648989" lon="11.0146758"><ele>237.0</ele><time>2026-04-11T08:47:37.044Z</time></trkpt><trkpt lat="43.7649815" lon="11.0147583"><ele>237.0</ele><time>2026-04-11T08:47:38.045Z</time></trkpt><trkpt lat="43.7650652" lon="11.0148362"><ele>237.0</ele><time>2026-04-11T08:47:39.044Z</time></trkpt><trkpt lat="43.7651432" lon="11.0149118"><ele>237.0</ele><time>2026-04-11T08:47:40.044Z</time></trkpt><trkpt lat="43.7652232" lon="11.014983"><ele>239.66666666666666</ele><time>2026-04-11T08:47:41.045Z</time></trkpt><trkpt lat="43.7653014" lon="11.0150401"><ele>242.33333333333331</ele><time>2026-04-11T08:47:42.044Z</time></trkpt><trkpt lat="43.7653822" lon="11.0150932"><ele>245.0</ele><time>2026-04-11T08:47:43.045Z</time></trkpt><trkpt lat="43.7654569" lon="11.0151486"><ele>247.66666666666666</ele><time>2026-04-11T08:47:44.045Z</time></trkpt><trkpt lat="43.7655213" lon="11.0152143"><ele>250.33333333333331</ele><time>2026-04-11T08:47:45.044Z</time></trkpt><trkpt lat="43.7655737" lon="11.0153014"><ele>253.0</ele><time>2026-04-11T08:47:46.044Z</time></trkpt><trkpt lat="43.7656128" lon="11.0154117"><ele>253.0</ele><time>2026-04-11T08:47:47.045Z</time></trkpt><trkpt lat="43.7656451" lon="11.015535"><ele>253.0</ele><time>2026-04-11T08:47:48.045Z</time></trkpt><trkpt lat="43.7656777" lon="11.0156416"><ele>253.0</ele><time>2026-04-11T08:47:49.045Z</time></trkpt><trkpt lat="43.7657068" lon="11.0157225"><ele>253.0</ele><time>2026-04-11T08:47:50.044Z</time></trkpt><trkpt lat="43.765786" lon="11.0158064"><ele>253.0</ele><time>2026-04-11T08:47:52.044Z</time></trkpt><trkpt lat="43.7659091" lon="11.0158318"><ele>252.28571428571433</ele><time>2026-04-11T08:47:54.045Z</time></trkpt><trkpt lat="43.765978" lon="11.015831"><ele>251.57142857142858</ele><time>2026-04-11T08:47:55.045Z</time></trkpt><trkpt lat="43.7660509" lon="11.0158235"><ele>250.8571428571429</ele><time>2026-04-11T08:47:56.044Z</time></trkpt><trkpt lat="43.7661292" lon="11.01581"><ele>250.14285714285717</ele><time>2026-04-11T08:47:57.045Z</time></trkpt><trkpt lat="43.7662032" lon="11.0157888"><ele>249.42857142857144</ele><time>2026-04-11T08:47:58.045Z</time></trkpt><trkpt lat="43.7662715" lon="11.0157732"><ele>248.71428571428572</ele><time>2026-04-11T08:47:59.044Z</time></trkpt><trkpt lat="43.76634" lon="11.0157657"><ele>248.0</ele><time>2026-04-11T08:48:00.045Z</time></trkpt><trkpt lat="43.7664108" lon="11.0157656"><ele>251.00000000000003</ele><time>2026-04-11T08:48:01.045Z</time></trkpt><trkpt lat="43.766485" lon="11.015762"><ele>254.0</ele><time>2026-04-11T08:48:02.045Z</time></trkpt><trkpt lat="43.7665681" lon="11.0157452"><ele>257.0</ele><time>2026-04-11T08:48:03.044Z</time></trkpt><trkpt lat="43.7666533" lon="11.0157123"><ele>260.0</ele><time>2026-04-11T08:48:04.045Z</time></trkpt><trkpt lat="43.7667415" lon="11.0156687"><ele>263.0</ele><time>2026-04-11T08:48:05.044Z</time></trkpt><trkpt lat="43.7668278" lon="11.0156209"><ele>266.0</ele><time>2026-04-11T08:48:06.044Z</time></trkpt><trkpt lat="43.7668998" lon="11.0155707"><ele>267.1666666666667</ele><time>2026-04-11T08:48:07.045Z</time></trkpt><trkpt lat="43.7669624" lon="11.015525"><ele>268.33333333333337</ele><time>2026-04-11T08:48:08.044Z</time></trkpt><trkpt lat="43.7670822" lon="11.0154692"><ele>269.5</ele><time>2026-04-11T08:48:10.045Z</time></trkpt><trkpt lat="43.7671514" lon="11.0154485"><ele>270.6666666666667</ele><time>2026-04-11T08:48:11.045Z</time></trkpt><trkpt lat="43.7672199" lon="11.0154369"><ele>271.8333333333333</ele><time>2026-04-11T08:48:12.045Z</time></trkpt><trkpt lat="43.7672869" lon="11.0154261"><ele>273.0</ele><time>2026-04-11T08:48:13.045Z</time></trkpt><trkpt lat="43.7673509" lon="11.0154117"><ele>273.0</ele><time>2026-04-11T08:48:14.044Z</time></trkpt><trkpt lat="43.7674698" lon="11.015369"><ele>273.0</ele><time>2026-04-11T08:48:16.045Z</time></trkpt><trkpt lat="43.7675315" lon="11.0153403"><ele>273.0</ele><time>2026-04-11T08:48:17.045Z</time></trkpt><trkpt lat="43.7676473" lon="11.015307"><ele>273.0</ele><time>2026-04-11T08:48:19.045Z</time></trkpt><trkpt lat="43.7677358" lon="11.0152578"><ele>273.0</ele><time>2026-04-11T08:48:21.045Z</time></trkpt><trkpt lat="43.7678255" lon="11.0151459"><ele>274.4</ele><time>2026-04-11T08:48:23.044Z</time></trkpt><trkpt lat="43.7679182" lon="11.0150306"><ele>275.8</ele><time>2026-04-11T08:48:25.045Z</time></trkpt><trkpt lat="43.7680368" lon="11.0149563"><ele>277.2</ele><time>2026-04-11T08:48:27.045Z</time></trkpt><trkpt lat="43.7681114" lon="11.0149274"><ele>278.6</ele><time>2026-04-11T08:48:28.045Z</time></trkpt><trkpt lat="43.7681775" lon="11.0149017"><ele>280.0</ele><time>2026-04-11T08:48:29.045Z</time></trkpt><trkpt lat="43.7682439" lon="11.0148793"><ele>280.4</ele><time>2026-04-11T08:48:30.045Z</time></trkpt><trkpt lat="43.7683507" lon="11.0148271"><ele>280.8</ele><time>2026-04-11T08:48:32.045Z</time></trkpt><trkpt lat="43.7684339" lon="11.0148081"><ele>281.2</ele><time>2026-04-11T08:48:34.045Z</time></trkpt><trkpt lat="43.7685295" lon="11.014793"><ele>281.6</ele><time>2026-04-11T08:48:36.045Z</time></trkpt><trkpt lat="43.7686516" lon="11.0148027"><ele>282.0</ele><time>2026-04-11T08:48:38.045Z</time></trkpt><trkpt lat="43.7687186" lon="11.0148142"><ele>282.4</ele><time>2026-04-11T08:48:39.044Z</time></trkpt><trkpt lat="43.7687822" lon="11.0148285"><ele>282.79999999999995</ele><time>2026-04-11T08:48:40.045Z</time></trkpt><trkpt lat="43.7688855" lon="11.0148219"><ele>283.2</ele><time>2026-04-11T08:48:42.044Z</time></trkpt><trkpt lat="43.7689612" lon="11.0147965"><ele>283.59999999999997</ele><time>2026-04-11T08:48:44.044Z</time></trkpt><trkpt lat="43.7690665" lon="11.0147893"><ele>284.0</ele><time>2026-04-11T08:48:46.045Z</time></trkpt><trkpt lat="43.7691962" lon="11.0147651"><ele>284.0</ele><time>2026-04-11T08:48:48.045Z</time></trkpt><trkpt lat="43.7692658" lon="11.0147531"><ele>284.0</ele><time>2026-04-11T08:48:49.045Z</time></trkpt><trkpt lat="43.7693299" lon="11.0147462"><ele>284.0</ele><time>2026-04-11T08:48:50.045Z</time></trkpt><trkpt lat="43.7694249" lon="11.0147296"><ele>284.0</ele><time>2026-04-11T08:48:52.045Z</time></trkpt><trkpt lat="43.7694978" lon="11.0147034"><ele>284.0</ele><time>2026-04-11T08:48:54.045Z</time></trkpt><trkpt lat="43.7695617" lon="11.014668"><ele>284.0</ele><time>2026-04-11T08:48:56.044Z</time></trkpt><trkpt lat="43.7696449" lon="11.0146176"><ele>284.59999999999997</ele><time>2026-04-11T08:48:58.045Z</time></trkpt><trkpt lat="43.7697408" lon="11.0145522"><ele>285.2</ele><time>2026-04-11T08:49:00.044Z</time></trkpt><trkpt lat="43.7698311" lon="11.0144941"><ele>285.79999999999995</ele><time>2026-04-11T08:49:02.044Z</time></trkpt><trkpt lat="43.7699198" lon="11.0144461"><ele>286.4</ele><time>2026-04-11T08:49:04.045Z</time></trkpt><trkpt lat="43.7700197" lon="11.0144123"><ele>287.0</ele><time>2026-04-11T08:49:06.045Z</time></trkpt><trkpt lat="43.7701356" lon="11.0143876"><ele>287.83333333333337</ele><time>2026-04-11T08:49:08.044Z</time></trkpt><trkpt lat="43.7702074" lon="11.0143717"><ele>288.6666666666667</ele><time>2026-04-11T08:49:09.044Z</time></trkpt><trkpt lat="43.7702957" lon="11.0143575"><ele>289.5</ele><time>2026-04-11T08:49:10.045Z</time></trkpt><trkpt lat="43.770381" lon="11.0143483"><ele>290.3333333333333</ele><time>2026-04-11T08:49:11.045Z</time></trkpt><trkpt lat="43.7704536" lon="11.0143464"><ele>291.16666666666663</ele><time>2026-04-11T08:49:12.045Z</time></trkpt><trkpt lat="43.7705193" lon="11.0143471"><ele>292.0</ele><time>2026-04-11T08:49:13.045Z</time></trkpt><trkpt lat="43.7706363" lon="11.0143422"><ele>292.0</ele><time>2026-04-11T08:49:15.045Z</time></trkpt><trkpt lat="43.7707459" lon="11.0143323"><ele>292.0</ele><time>2026-04-11T08:49:17.045Z</time></trkpt><trkpt lat="43.7708147" lon="11.014332"><ele>292.0</ele><time>2026-04-11T08:49:18.044Z</time></trkpt><trkpt lat="43.7708862" lon="11.01433"><ele>292.0</ele><time>2026-04-11T08:49:19.044Z</time></trkpt><trkpt lat="43.770957" lon="11.0143213"><ele>292.0</ele><time>2026-04-11T08:49:20.045Z</time></trkpt><trkpt lat="43.7710225" lon="11.0143001"><ele>292.0</ele><time>2026-04-11T08:49:21.045Z</time></trkpt><trkpt lat="43.7710843" lon="11.0142718"><ele>292.2857142857143</ele><time>2026-04-11T08:49:22.045Z</time></trkpt><trkpt lat="43.7711442" lon="11.0142337"><ele>292.57142857142856</ele><time>2026-04-11T08:49:23.044Z</time></trkpt><trkpt lat="43.7712065" lon="11.0142052"><ele>292.8571428571429</ele><time>2026-04-11T08:49:24.045Z</time></trkpt><trkpt lat="43.7712753" lon="11.0141892"><ele>293.1428571428571</ele><time>2026-04-11T08:49:25.045Z</time></trkpt><trkpt lat="43.7713458" lon="11.0141854"><ele>293.42857142857144</ele><time>2026-04-11T08:49:26.044Z</time></trkpt><trkpt lat="43.7714199" lon="11.0141784"><ele>293.7142857142857</ele><time>2026-04-11T08:49:27.045Z</time></trkpt><trkpt lat="43.7715025" lon="11.0141695"><ele>294.0</ele><time>2026-04-11T08:49:28.045Z</time></trkpt><trkpt lat="43.7715839" lon="11.0141599"><ele>295.14285714285717</ele><time>2026-04-11T08:49:29.044Z</time></trkpt><trkpt lat="43.7716573" lon="11.0141483"><ele>296.2857142857143</ele><time>2026-04-11T08:49:30.045Z</time></trkpt><trkpt lat="43.7717236" lon="11.014133"><ele>297.42857142857144</ele><time>2026-04-11T08:49:31.045Z</time></trkpt><trkpt lat="43.7717874" lon="11.0141002"><ele>298.57142857142856</ele><time>2026-04-11T08:49:32.045Z</time></trkpt><trkpt lat="43.7718464" lon="11.0140502"><ele>299.7142857142857</ele><time>2026-04-11T08:49:33.045Z</time></trkpt><trkpt lat="43.7719017" lon="11.0139884"><ele>300.8571428571429</ele><time>2026-04-11T08:49:34.045Z</time></trkpt><trkpt lat="43.7719586" lon="11.0139181"><ele>302.0</ele><time>2026-04-11T08:49:35.044Z</time></trkpt><trkpt lat="43.7720186" lon="11.0138424"><ele>302.0</ele><time>2026-04-11T08:49:36.045Z</time></trkpt><trkpt lat="43.7720806" lon="11.0137622"><ele>302.0</ele><time>2026-04-11T08:49:37.044Z</time></trkpt><trkpt lat="43.7721428" lon="11.0136869"><ele>302.0</ele><time>2026-04-11T08:49:38.044Z</time></trkpt><trkpt lat="43.7722056" lon="11.0136181"><ele>302.0</ele><time>2026-04-11T08:49:39.045Z</time></trkpt><trkpt lat="43.7722711" lon="11.0135495"><ele>302.0</ele><time>2026-04-11T08:49:40.045Z</time></trkpt><trkpt lat="43.7723381" lon="11.0134864"><ele>302.0</ele><time>2026-04-11T08:49:41.045Z</time></trkpt><trkpt lat="43.7724098" lon="11.0134372"><ele>302.0</ele><time>2026-04-11T08:49:42.045Z</time></trkpt><trkpt lat="43.7724824" lon="11.0134014"><ele>302.0</ele><time>2026-04-11T08:49:43.045Z</time></trkpt><trkpt lat="43.7725643" lon="11.0133802"><ele>302.0</ele><time>2026-04-11T08:49:44.045Z</time></trkpt><trkpt lat="43.7726525" lon="11.0133667"><ele>302.0</ele><time>2026-04-11T08:49:45.045Z</time></trkpt><trkpt lat="43.7727441" lon="11.0133603"><ele>302.0</ele><time>2026-04-11T08:49:46.045Z</time></trkpt><trkpt lat="43.7728348" lon="11.0133485"><ele>302.0</ele><time>2026-04-11T08:49:47.045Z</time></trkpt><trkpt lat="43.7729252" lon="11.0133349"><ele>301.5714285714286</ele><time>2026-04-11T08:49:48.045Z</time></trkpt><trkpt lat="43.7730073" lon="11.0133156"><ele>301.14285714285717</ele><time>2026-04-11T08:49:49.044Z</time></trkpt><trkpt lat="43.7730783" lon="11.0132885"><ele>300.7142857142857</ele><time>2026-04-11T08:49:50.044Z</time></trkpt><trkpt lat="43.7731439" lon="11.0132522"><ele>300.28571428571433</ele><time>2026-04-11T08:49:51.045Z</time></trkpt><trkpt lat="43.7732082" lon="11.0132081"><ele>299.8571428571429</ele><time>2026-04-11T08:49:52.045Z</time></trkpt><trkpt lat="43.773272" lon="11.0131671"><ele>299.42857142857144</ele><time>2026-04-11T08:49:53.044Z</time></trkpt><trkpt lat="43.7733395" lon="11.0131281"><ele>299.0</ele><time>2026-04-11T08:49:54.044Z</time></trkpt><trkpt lat="43.7734053" lon="11.0130898"><ele>299.0</ele><time>2026-04-11T08:49:55.045Z</time></trkpt><trkpt lat="43.7734753" lon="11.013058"><ele>299.0</ele><time>2026-04-11T08:49:56.045Z</time></trkpt><trkpt lat="43.7735448" lon="11.0130158"><ele>299.0</ele><time>2026-04-11T08:49:57.045Z</time></trkpt><trkpt lat="43.773616" lon="11.0129635"><ele>299.0</ele><time>2026-04-11T08:49:58.045Z</time></trkpt><trkpt lat="43.7736876" lon="11.0129265"><ele>299.0</ele><time>2026-04-11T08:49:59.045Z</time></trkpt><trkpt lat="43.7737592" lon="11.0129017"><ele>299.0</ele><time>2026-04-11T08:50:00.045Z</time></trkpt><trkpt lat="43.7738368" lon="11.0128887"><ele>300.6666666666667</ele><time>2026-04-11T08:50:01.045Z</time></trkpt><trkpt lat="43.7739246" lon="11.0128713"><ele>302.33333333333337</ele><time>2026-04-11T08:50:02.044Z</time></trkpt><trkpt lat="43.7740143" lon="11.0128487"><ele>304.0</ele><time>2026-04-11T08:50:03.045Z</time></trkpt><trkpt lat="43.7740919" lon="11.0128332"><ele>305.6666666666667</ele><time>2026-04-11T08:50:04.045Z</time></trkpt><trkpt lat="43.7741585" lon="11.0128287"><ele>307.3333333333333</ele><time>2026-04-11T08:50:05.045Z</time></trkpt><trkpt lat="43.7742291" lon="11.0128195"><ele>309.0</ele><time>2026-04-11T08:50:06.045Z</time></trkpt><trkpt lat="43.7742972" lon="11.0128113"><ele>310.8333333333333</ele><time>2026-04-11T08:50:07.045Z</time></trkpt><trkpt lat="43.7744107" lon="11.0127878"><ele>312.6666666666667</ele><time>2026-04-11T08:50:09.044Z</time></trkpt><trkpt lat="43.7744791" lon="11.0127482"><ele>314.5</ele><time>2026-04-11T08:50:11.045Z</time></trkpt><trkpt lat="43.7745218" lon="11.0126782"><ele>316.33333333333337</ele><time>2026-04-11T08:50:13.045Z</time></trkpt><trkpt lat="43.7745655" lon="11.0125919"><ele>318.1666666666667</ele><time>2026-04-11T08:50:15.045Z</time></trkpt><trkpt lat="43.7746027" lon="11.0124625"><ele>320.0</ele><time>2026-04-11T08:50:17.045Z</time></trkpt><trkpt lat="43.7746436" lon="11.012314"><ele>321.25</ele><time>2026-04-11T08:50:19.045Z</time></trkpt><trkpt lat="43.7746991" lon="11.0121694"><ele>322.5</ele><time>2026-04-11T08:50:21.045Z</time></trkpt><trkpt lat="43.7747556" lon="11.0120265"><ele>323.75</ele><time>2026-04-11T08:50:23.045Z</time></trkpt><trkpt lat="43.7748149" lon="11.0119074"><ele>325.0</ele><time>2026-04-11T08:50:25.044Z</time></trkpt><trkpt lat="43.7749018" lon="11.0118016"><ele>325.0</ele><time>2026-04-11T08:50:27.043Z</time></trkpt><trkpt lat="43.775001" lon="11.0117022"><ele>325.0</ele><time>2026-04-11T08:50:29.044Z</time></trkpt><trkpt lat="43.7751053" lon="11.0116583"><ele>325.0</ele><time>2026-04-11T08:50:31.044Z</time></trkpt><trkpt lat="43.7752079" lon="11.011638"><ele>325.0</ele><time>2026-04-11T08:50:33.044Z</time></trkpt><trkpt lat="43.7753149" lon="11.0116165"><ele>325.0</ele><time>2026-04-11T08:50:35.044Z</time></trkpt><trkpt lat="43.7754228" lon="11.0115856"><ele>326.8</ele><time>2026-04-11T08:50:37.044Z</time></trkpt><trkpt lat="43.7755323" lon="11.0115341"><ele>328.6</ele><time>2026-04-11T08:50:39.044Z</time></trkpt><trkpt lat="43.7756527" lon="11.011481"><ele>330.4</ele><time>2026-04-11T08:50:41.044Z</time></trkpt><trkpt lat="43.7757157" lon="11.0114604"><ele>332.2</ele><time>2026-04-11T08:50:42.044Z</time></trkpt><trkpt lat="43.7758168" lon="11.0113863"><ele>334.0</ele><time>2026-04-11T08:50:44.044Z</time></trkpt><trkpt lat="43.775857" lon="11.0113168"><ele>334.0</ele><time>2026-04-11T08:50:45.044Z</time></trkpt><trkpt lat="43.7758912" lon="11.0112373"><ele>334.0</ele><time>2026-04-11T08:50:46.043Z</time></trkpt><trkpt lat="43.7759157" lon="11.0111496"><ele>334.0</ele><time>2026-04-11T08:50:47.044Z</time></trkpt><trkpt lat="43.7759245" lon="11.0110309"><ele>334.0</ele><time>2026-04-11T08:50:48.043Z</time></trkpt><trkpt lat="43.7759184" lon="11.0109014"><ele>334.0</ele><time>2026-04-11T08:50:49.043Z</time></trkpt><trkpt lat="43.7759114" lon="11.0107588"><ele>334.0</ele><time>2026-04-11T08:50:50.044Z</time></trkpt><trkpt lat="43.775896" lon="11.0106335"><ele>335.16666666666663</ele><time>2026-04-11T08:50:51.044Z</time></trkpt><trkpt lat="43.7758758" lon="11.0105096"><ele>336.3333333333333</ele><time>2026-04-11T08:50:52.044Z</time></trkpt><trkpt lat="43.7758591" lon="11.010389"><ele>337.5</ele><time>2026-04-11T08:50:53.044Z</time></trkpt><trkpt lat="43.7758449" lon="11.0102865"><ele>338.6666666666667</ele><time>2026-04-11T08:50:54.044Z</time></trkpt><trkpt lat="43.775822" lon="11.0102018"><ele>339.83333333333337</ele><time>2026-04-11T08:50:55.044Z</time></trkpt><trkpt lat="43.7757638" lon="11.0100751"><ele>341.0</ele><time>2026-04-11T08:50:57.043Z</time></trkpt><trkpt lat="43.7756973" lon="11.0099307"><ele>342.83333333333337</ele><time>2026-04-11T08:50:59.044Z</time></trkpt><trkpt lat="43.7756623" lon="11.0098301"><ele>344.6666666666667</ele><time>2026-04-11T08:51:00.044Z</time></trkpt><trkpt lat="43.7756365" lon="11.0097262"><ele>346.5</ele><time>2026-04-11T08:51:01.044Z</time></trkpt><trkpt lat="43.7756195" lon="11.0096178"><ele>348.3333333333333</ele><time>2026-04-11T08:51:02.044Z</time></trkpt><trkpt lat="43.7756046" lon="11.0095127"><ele>350.16666666666663</ele><time>2026-04-11T08:51:03.044Z</time></trkpt><trkpt lat="43.7755976" lon="11.0094169"><ele>352.0</ele><time>2026-04-11T08:51:04.044Z</time></trkpt><trkpt lat="43.7755886" lon="11.0092463"><ele>352.6</ele><time>2026-04-11T08:51:06.043Z</time></trkpt><trkpt lat="43.7756288" lon="11.0091197"><ele>353.20000000000005</ele><time>2026-04-11T08:51:08.043Z</time></trkpt><trkpt lat="43.7757005" lon="11.0089805"><ele>353.8</ele><time>2026-04-11T08:51:10.044Z</time></trkpt><trkpt lat="43.7757404" lon="11.008893"><ele>354.4</ele><time>2026-04-11T08:51:11.044Z</time></trkpt><trkpt lat="43.7757767" lon="11.0087967"><ele>355.0</ele><time>2026-04-11T08:51:12.044Z</time></trkpt><trkpt lat="43.7758113" lon="11.0086941"><ele>355.0</ele><time>2026-04-11T08:51:13.044Z</time></trkpt><trkpt lat="43.7758416" lon="11.0085942"><ele>355.0</ele><time>2026-04-11T08:51:14.044Z</time></trkpt><trkpt lat="43.7758624" lon="11.0084911"><ele>355.0</ele><time>2026-04-11T08:51:15.043Z</time></trkpt><trkpt lat="43.7758745" lon="11.0083908"><ele>355.0</ele><time>2026-04-11T08:51:16.043Z</time></trkpt><trkpt lat="43.7758845" lon="11.0082932"><ele>355.0</ele><time>2026-04-11T08:51:17.044Z</time></trkpt><trkpt lat="43.7758903" lon="11.008192"><ele>355.0</ele><time>2026-04-11T08:51:18.044Z</time></trkpt><trkpt lat="43.7758882" lon="11.0080874"><ele>355.0</ele><time>2026-04-11T08:51:19.044Z</time></trkpt><trkpt lat="43.7758815" lon="11.0079893"><ele>356.2</ele><time>2026-04-11T08:51:20.044Z</time></trkpt><trkpt lat="43.7758683" lon="11.0078709"><ele>357.4</ele><time>2026-04-11T08:51:22.043Z</time></trkpt><trkpt lat="43.7758444" lon="11.0077464"><ele>358.6</ele><time>2026-04-11T08:52:19.044Z</time></trkpt><trkpt lat="43.7758072" lon="11.0076037"><ele>359.8</ele><time>2026-04-11T08:52:21.044Z</time></trkpt><trkpt lat="43.7757825" lon="11.0074449"><ele>361.0</ele><time>2026-04-11T08:52:23.044Z</time></trkpt><trkpt lat="43.7757671" lon="11.0072905"><ele>362.8</ele><time>2026-04-11T08:52:25.043Z</time></trkpt><trkpt lat="43.7757856" lon="11.0071477"><ele>364.6</ele><time>2026-04-11T08:52:27.044Z</time></trkpt><trkpt lat="43.7758173" lon="11.0070263"><ele>366.4</ele><time>2026-04-11T08:52:29.044Z</time></trkpt><trkpt lat="43.7758258" lon="11.0068903"><ele>368.2</ele><time>2026-04-11T08:52:31.044Z</time></trkpt><trkpt lat="43.775844" lon="11.006747"><ele>370.0</ele><time>2026-04-11T08:52:33.044Z</time></trkpt><trkpt lat="43.7758662" lon="11.006603"><ele>370.8</ele><time>2026-04-11T08:52:35.043Z</time></trkpt><trkpt lat="43.7758828" lon="11.0064549"><ele>371.6</ele><time>2026-04-11T08:52:37.044Z</time></trkpt><trkpt lat="43.7759111" lon="11.0063071"><ele>372.4</ele><time>2026-04-11T08:52:39.044Z</time></trkpt><trkpt lat="43.7759554" lon="11.0061737"><ele>373.2</ele><time>2026-04-11T08:52:41.044Z</time></trkpt><trkpt lat="43.775981" lon="11.0060341"><ele>374.0</ele><time>2026-04-11T08:52:43.043Z</time></trkpt><trkpt lat="43.7759858" lon="11.0058773"><ele>373.83333333333337</ele><time>2026-04-11T08:52:45.044Z</time></trkpt><trkpt lat="43.7759683" lon="11.0057069"><ele>373.6666666666667</ele><time>2026-04-11T08:52:47.044Z</time></trkpt><trkpt lat="43.7759626" lon="11.005617"><ele>373.5</ele><time>2026-04-11T08:52:48.044Z</time></trkpt><trkpt lat="43.7759652" lon="11.0055196"><ele>373.3333333333333</ele><time>2026-04-11T08:52:49.043Z</time></trkpt><trkpt lat="43.7759853" lon="11.0054293"><ele>373.16666666666663</ele><time>2026-04-11T08:52:50.044Z</time></trkpt><trkpt lat="43.7760085" lon="11.0053435"><ele>373.0</ele><time>2026-04-11T08:52:51.043Z</time></trkpt><trkpt lat="43.7760325" lon="11.0052611"><ele>373.0</ele><time>2026-04-11T08:52:52.044Z</time></trkpt><trkpt lat="43.7760701" lon="11.005108"><ele>373.0</ele><time>2026-04-11T08:52:54.044Z</time></trkpt><trkpt lat="43.7760906" lon="11.004979"><ele>373.0</ele><time>2026-04-11T08:52:56.044Z</time></trkpt><trkpt lat="43.7761093" lon="11.0048602"><ele>373.0</ele><time>2026-04-11T08:52:58.044Z</time></trkpt><trkpt lat="43.7761431" lon="11.0047442"><ele>373.0</ele><time>2026-04-11T08:53:00.044Z</time></trkpt><trkpt lat="43.7761885" lon="11.0046326"><ele>373.5</ele><time>2026-04-11T08:53:02.044Z</time></trkpt><trkpt lat="43.7762002" lon="11.0045069"><ele>374.0</ele><time>2026-04-11T08:53:04.043Z</time></trkpt><trkpt lat="43.7762328" lon="11.0043907"><ele>374.5</ele><time>2026-04-11T08:53:07.044Z</time></trkpt><trkpt lat="43.7762845" lon="11.0043244"><ele>375.0</ele><time>2026-04-11T08:53:10.044Z</time></trkpt><trkpt lat="43.7763552" lon="11.0042813"><ele>375.5</ele><time>2026-04-11T08:53:13.044Z</time></trkpt><trkpt lat="43.7763865" lon="11.0043648"><ele>376.0</ele><time>2026-04-11T08:53:29.044Z</time></trkpt><trkpt lat="43.7764126" lon="11.0044946"><ele>376.0</ele><time>2026-04-11T08:53:31.044Z</time></trkpt><trkpt lat="43.776476" lon="11.0046416"><ele>376.0</ele><time>2026-04-11T08:53:33.044Z</time></trkpt><trkpt lat="43.7765318" lon="11.0047603"><ele>376.0</ele><time>2026-04-11T08:53:35.044Z</time></trkpt><trkpt lat="43.7765629" lon="11.0048629"><ele>376.0</ele><time>2026-04-11T08:53:37.044Z</time></trkpt><trkpt lat="43.776596" lon="11.0049749"><ele>376.0</ele><time>2026-04-11T08:53:40.044Z</time></trkpt><trkpt lat="43.7766101" lon="11.005089"><ele>375.5</ele><time>2026-04-11T08:53:42.044Z</time></trkpt><trkpt lat="43.7766224" lon="11.0051907"><ele>375.0</ele><time>2026-04-11T08:53:44.044Z</time></trkpt><trkpt lat="43.7766178" lon="11.0052843"><ele>374.5</ele><time>2026-04-11T08:53:46.044Z</time></trkpt><trkpt lat="43.7766469" lon="11.0053868"><ele>374.0</ele><time>2026-04-11T08:53:49.044Z</time></trkpt><trkpt lat="43.7767154" lon="11.00547"><ele>373.5</ele><time>2026-04-11T08:53:52.043Z</time></trkpt><trkpt lat="43.7767864" lon="11.005551"><ele>373.0</ele><time>2026-04-11T08:53:55.044Z</time></trkpt><trkpt lat="43.7768686" lon="11.0056208"><ele>372.3333333333333</ele><time>2026-04-11T08:53:58.044Z</time></trkpt><trkpt lat="43.7769245" lon="11.0056806"><ele>371.66666666666663</ele><time>2026-04-11T08:54:00.044Z</time></trkpt><trkpt lat="43.7769756" lon="11.0057643"><ele>371.0</ele><time>2026-04-11T08:54:02.044Z</time></trkpt><trkpt lat="43.7770406" lon="11.0058578"><ele>370.3333333333333</ele><time>2026-04-11T08:54:04.044Z</time></trkpt><trkpt lat="43.7770946" lon="11.0059317"><ele>369.6666666666667</ele><time>2026-04-11T08:54:06.044Z</time></trkpt><trkpt lat="43.7771512" lon="11.0060236"><ele>369.0</ele><time>2026-04-11T08:54:09.044Z</time></trkpt><trkpt lat="43.7772208" lon="11.0061076"><ele>369.0</ele><time>2026-04-11T08:54:12.044Z</time></trkpt><trkpt lat="43.7772781" lon="11.0061694"><ele>369.0</ele><time>2026-04-11T08:54:15.044Z</time></trkpt><trkpt lat="43.7773396" lon="11.0062372"><ele>369.0</ele><time>2026-04-11T08:54:18.044Z</time></trkpt><trkpt lat="43.7773874" lon="11.0062984"><ele>369.0</ele><time>2026-04-11T08:54:21.044Z</time></trkpt><trkpt lat="43.7774393" lon="11.0063579"><ele>369.0</ele><time>2026-04-11T08:54:24.044Z</time></trkpt><trkpt lat="43.7774923" lon="11.0064215"><ele>369.0</ele><time>2026-04-11T08:54:27.112Z</time></trkpt><trkpt lat="43.7775455" lon="11.0064778"><ele>369.0</ele><time>2026-04-11T08:54:30.099Z</time></trkpt><trkpt lat="43.7775957" lon="11.006561"><ele>369.0</ele><time>2026-04-11T08:54:33.129Z</time></trkpt><trkpt lat="43.7776593" lon="11.0066283"><ele>369.0</ele><time>2026-04-11T08:54:36.047Z</time></trkpt><trkpt lat="43.7777086" lon="11.0066833"><ele>369.0</ele><time>2026-04-11T08:54:39.078Z</time></trkpt><trkpt lat="43.7777551" lon="11.0067598"><ele>369.0</ele><time>2026-04-11T08:54:42.952Z</time></trkpt><trkpt lat="43.7777972" lon="11.0068404"><ele>369.0</ele><time>2026-04-11T08:54:47.047Z</time></trkpt><trkpt lat="43.7778332" lon="11.0069148"><ele>369.0</ele><time>2026-04-11T08:54:50.076Z</time></trkpt><trkpt lat="43.7778857" lon="11.0069923"><ele>369.0</ele><time>2026-04-11T08:54:52.098Z</time></trkpt><trkpt lat="43.7779688" lon="11.00706"><ele>366.79999999999995</ele><time>2026-04-11T08:54:54.048Z</time></trkpt><trkpt lat="43.7780465" lon="11.0071063"><ele>364.59999999999997</ele><time>2026-04-11T08:54:56.044Z</time></trkpt><trkpt lat="43.7781203" lon="11.0070983"><ele>362.4</ele><time>2026-04-11T08:54:57.992Z</time></trkpt><trkpt lat="43.778227" lon="11.0070886"><ele>360.2</ele><time>2026-04-11T08:55:00.093Z</time></trkpt><trkpt lat="43.7783077" lon="11.0070646"><ele>358.0</ele><time>2026-04-11T08:55:02.044Z</time></trkpt><trkpt lat="43.7784095" lon="11.0070011"><ele>358.0</ele><time>2026-04-11T08:55:04.043Z</time></trkpt><trkpt lat="43.7784606" lon="11.0069483"><ele>358.0</ele><time>2026-04-11T08:55:05.044Z</time></trkpt><trkpt lat="43.7785357" lon="11.0068578"><ele>358.0</ele><time>2026-04-11T08:55:07.044Z</time></trkpt><trkpt lat="43.778614" lon="11.0067654"><ele>358.0</ele><time>2026-04-11T08:55:09.043Z</time></trkpt><trkpt lat="43.7786962" lon="11.0067"><ele>358.0</ele><time>2026-04-11T08:55:11.044Z</time></trkpt><trkpt lat="43.7787869" lon="11.0067064"><ele>358.66666666666663</ele><time>2026-04-11T08:55:13.044Z</time></trkpt><trkpt lat="43.7788406" lon="11.0067666"><ele>359.3333333333333</ele><time>2026-04-11T08:55:15.06Z</time></trkpt><trkpt lat="43.7788913" lon="11.0068217"><ele>360.0</ele><time>2026-04-11T08:55:16.065Z</time></trkpt><trkpt lat="43.7789671" lon="11.0069417"><ele>360.6666666666667</ele><time>2026-04-11T08:55:18.044Z</time></trkpt><trkpt lat="43.779037" lon="11.0070854"><ele>361.33333333333337</ele><time>2026-04-11T08:55:20.044Z</time></trkpt><trkpt lat="43.7790685" lon="11.0071682"><ele>362.0</ele><time>2026-04-11T08:55:21.043Z</time></trkpt><trkpt lat="43.7791081" lon="11.0073233"><ele>362.0</ele><time>2026-04-11T08:55:23.043Z</time></trkpt><trkpt lat="43.7791445" lon="11.0074911"><ele>362.0</ele><time>2026-04-11T08:55:25.044Z</time></trkpt><trkpt lat="43.7791631" lon="11.00758"><ele>362.0</ele><time>2026-04-11T08:55:26.044Z</time></trkpt><trkpt lat="43.7791791" lon="11.0076663"><ele>362.0</ele><time>2026-04-11T08:55:27.044Z</time></trkpt><trkpt lat="43.7792109" lon="11.0078123"><ele>362.0</ele><time>2026-04-11T08:55:29.044Z</time></trkpt><trkpt lat="43.7792676" lon="11.0079085"><ele>362.0</ele><time>2026-04-11T08:55:31.043Z</time></trkpt><trkpt lat="43.7793399" lon="11.007978"><ele>362.0</ele><time>2026-04-11T08:55:33.044Z</time></trkpt><trkpt lat="43.7793707" lon="11.0078809"><ele>362.0</ele><time>2026-04-11T08:55:50.043Z</time></trkpt><trkpt lat="43.7794105" lon="11.0077775"><ele>362.0</ele><time>2026-04-11T08:55:53.044Z</time></trkpt><trkpt lat="43.7794435" lon="11.0076531"><ele>362.0</ele><time>2026-04-11T08:55:56.043Z</time></trkpt><trkpt lat="43.7794531" lon="11.0075327"><ele>362.0</ele><time>2026-04-11T08:55:58.044Z</time></trkpt><trkpt lat="43.7794898" lon="11.0074277"><ele>362.0</ele><time>2026-04-11T08:56:00.044Z</time></trkpt><trkpt lat="43.7795259" lon="11.0073164"><ele>362.0</ele><time>2026-04-11T08:56:02.044Z</time></trkpt><trkpt lat="43.7796056" lon="11.007166"><ele>362.0</ele><time>2026-04-11T08:56:13.044Z</time></trkpt><trkpt lat="43.7796304" lon="11.0070684"><ele>362.0</ele><time>2026-04-11T08:56:15.044Z</time></trkpt><trkpt lat="43.7796273" lon="11.0069762"><ele>362.0</ele><time>2026-04-11T08:56:17.044Z</time></trkpt><trkpt lat="43.7794876" lon="11.0069172"><ele>362.0</ele><time>2026-04-11T08:56:25.044Z</time></trkpt><trkpt lat="43.7794683" lon="11.0068249"><ele>362.0</ele><time>2026-04-11T08:56:28.044Z</time></trkpt><trkpt lat="43.7795072" lon="11.0067107"><ele>362.0</ele><time>2026-04-11T08:56:31.044Z</time></trkpt><trkpt lat="43.7795579" lon="11.0066313"><ele>362.0</ele><time>2026-04-11T08:56:33.976Z</time></trkpt><trkpt lat="43.7796042" lon="11.0065401"><ele>362.0</ele><time>2026-04-11T08:56:37.075Z</time></trkpt><trkpt lat="43.7796711" lon="11.0064659"><ele>362.0</ele><time>2026-04-11T08:56:40.104Z</time></trkpt><trkpt lat="43.7797239" lon="11.0063943"><ele>365.8</ele><time>2026-04-11T08:56:42.099Z</time></trkpt><trkpt lat="43.7797698" lon="11.0063011"><ele>369.6</ele><time>2026-04-11T08:56:44.141Z</time></trkpt><trkpt lat="43.7798341" lon="11.0062051"><ele>373.40000000000003</ele><time>2026-04-11T08:56:46.14Z</time></trkpt><trkpt lat="43.7799164" lon="11.0060908"><ele>377.20000000000005</ele><time>2026-04-11T08:56:48.043Z</time></trkpt><trkpt lat="43.779992" lon="11.0059802"><ele>381.0</ele><time>2026-04-11T08:56:50.043Z</time></trkpt><trkpt lat="43.7800389" lon="11.0059136"><ele>381.0</ele><time>2026-04-11T08:56:51.043Z</time></trkpt><trkpt lat="43.780093" lon="11.0058425"><ele>381.0</ele><time>2026-04-11T08:56:52.042Z</time></trkpt><trkpt lat="43.7801739" lon="11.005732"><ele>381.0</ele><time>2026-04-11T08:56:54.042Z</time></trkpt><trkpt lat="43.7802235" lon="11.005599"><ele>381.0</ele><time>2026-04-11T08:56:56.043Z</time></trkpt><trkpt lat="43.7802716" lon="11.0054518"><ele>381.0</ele><time>2026-04-11T08:56:58.043Z</time></trkpt><trkpt lat="43.7803188" lon="11.0053518"><ele>379.3333333333333</ele><time>2026-04-11T08:57:00.043Z</time></trkpt><trkpt lat="43.7802719" lon="11.0052854"><ele>377.6666666666667</ele><time>2026-04-11T08:58:29.043Z</time></trkpt><trkpt lat="43.780227" lon="11.0052053"><ele>376.0</ele><time>2026-04-11T08:58:31.043Z</time></trkpt><trkpt lat="43.7801885" lon="11.005095"><ele>374.33333333333337</ele><time>2026-04-11T08:58:33.043Z</time></trkpt><trkpt lat="43.7801441" lon="11.0049803"><ele>372.6666666666667</ele><time>2026-04-11T08:58:36.042Z</time></trkpt><trkpt lat="43.7800845" lon="11.0048935"><ele>371.0</ele><time>2026-04-11T08:58:39.042Z</time></trkpt><trkpt lat="43.7800777" lon="11.0048011"><ele>374.14285714285717</ele><time>2026-04-11T08:58:42.042Z</time></trkpt><trkpt lat="43.7801029" lon="11.0047101"><ele>377.2857142857143</ele><time>2026-04-11T08:58:45.043Z</time></trkpt><trkpt lat="43.7801336" lon="11.0046319"><ele>380.42857142857144</ele><time>2026-04-11T08:58:48.043Z</time></trkpt><trkpt lat="43.7801376" lon="11.0045193"><ele>383.57142857142856</ele><time>2026-04-11T08:59:07.043Z</time></trkpt><trkpt lat="43.7801236" lon="11.0044126"><ele>386.7142857142857</ele><time>2026-04-11T08:59:10.042Z</time></trkpt><trkpt lat="43.7800805" lon="11.0043237"><ele>389.8571428571429</ele><time>2026-04-11T08:59:13.043Z</time></trkpt><trkpt lat="43.7800338" lon="11.0042385"><ele>393.0</ele><time>2026-04-11T08:59:15.043Z</time></trkpt><trkpt lat="43.7799728" lon="11.0042698"><ele>393.0</ele><time>2026-04-11T08:59:19.043Z</time></trkpt><trkpt lat="43.7799256" lon="11.0043465"><ele>393.0</ele><time>2026-04-11T08:59:22.043Z</time></trkpt><trkpt lat="43.7798459" lon="11.0043061"><ele>393.0</ele><time>2026-04-11T08:59:27.042Z</time></trkpt><trkpt lat="43.7797715" lon="11.0042355"><ele>393.0</ele><time>2026-04-11T08:59:30.043Z</time></trkpt><trkpt lat="43.7797023" lon="11.0041977"><ele>393.0</ele><time>2026-04-11T08:59:33.043Z</time></trkpt><trkpt lat="43.7796386" lon="11.004258"><ele>393.0</ele><time>2026-04-11T08:59:36.042Z</time></trkpt><trkpt lat="43.779546" lon="11.0042598"><ele>393.0</ele><time>2026-04-11T08:59:39.043Z</time></trkpt><trkpt lat="43.7794802" lon="11.0042013"><ele>393.0</ele><time>2026-04-11T08:59:41.042Z</time></trkpt><trkpt lat="43.7794271" lon="11.0040927"><ele>393.0</ele><time>2026-04-11T08:59:44.043Z</time></trkpt><trkpt lat="43.7794089" lon="11.0039909"><ele>393.0</ele><time>2026-04-11T08:59:46.043Z</time></trkpt><trkpt lat="43.7793865" lon="11.0038828"><ele>393.0</ele><time>2026-04-11T08:59:48.043Z</time></trkpt><trkpt lat="43.7793369" lon="11.0037559"><ele>393.0</ele><time>2026-04-11T08:59:50.043Z</time></trkpt><trkpt lat="43.7792676" lon="11.0037138"><ele>394.0</ele><time>2026-04-11T08:59:57.043Z</time></trkpt><trkpt lat="43.7791894" lon="11.003701"><ele>395.0</ele><time>2026-04-11T08:59:59.043Z</time></trkpt><trkpt lat="43.7791138" lon="11.0036497"><ele>396.0</ele><time>2026-04-11T09:00:01.043Z</time></trkpt><trkpt lat="43.7790826" lon="11.0035234"><ele>397.0</ele><time>2026-04-11T09:00:04.043Z</time></trkpt><trkpt lat="43.7790858" lon="11.0034081"><ele>398.0</ele><time>2026-04-11T09:00:06.043Z</time></trkpt><trkpt lat="43.7790937" lon="11.0033051"><ele>399.0</ele><time>2026-04-11T09:00:08.042Z</time></trkpt><trkpt lat="43.7790963" lon="11.0032089"><ele>399.0</ele><time>2026-04-11T09:00:10.043Z</time></trkpt><trkpt lat="43.7791167" lon="11.0031218"><ele>399.0</ele><time>2026-04-11T09:00:12.043Z</time></trkpt><trkpt lat="43.7790741" lon="11.0030068"><ele>399.0</ele><time>2026-04-11T09:00:19.043Z</time></trkpt><trkpt lat="43.7790298" lon="11.0028712"><ele>399.0</ele><time>2026-04-11T09:00:21.043Z</time></trkpt><trkpt lat="43.7790035" lon="11.002778"><ele>399.0</ele><time>2026-04-11T09:00:23.043Z</time></trkpt><trkpt lat="43.7789855" lon="11.0026847"><ele>399.0</ele><time>2026-04-11T09:00:29.043Z</time></trkpt><trkpt lat="43.7789207" lon="11.0026238"><ele>399.0</ele><time>2026-04-11T09:00:31.043Z</time></trkpt><trkpt lat="43.7788681" lon="11.0025624"><ele>399.0</ele><time>2026-04-11T09:00:32.043Z</time></trkpt><trkpt lat="43.7788201" lon="11.0025051"><ele>399.0</ele><time>2026-04-11T09:00:33.043Z</time></trkpt><trkpt lat="43.7787674" lon="11.0024425"><ele>399.0</ele><time>2026-04-11T09:00:34.043Z</time></trkpt><trkpt lat="43.7787036" lon="11.002378"><ele>399.0</ele><time>2026-04-11T09:00:35.042Z</time></trkpt><trkpt lat="43.778642" lon="11.0023072"><ele>399.0</ele><time>2026-04-11T09:00:36.043Z</time></trkpt><trkpt lat="43.7785809" lon="11.0022418"><ele>399.0</ele><time>2026-04-11T09:00:37.043Z</time></trkpt><trkpt lat="43.7785262" lon="11.0021832"><ele>399.1666666666667</ele><time>2026-04-11T09:00:38.042Z</time></trkpt><trkpt lat="43.7784376" lon="11.0020805"><ele>399.33333333333337</ele><time>2026-04-11T09:00:40.043Z</time></trkpt><trkpt lat="43.778364" lon="11.0019379"><ele>399.5</ele><time>2026-04-11T09:00:42.043Z</time></trkpt><trkpt lat="43.7783333" lon="11.0018461"><ele>399.6666666666667</ele><time>2026-04-11T09:00:43.043Z</time></trkpt><trkpt lat="43.778305" lon="11.0017568"><ele>399.83333333333337</ele><time>2026-04-11T09:00:44.042Z</time></trkpt><trkpt lat="43.7782822" lon="11.0016747"><ele>400.0</ele><time>2026-04-11T09:00:45.043Z</time></trkpt><trkpt lat="43.7782464" lon="11.0015173"><ele>400.0</ele><time>2026-04-11T09:00:47.043Z</time></trkpt><trkpt lat="43.7782223" lon="11.0013786"><ele>400.0</ele><time>2026-04-11T09:00:49.042Z</time></trkpt><trkpt lat="43.7781877" lon="11.0012534"><ele>400.0</ele><time>2026-04-11T09:00:51.043Z</time></trkpt><trkpt lat="43.7781427" lon="11.001129"><ele>400.0</ele><time>2026-04-11T09:00:53.043Z</time></trkpt><trkpt lat="43.7780883" lon="11.0009753"><ele>400.0</ele><time>2026-04-11T09:00:55.042Z</time></trkpt><trkpt lat="43.7780543" lon="11.0008775"><ele>399.00000000000006</ele><time>2026-04-11T09:00:56.043Z</time></trkpt><trkpt lat="43.7780186" lon="11.0007787"><ele>398.0</ele><time>2026-04-11T09:00:57.043Z</time></trkpt><trkpt lat="43.7779819" lon="11.0006887"><ele>397.0</ele><time>2026-04-11T09:00:58.043Z</time></trkpt><trkpt lat="43.777948" lon="11.0006062"><ele>396.0</ele><time>2026-04-11T09:00:59.043Z</time></trkpt><trkpt lat="43.7779219" lon="11.00046"><ele>395.00000000000006</ele><time>2026-04-11T09:01:01.043Z</time></trkpt><trkpt lat="43.7778972" lon="11.0003122"><ele>394.0</ele><time>2026-04-11T09:01:03.043Z</time></trkpt><trkpt lat="43.7778651" lon="11.0001405"><ele>394.0</ele><time>2026-04-11T09:01:05.043Z</time></trkpt><trkpt lat="43.7778485" lon="11.0000504"><ele>394.0</ele><time>2026-04-11T09:01:06.043Z</time></trkpt><trkpt lat="43.7778251" lon="10.9999512"><ele>394.0</ele><time>2026-04-11T09:01:07.043Z</time></trkpt><trkpt lat="43.7778053" lon="10.9998631"><ele>394.0</ele><time>2026-04-11T09:01:08.043Z</time></trkpt><trkpt lat="43.7777813" lon="10.9997667"><ele>394.0</ele><time>2026-04-11T09:01:09.042Z</time></trkpt><trkpt lat="43.7777568" lon="10.9996584"><ele>394.0</ele><time>2026-04-11T09:01:10.043Z</time></trkpt><trkpt lat="43.7777324" lon="10.9995518"><ele>394.0</ele><time>2026-04-11T09:01:11.043Z</time></trkpt><trkpt lat="43.7777117" lon="10.9994567"><ele>394.0</ele><time>2026-04-11T09:01:12.043Z</time></trkpt><trkpt lat="43.7776907" lon="10.9993728"><ele>394.0</ele><time>2026-04-11T09:01:13.043Z</time></trkpt><trkpt lat="43.7776644" lon="10.999284"><ele>394.0</ele><time>2026-04-11T09:01:14.043Z</time></trkpt><trkpt lat="43.7776305" lon="10.9991933"><ele>394.0</ele><time>2026-04-11T09:01:15.042Z</time></trkpt><trkpt lat="43.7775974" lon="10.9990862"><ele>394.0</ele><time>2026-04-11T09:01:16.043Z</time></trkpt><trkpt lat="43.777562" lon="10.9989847"><ele>394.0</ele><time>2026-04-11T09:01:17.043Z</time></trkpt><trkpt lat="43.7775302" lon="10.9988882"><ele>394.0</ele><time>2026-04-11T09:01:18.043Z</time></trkpt><trkpt lat="43.7774996" lon="10.9987995"><ele>393.50000000000006</ele><time>2026-04-11T09:01:19.042Z</time></trkpt><trkpt lat="43.7774694" lon="10.9987203"><ele>393.0</ele><time>2026-04-11T09:01:20.043Z</time></trkpt><trkpt lat="43.7774252" lon="10.9985726"><ele>392.5</ele><time>2026-04-11T09:01:22.042Z</time></trkpt><trkpt lat="43.7773909" lon="10.9984517"><ele>392.0</ele><time>2026-04-11T09:01:24.042Z</time></trkpt><trkpt lat="43.7773735" lon="10.9983452"><ele>391.50000000000006</ele><time>2026-04-11T09:01:26.043Z</time></trkpt><trkpt lat="43.7774142" lon="10.9982729"><ele>391.0</ele><time>2026-04-11T09:01:28.042Z</time></trkpt><trkpt lat="43.777486" lon="10.9982605"><ele>391.00000000000006</ele><time>2026-04-11T09:01:30.043Z</time></trkpt><trkpt lat="43.7775572" lon="10.9982223"><ele>391.0</ele><time>2026-04-11T09:01:32.043Z</time></trkpt><trkpt lat="43.777622" lon="10.998136"><ele>391.0</ele><time>2026-04-11T09:01:34.043Z</time></trkpt><trkpt lat="43.7776809" lon="10.9980475"><ele>391.0</ele><time>2026-04-11T09:01:36.043Z</time></trkpt><trkpt lat="43.7777266" lon="10.99795"><ele>391.00000000000006</ele><time>2026-04-11T09:01:38.043Z</time></trkpt><trkpt lat="43.777735" lon="10.9978094"><ele>391.0</ele><time>2026-04-11T09:01:40.043Z</time></trkpt><trkpt lat="43.7776893" lon="10.9976544"><ele>391.00000000000006</ele><time>2026-04-11T09:01:42.043Z</time></trkpt><trkpt lat="43.7776451" lon="10.9975724"><ele>391.0</ele><time>2026-04-11T09:01:43.043Z</time></trkpt><trkpt lat="43.7775976" lon="10.9974873"><ele>391.0</ele><time>2026-04-11T09:01:44.043Z</time></trkpt><trkpt lat="43.7775481" lon="10.9973991"><ele>391.0</ele><time>2026-04-11T09:01:45.043Z</time></trkpt><trkpt lat="43.7774998" lon="10.9973112"><ele>391.00000000000006</ele><time>2026-04-11T09:01:46.042Z</time></trkpt><trkpt lat="43.777452" lon="10.9971637"><ele>391.0</ele><time>2026-04-11T09:01:48.042Z</time></trkpt><trkpt lat="43.7774561" lon="10.9970277"><ele>390.4</ele><time>2026-04-11T09:01:50.042Z</time></trkpt><trkpt lat="43.7775022" lon="10.9969019"><ele>389.8</ele><time>2026-04-11T09:01:52.043Z</time></trkpt><trkpt lat="43.7775764" lon="10.9967769"><ele>389.2</ele><time>2026-04-11T09:01:54.043Z</time></trkpt><trkpt lat="43.7776233" lon="10.9967085"><ele>388.59999999999997</ele><time>2026-04-11T09:01:55.043Z</time></trkpt><trkpt lat="43.7776644" lon="10.9966415"><ele>388.0</ele><time>2026-04-11T09:01:56.043Z</time></trkpt><trkpt lat="43.7777374" lon="10.9965022"><ele>389.00000000000006</ele><time>2026-04-11T09:01:58.043Z</time></trkpt><trkpt lat="43.7777712" lon="10.9964247"><ele>390.0</ele><time>2026-04-11T09:01:59.043Z</time></trkpt><trkpt lat="43.7777759" lon="10.9962878"><ele>391.0</ele><time>2026-04-11T09:02:01.043Z</time></trkpt><trkpt lat="43.7777277" lon="10.9961531"><ele>392.0</ele><time>2026-04-11T09:02:03.042Z</time></trkpt><trkpt lat="43.7776884" lon="10.996084"><ele>393.00000000000006</ele><time>2026-04-11T09:02:04.042Z</time></trkpt><trkpt lat="43.7776474" lon="10.9959429"><ele>394.0</ele><time>2026-04-11T09:02:06.043Z</time></trkpt><trkpt lat="43.7776894" lon="10.9958538"><ele>395.83333333333337</ele><time>2026-04-11T09:02:08.043Z</time></trkpt><trkpt lat="43.777757" lon="10.9958261"><ele>397.6666666666667</ele><time>2026-04-11T09:02:10.042Z</time></trkpt><trkpt lat="43.7778693" lon="10.9958452"><ele>399.5</ele><time>2026-04-11T09:02:12.043Z</time></trkpt><trkpt lat="43.7779396" lon="10.9958511"><ele>401.33333333333337</ele><time>2026-04-11T09:02:13.043Z</time></trkpt><trkpt lat="43.7780152" lon="10.9958429"><ele>403.1666666666667</ele><time>2026-04-11T09:02:14.043Z</time></trkpt><trkpt lat="43.7780979" lon="10.9958309"><ele>405.0</ele><time>2026-04-11T09:02:15.043Z</time></trkpt><trkpt lat="43.7781761" lon="10.9958191"><ele>406.2857142857143</ele><time>2026-04-11T09:02:16.042Z</time></trkpt><trkpt lat="43.7782561" lon="10.9958077"><ele>407.57142857142856</ele><time>2026-04-11T09:02:17.043Z</time></trkpt><trkpt lat="43.7783288" lon="10.9957954"><ele>408.8571428571429</ele><time>2026-04-11T09:02:18.043Z</time></trkpt><trkpt lat="43.7783928" lon="10.9957805"><ele>410.1428571428571</ele><time>2026-04-11T09:02:19.043Z</time></trkpt><trkpt lat="43.7784543" lon="10.9957507"><ele>411.42857142857144</ele><time>2026-04-11T09:02:20.043Z</time></trkpt><trkpt lat="43.7785176" lon="10.9957097"><ele>412.7142857142857</ele><time>2026-04-11T09:02:21.042Z</time></trkpt><trkpt lat="43.7785808" lon="10.995661"><ele>414.0</ele><time>2026-04-11T09:02:22.043Z</time></trkpt><trkpt lat="43.7786446" lon="10.9956003"><ele>415.1666666666667</ele><time>2026-04-11T09:02:23.042Z</time></trkpt><trkpt lat="43.7787121" lon="10.9955323"><ele>416.33333333333337</ele><time>2026-04-11T09:02:24.043Z</time></trkpt><trkpt lat="43.7787757" lon="10.9954641"><ele>417.5</ele><time>2026-04-11T09:02:25.042Z</time></trkpt><trkpt lat="43.7788485" lon="10.9954012"><ele>418.6666666666667</ele><time>2026-04-11T09:02:26.043Z</time></trkpt><trkpt lat="43.7789212" lon="10.9953341"><ele>419.83333333333337</ele><time>2026-04-11T09:02:27.042Z</time></trkpt><trkpt lat="43.7789953" lon="10.9952623"><ele>421.0</ele><time>2026-04-11T09:02:28.042Z</time></trkpt><trkpt lat="43.7790705" lon="10.995186"><ele>421.00000000000006</ele><time>2026-04-11T09:02:29.043Z</time></trkpt><trkpt lat="43.7791487" lon="10.9951095"><ele>421.0</ele><time>2026-04-11T09:02:30.043Z</time></trkpt><trkpt lat="43.7792162" lon="10.9950389"><ele>421.0</ele><time>2026-04-11T09:02:31.042Z</time></trkpt><trkpt lat="43.7792676" lon="10.9949688"><ele>421.0</ele><time>2026-04-11T09:02:32.043Z</time></trkpt><trkpt lat="43.779301" lon="10.9948866"><ele>421.00000000000006</ele><time>2026-04-11T09:02:33.042Z</time></trkpt><trkpt lat="43.7793243" lon="10.9947911"><ele>421.0</ele><time>2026-04-11T09:02:34.043Z</time></trkpt><trkpt lat="43.779339" lon="10.9946856"><ele>421.1666666666667</ele><time>2026-04-11T09:02:35.043Z</time></trkpt><trkpt lat="43.7793471" lon="10.9945694"><ele>421.33333333333337</ele><time>2026-04-11T09:02:36.043Z</time></trkpt><trkpt lat="43.7793508" lon="10.9944525"><ele>421.5</ele><time>2026-04-11T09:02:37.042Z</time></trkpt><trkpt lat="43.7793555" lon="10.9943338"><ele>421.66666666666663</ele><time>2026-04-11T09:02:38.043Z</time></trkpt><trkpt lat="43.7793633" lon="10.9942178"><ele>421.8333333333333</ele><time>2026-04-11T09:02:39.043Z</time></trkpt><trkpt lat="43.7793768" lon="10.9941024"><ele>422.0</ele><time>2026-04-11T09:02:40.042Z</time></trkpt><trkpt lat="43.7793968" lon="10.9939848"><ele>421.99999999999994</ele><time>2026-04-11T09:02:41.043Z</time></trkpt><trkpt lat="43.7794205" lon="10.9938596"><ele>422.0</ele><time>2026-04-11T09:02:42.043Z</time></trkpt><trkpt lat="43.7794416" lon="10.9937396"><ele>422.0</ele><time>2026-04-11T09:02:43.042Z</time></trkpt><trkpt lat="43.7794631" lon="10.9936233"><ele>422.0</ele><time>2026-04-11T09:02:44.042Z</time></trkpt><trkpt lat="43.7794882" lon="10.9935123"><ele>421.99999999999994</ele><time>2026-04-11T09:02:45.042Z</time></trkpt><trkpt lat="43.779516" lon="10.9934067"><ele>422.0</ele><time>2026-04-11T09:02:46.043Z</time></trkpt><trkpt lat="43.7795463" lon="10.9933025"><ele>421.99999999999994</ele><time>2026-04-11T09:02:47.043Z</time></trkpt><trkpt lat="43.7795724" lon="10.9932063"><ele>422.0</ele><time>2026-04-11T09:02:48.042Z</time></trkpt><trkpt lat="43.7795933" lon="10.9931103"><ele>422.0</ele><time>2026-04-11T09:02:49.043Z</time></trkpt><trkpt lat="43.7796183" lon="10.9930063"><ele>422.0</ele><time>2026-04-11T09:02:50.042Z</time></trkpt><trkpt lat="43.7796433" lon="10.9928964"><ele>421.99999999999994</ele><time>2026-04-11T09:02:51.043Z</time></trkpt><trkpt lat="43.7796679" lon="10.9927838"><ele>422.0</ele><time>2026-04-11T09:02:52.043Z</time></trkpt><trkpt lat="43.7796962" lon="10.9926731"><ele>421.99999999999994</ele><time>2026-04-11T09:02:53.043Z</time></trkpt><trkpt lat="43.7797217" lon="10.992568"><ele>422.0</ele><time>2026-04-11T09:02:54.042Z</time></trkpt><trkpt lat="43.7797427" lon="10.9924576"><ele>422.0</ele><time>2026-04-11T09:02:55.043Z</time></trkpt><trkpt lat="43.7797657" lon="10.9923458"><ele>422.0</ele><time>2026-04-11T09:02:56.042Z</time></trkpt><trkpt lat="43.7797899" lon="10.9922312"><ele>421.99999999999994</ele><time>2026-04-11T09:02:57.043Z</time></trkpt><trkpt lat="43.7798146" lon="10.9921124"><ele>422.0</ele><time>2026-04-11T09:02:58.043Z</time></trkpt><trkpt lat="43.7798405" lon="10.9919925"><ele>419.8</ele><time>2026-04-11T09:02:59.043Z</time></trkpt><trkpt lat="43.7798716" lon="10.9918713"><ele>417.6</ele><time>2026-04-11T09:03:00.042Z</time></trkpt><trkpt lat="43.7798983" lon="10.9917472"><ele>415.40000000000003</ele><time>2026-04-11T09:03:01.043Z</time></trkpt><trkpt lat="43.7799246" lon="10.991621"><ele>413.20000000000005</ele><time>2026-04-11T09:03:02.043Z</time></trkpt><trkpt lat="43.77995" lon="10.9915029"><ele>411.0</ele><time>2026-04-11T09:03:03.043Z</time></trkpt><trkpt lat="43.7799764" lon="10.9913859"><ele>409.3333333333333</ele><time>2026-04-11T09:03:04.042Z</time></trkpt><trkpt lat="43.780002" lon="10.9912832"><ele>407.66666666666663</ele><time>2026-04-11T09:03:05.043Z</time></trkpt><trkpt lat="43.7800276" lon="10.9911872"><ele>406.0</ele><time>2026-04-11T09:03:06.043Z</time></trkpt><trkpt lat="43.7800522" lon="10.9910926"><ele>404.3333333333333</ele><time>2026-04-11T09:03:07.043Z</time></trkpt><trkpt lat="43.7800797" lon="10.9910127"><ele>402.66666666666663</ele><time>2026-04-11T09:03:08.043Z</time></trkpt><trkpt lat="43.7801142" lon="10.990888"><ele>401.0</ele><time>2026-04-11T09:03:10.043Z</time></trkpt><trkpt lat="43.780187" lon="10.9907973"><ele>399.25</ele><time>2026-04-11T09:03:12.042Z</time></trkpt><trkpt lat="43.7802737" lon="10.9907252"><ele>397.5</ele><time>2026-04-11T09:03:13.043Z</time></trkpt><trkpt lat="43.780393" lon="10.9906259"><ele>395.75</ele><time>2026-04-11T09:03:14.043Z</time></trkpt><trkpt lat="43.7805438" lon="10.9904892"><ele>394.0</ele><time>2026-04-11T09:03:15.043Z</time></trkpt><trkpt lat="43.7807195" lon="10.9903219"><ele>394.0</ele><time>2026-04-11T09:03:16.043Z</time></trkpt><trkpt lat="43.7809064" lon="10.9901446"><ele>394.0</ele><time>2026-04-11T09:03:17.043Z</time></trkpt><trkpt lat="43.7810769" lon="10.9899794"><ele>394.0</ele><time>2026-04-11T09:03:18.043Z</time></trkpt><trkpt lat="43.7812296" lon="10.9898374"><ele>395.0</ele><time>2026-04-11T09:03:19.043Z</time></trkpt><trkpt lat="43.7813588" lon="10.9897165"><ele>396.0</ele><time>2026-04-11T09:03:20.043Z</time></trkpt><trkpt lat="43.7814851" lon="10.9895954"><ele>397.0</ele><time>2026-04-11T09:03:21.043Z</time></trkpt><trkpt lat="43.7816113" lon="10.9894774"><ele>397.0</ele><time>2026-04-11T09:03:22.043Z</time></trkpt><trkpt lat="43.7817444" lon="10.9893661"><ele>397.0</ele><time>2026-04-11T09:03:23.043Z</time></trkpt><trkpt lat="43.7818747" lon="10.9892666"><ele>397.0</ele><time>2026-04-11T09:03:24.043Z</time></trkpt><trkpt lat="43.7820135" lon="10.98918"><ele>396.0</ele><time>2026-04-11T09:03:25.043Z</time></trkpt><trkpt lat="43.7821542" lon="10.9891065"><ele>395.0</ele><time>2026-04-11T09:03:26.043Z</time></trkpt><trkpt lat="43.7822945" lon="10.9890325"><ele>394.0</ele><time>2026-04-11T09:03:27.043Z</time></trkpt><trkpt lat="43.7824302" lon="10.9889657"><ele>393.0</ele><time>2026-04-11T09:03:28.043Z</time></trkpt><trkpt lat="43.7825608" lon="10.9889053"><ele>393.0</ele><time>2026-04-11T09:03:29.043Z</time></trkpt><trkpt lat="43.7826851" lon="10.9888605"><ele>393.0</ele><time>2026-04-11T09:03:30.042Z</time></trkpt><trkpt lat="43.7827935" lon="10.9888126"><ele>393.0</ele><time>2026-04-11T09:03:31.043Z</time></trkpt><trkpt lat="43.7828838" lon="10.9887802"><ele>393.0</ele><time>2026-04-11T09:03:32.042Z</time></trkpt><trkpt lat="43.782955" lon="10.9887564"><ele>393.0</ele><time>2026-04-11T09:03:33.043Z</time></trkpt><trkpt lat="43.7830319" lon="10.9887445"><ele>393.0</ele><time>2026-04-11T09:03:35.043Z</time></trkpt><trkpt lat="43.7831158" lon="10.9887119"><ele>393.0</ele><time>2026-04-11T09:03:37.043Z</time></trkpt><trkpt lat="43.7832416" lon="10.9886636"><ele>393.0</ele><time>2026-04-11T09:03:39.043Z</time></trkpt><trkpt lat="43.7833158" lon="10.98864"><ele>393.0</ele><time>2026-04-11T09:03:40.043Z</time></trkpt><trkpt lat="43.7833903" lon="10.9886109"><ele>393.0</ele><time>2026-04-11T09:03:41.042Z</time></trkpt><trkpt lat="43.7834533" lon="10.9885913"><ele>393.0</ele><time>2026-04-11T09:03:42.042Z</time></trkpt><trkpt lat="43.7833638" lon="10.988591"><ele>393.0</ele><time>2026-04-11T09:03:49.043Z</time></trkpt><trkpt lat="43.7833002" lon="10.9886148"><ele>393.0</ele><time>2026-04-11T09:03:50.042Z</time></trkpt><trkpt lat="43.7832235" lon="10.9886265"><ele>393.0</ele><time>2026-04-11T09:03:52.042Z</time></trkpt><trkpt lat="43.7830883" lon="10.9885694"><ele>393.0</ele><time>2026-04-11T09:04:11.1Z</time></trkpt><trkpt lat="43.7830232" lon="10.9885643"><ele>393.0</ele><time>2026-04-11T09:04:24.136Z</time></trkpt><trkpt lat="43.7829914" lon="10.988489"><ele>393.0</ele><time>2026-04-11T09:04:28.047Z</time></trkpt><trkpt lat="43.7829819" lon="10.9885962"><ele>393.0</ele><time>2026-04-11T09:04:40.042Z</time></trkpt><trkpt lat="43.7830133" lon="10.9886832"><ele>393.0</ele><time>2026-04-11T09:04:43.041Z</time></trkpt><trkpt lat="43.7830743" lon="10.9887109"><ele>393.0</ele><time>2026-04-11T09:04:49.042Z</time></trkpt><trkpt lat="43.7831783" lon="10.9886899"><ele>393.0</ele><time>2026-04-11T09:04:51.042Z</time></trkpt><trkpt lat="43.7832465" lon="10.9886612"><ele>393.0</ele><time>2026-04-11T09:04:52.042Z</time></trkpt><trkpt lat="43.7833197" lon="10.9886311"><ele>393.0</ele><time>2026-04-11T09:04:53.042Z</time></trkpt><trkpt lat="43.7833976" lon="10.9885995"><ele>393.0</ele><time>2026-04-11T09:04:54.041Z</time></trkpt><trkpt lat="43.7834885" lon="10.9885588"><ele>393.0</ele><time>2026-04-11T09:04:55.042Z</time></trkpt><trkpt lat="43.7835781" lon="10.9885263"><ele>393.0</ele><time>2026-04-11T09:04:56.042Z</time></trkpt><trkpt lat="43.7836697" lon="10.9884979"><ele>393.0</ele><time>2026-04-11T09:04:57.042Z</time></trkpt><trkpt lat="43.7837526" lon="10.9884759"><ele>393.0</ele><time>2026-04-11T09:04:58.041Z</time></trkpt><trkpt lat="43.7838217" lon="10.988453"><ele>393.0</ele><time>2026-04-11T09:04:59.041Z</time></trkpt><trkpt lat="43.7839269" lon="10.9884206"><ele>391.75</ele><time>2026-04-11T09:05:01.042Z</time></trkpt><trkpt lat="43.7840153" lon="10.9883808"><ele>390.5</ele><time>2026-04-11T09:05:55.042Z</time></trkpt><trkpt lat="43.7841709" lon="10.9882949"><ele>389.25</ele><time>2026-04-11T09:05:57.042Z</time></trkpt><trkpt lat="43.7843138" lon="10.9882377"><ele>388.0</ele><time>2026-04-11T09:05:58.042Z</time></trkpt><trkpt lat="43.7844857" lon="10.9881861"><ele>393.0</ele><time>2026-04-11T09:05:59.042Z</time></trkpt><trkpt lat="43.784652" lon="10.9881242"><ele>398.0</ele><time>2026-04-11T09:06:00.042Z</time></trkpt><trkpt lat="43.7848167" lon="10.9880648"><ele>403.0</ele><time>2026-04-11T09:06:01.042Z</time></trkpt><trkpt lat="43.7849745" lon="10.988002"><ele>403.0</ele><time>2026-04-11T09:06:02.042Z</time></trkpt><trkpt lat="43.7851367" lon="10.9879425"><ele>403.0</ele><time>2026-04-11T09:06:03.041Z</time></trkpt><trkpt lat="43.7852856" lon="10.9878975"><ele>403.0</ele><time>2026-04-11T09:06:04.042Z</time></trkpt><trkpt lat="43.7854262" lon="10.9878478"><ele>403.25</ele><time>2026-04-11T09:06:05.042Z</time></trkpt><trkpt lat="43.7855566" lon="10.9877917"><ele>403.5</ele><time>2026-04-11T09:06:06.042Z</time></trkpt><trkpt lat="43.7856942" lon="10.9877362"><ele>403.75</ele><time>2026-04-11T09:06:07.042Z</time></trkpt><trkpt lat="43.7858255" lon="10.9876877"><ele>404.0</ele><time>2026-04-11T09:06:08.042Z</time></trkpt><trkpt lat="43.7859473" lon="10.9876479"><ele>408.5</ele><time>2026-04-11T09:06:09.042Z</time></trkpt><trkpt lat="43.7860705" lon="10.987615"><ele>413.0</ele><time>2026-04-11T09:06:10.042Z</time></trkpt><trkpt lat="43.7861981" lon="10.9875862"><ele>417.5</ele><time>2026-04-11T09:06:11.042Z</time></trkpt><trkpt lat="43.7863116" lon="10.9875598"><ele>422.0</ele><time>2026-04-11T09:06:12.042Z</time></trkpt><trkpt lat="43.7864055" lon="10.9875372"><ele>423.40000000000003</ele><time>2026-04-11T09:06:13.042Z</time></trkpt><trkpt lat="43.7864867" lon="10.9874957"><ele>424.8</ele><time>2026-04-11T09:06:14.042Z</time></trkpt><trkpt lat="43.7865479" lon="10.9874555"><ele>426.2</ele><time>2026-04-11T09:06:15.042Z</time></trkpt><trkpt lat="43.7865814" lon="10.9873618"><ele>427.6</ele><time>2026-04-11T09:06:17.042Z</time></trkpt><trkpt lat="43.7864518" lon="10.9872884"><ele>429.0</ele><time>2026-04-11T09:06:20.041Z</time></trkpt><trkpt lat="43.7863279" lon="10.987293"><ele>429.0</ele><time>2026-04-11T09:06:21.042Z</time></trkpt><trkpt lat="43.7861735" lon="10.9873341"><ele>429.0</ele><time>2026-04-11T09:06:22.042Z</time></trkpt><trkpt lat="43.7860048" lon="10.987397"><ele>429.0</ele><time>2026-04-11T09:06:23.042Z</time></trkpt><trkpt lat="43.7858309" lon="10.9874098"><ele>426.0</ele><time>2026-04-11T09:06:24.042Z</time></trkpt><trkpt lat="43.7856817" lon="10.9873661"><ele>423.0</ele><time>2026-04-11T09:06:25.042Z</time></trkpt><trkpt lat="43.7855375" lon="10.9872954"><ele>420.0</ele><time>2026-04-11T09:06:26.042Z</time></trkpt><trkpt lat="43.7854054" lon="10.9871972"><ele>420.0</ele><time>2026-04-11T09:06:27.042Z</time></trkpt><trkpt lat="43.7852961" lon="10.9870559"><ele>420.0</ele><time>2026-04-11T09:06:28.042Z</time></trkpt><trkpt lat="43.7852053" lon="10.9868574"><ele>420.0</ele><time>2026-04-11T09:06:29.041Z</time></trkpt><trkpt lat="43.7851212" lon="10.9866395"><ele>420.25</ele><time>2026-04-11T09:06:30.042Z</time></trkpt><trkpt lat="43.7850477" lon="10.9864345"><ele>420.5</ele><time>2026-04-11T09:06:31.041Z</time></trkpt><trkpt lat="43.7849916" lon="10.9862465"><ele>420.75</ele><time>2026-04-11T09:06:32.042Z</time></trkpt><trkpt lat="43.7849699" lon="10.9860816"><ele>421.0</ele><time>2026-04-11T09:06:33.042Z</time></trkpt><trkpt lat="43.7849765" lon="10.9859355"><ele>421.0</ele><time>2026-04-11T09:06:34.042Z</time></trkpt><trkpt lat="43.7850164" lon="10.9857805"><ele>421.0</ele><time>2026-04-11T09:06:35.042Z</time></trkpt><trkpt lat="43.7850765" lon="10.9856066"><ele>421.0</ele><time>2026-04-11T09:06:36.042Z</time></trkpt><trkpt lat="43.7851318" lon="10.9854271"><ele>421.0</ele><time>2026-04-11T09:06:37.042Z</time></trkpt><trkpt lat="43.785174" lon="10.985253"><ele>418.6666666666667</ele><time>2026-04-11T09:06:38.042Z</time></trkpt><trkpt lat="43.7851933" lon="10.9850712"><ele>416.33333333333337</ele><time>2026-04-11T09:06:39.042Z</time></trkpt><trkpt lat="43.7851798" lon="10.9848586"><ele>414.0</ele><time>2026-04-11T09:06:40.042Z</time></trkpt><trkpt lat="43.7851571" lon="10.9846118"><ele>414.0</ele><time>2026-04-11T09:06:41.042Z</time></trkpt><trkpt lat="43.7851341" lon="10.9843563"><ele>414.0</ele><time>2026-04-11T09:06:42.042Z</time></trkpt><trkpt lat="43.7851164" lon="10.9841206"><ele>414.0</ele><time>2026-04-11T09:06:43.042Z</time></trkpt><trkpt lat="43.7850967" lon="10.9839083"><ele>413.33333333333337</ele><time>2026-04-11T09:06:44.042Z</time></trkpt><trkpt lat="43.7850351" lon="10.983708"><ele>412.6666666666667</ele><time>2026-04-11T09:06:45.042Z</time></trkpt><trkpt lat="43.7849283" lon="10.9835084"><ele>412.0</ele><time>2026-04-11T09:06:46.042Z</time></trkpt><trkpt lat="43.7847916" lon="10.9833294"><ele>414.6666666666667</ele><time>2026-04-11T09:06:47.041Z</time></trkpt><trkpt lat="43.784676" lon="10.9831412"><ele>417.33333333333337</ele><time>2026-04-11T09:06:48.042Z</time></trkpt><trkpt lat="43.78458" lon="10.9829517"><ele>420.0</ele><time>2026-04-11T09:06:49.041Z</time></trkpt><trkpt lat="43.7844889" lon="10.982772"><ele>420.0</ele><time>2026-04-11T09:06:50.042Z</time></trkpt><trkpt lat="43.7844124" lon="10.9826096"><ele>420.0</ele><time>2026-04-11T09:06:51.041Z</time></trkpt><trkpt lat="43.7843359" lon="10.982435"><ele>420.0</ele><time>2026-04-11T09:06:52.041Z</time></trkpt><trkpt lat="43.7842662" lon="10.9822506"><ele>420.0</ele><time>2026-04-11T09:06:53.041Z</time></trkpt><trkpt lat="43.7841955" lon="10.9820603"><ele>415.33333333333337</ele><time>2026-04-11T09:06:54.041Z</time></trkpt><trkpt lat="43.7841259" lon="10.9818681"><ele>410.6666666666667</ele><time>2026-04-11T09:06:55.041Z</time></trkpt><trkpt lat="43.7840617" lon="10.9816767"><ele>406.0</ele><time>2026-04-11T09:06:56.042Z</time></trkpt><trkpt lat="43.784007" lon="10.98148"><ele>406.0</ele><time>2026-04-11T09:06:57.041Z</time></trkpt><trkpt lat="43.7839644" lon="10.9812752"><ele>406.0</ele><time>2026-04-11T09:06:58.042Z</time></trkpt><trkpt lat="43.7839377" lon="10.9810669"><ele>406.0</ele><time>2026-04-11T09:06:59.042Z</time></trkpt><trkpt lat="43.783923" lon="10.9808665"><ele>406.5</ele><time>2026-04-11T09:07:00.042Z</time></trkpt><trkpt lat="43.7839152" lon="10.980679"><ele>407.0</ele><time>2026-04-11T09:07:01.042Z</time></trkpt><trkpt lat="43.7839198" lon="10.9805098"><ele>407.5</ele><time>2026-04-11T09:07:02.042Z</time></trkpt><trkpt lat="43.7839412" lon="10.98036"><ele>408.0</ele><time>2026-04-11T09:07:03.041Z</time></trkpt><trkpt lat="43.7839826" lon="10.9802116"><ele>408.0</ele><time>2026-04-11T09:07:04.042Z</time></trkpt><trkpt lat="43.7840445" lon="10.9800654"><ele>408.0</ele><time>2026-04-11T09:07:05.042Z</time></trkpt><trkpt lat="43.7841234" lon="10.9799437"><ele>408.0</ele><time>2026-04-11T09:07:06.042Z</time></trkpt><trkpt lat="43.7842165" lon="10.9798346"><ele>408.0</ele><time>2026-04-11T09:07:07.041Z</time></trkpt><trkpt lat="43.7843078" lon="10.9797227"><ele>409.75</ele><time>2026-04-11T09:07:08.042Z</time></trkpt><trkpt lat="43.7843672" lon="10.9795849"><ele>411.5</ele><time>2026-04-11T09:07:09.042Z</time></trkpt><trkpt lat="43.78439" lon="10.9794154"><ele>413.25</ele><time>2026-04-11T09:07:10.042Z</time></trkpt><trkpt lat="43.7843704" lon="10.9792261"><ele>415.0</ele><time>2026-04-11T09:07:11.042Z</time></trkpt><trkpt lat="43.7843561" lon="10.9790436"><ele>415.0</ele><time>2026-04-11T09:07:12.042Z</time></trkpt><trkpt lat="43.7843733" lon="10.978874"><ele>415.0</ele><time>2026-04-11T09:07:13.042Z</time></trkpt><trkpt lat="43.7844411" lon="10.9786956"><ele>415.0</ele><time>2026-04-11T09:07:14.041Z</time></trkpt><trkpt lat="43.7845472" lon="10.9785121"><ele>415.0</ele><time>2026-04-11T09:07:15.042Z</time></trkpt><trkpt lat="43.7846674" lon="10.9783507"><ele>408.6666666666667</ele><time>2026-04-11T09:07:16.042Z</time></trkpt><trkpt lat="43.7847989" lon="10.9782097"><ele>402.33333333333337</ele><time>2026-04-11T09:07:17.042Z</time></trkpt><trkpt lat="43.7849364" lon="10.9780873"><ele>396.0</ele><time>2026-04-11T09:07:18.042Z</time></trkpt><trkpt lat="43.7850758" lon="10.9779934"><ele>399.6</ele><time>2026-04-11T09:07:19.042Z</time></trkpt><trkpt lat="43.7852051" lon="10.977929"><ele>403.20000000000005</ele><time>2026-04-11T09:07:20.042Z</time></trkpt><trkpt lat="43.785288" lon="10.9778627"><ele>406.79999999999995</ele><time>2026-04-11T09:07:21.042Z</time></trkpt><trkpt lat="43.7853589" lon="10.9777592"><ele>410.4</ele><time>2026-04-11T09:07:22.042Z</time></trkpt><trkpt lat="43.7853999" lon="10.9776317"><ele>414.0</ele><time>2026-04-11T09:07:23.042Z</time></trkpt><trkpt lat="43.7853743" lon="10.9774955"><ele>414.0</ele><time>2026-04-11T09:07:24.042Z</time></trkpt><trkpt lat="43.7853118" lon="10.9773949"><ele>414.0</ele><time>2026-04-11T09:07:25.042Z</time></trkpt><trkpt lat="43.7851681" lon="10.9773132"><ele>414.0</ele><time>2026-04-11T09:07:26.042Z</time></trkpt><trkpt lat="43.7849844" lon="10.9772754"><ele>414.0</ele><time>2026-04-11T09:07:27.042Z</time></trkpt><trkpt lat="43.7847901" lon="10.977243"><ele>406.66666666666663</ele><time>2026-04-11T09:07:28.041Z</time></trkpt><trkpt lat="43.7846099" lon="10.9772138"><ele>399.3333333333333</ele><time>2026-04-11T09:07:29.042Z</time></trkpt><trkpt lat="43.7844426" lon="10.9772048"><ele>392.0</ele><time>2026-04-11T09:07:30.042Z</time></trkpt><trkpt lat="43.7842821" lon="10.9772106"><ele>388.0</ele><time>2026-04-11T09:07:31.041Z</time></trkpt><trkpt lat="43.7841211" lon="10.9772228"><ele>384.0</ele><time>2026-04-11T09:07:32.042Z</time></trkpt><trkpt lat="43.7839625" lon="10.977243"><ele>380.0</ele><time>2026-04-11T09:07:33.042Z</time></trkpt><trkpt lat="43.7838148" lon="10.9772861"><ele>380.0</ele><time>2026-04-11T09:07:34.042Z</time></trkpt><trkpt lat="43.7836818" lon="10.9773554"><ele>380.0</ele><time>2026-04-11T09:07:35.041Z</time></trkpt><trkpt lat="43.7835526" lon="10.9774204"><ele>380.0</ele><time>2026-04-11T09:07:36.042Z</time></trkpt><trkpt lat="43.7834301" lon="10.9774773"><ele>380.0</ele><time>2026-04-11T09:07:37.042Z</time></trkpt><trkpt lat="43.7833086" lon="10.9775242"><ele>380.5</ele><time>2026-04-11T09:07:38.042Z</time></trkpt><trkpt lat="43.7831889" lon="10.977556"><ele>381.0</ele><time>2026-04-11T09:07:39.042Z</time></trkpt><trkpt lat="43.7830614" lon="10.9775595"><ele>381.5</ele><time>2026-04-11T09:07:40.042Z</time></trkpt><trkpt lat="43.7829177" lon="10.9775365"><ele>382.0</ele><time>2026-04-11T09:07:41.041Z</time></trkpt><trkpt lat="43.7827711" lon="10.9774942"><ele>379.0</ele><time>2026-04-11T09:07:42.042Z</time></trkpt><trkpt lat="43.7826335" lon="10.9774448"><ele>376.0</ele><time>2026-04-11T09:07:43.041Z</time></trkpt><trkpt lat="43.7825079" lon="10.977378"><ele>373.0</ele><time>2026-04-11T09:07:44.041Z</time></trkpt><trkpt lat="43.7823987" lon="10.9773015"><ele>370.0</ele><time>2026-04-11T09:07:45.041Z</time></trkpt><trkpt lat="43.7823058" lon="10.9772224"><ele>370.0</ele><time>2026-04-11T09:07:46.042Z</time></trkpt><trkpt lat="43.7822092" lon="10.9771691"><ele>370.0</ele><time>2026-04-11T09:07:47.041Z</time></trkpt><trkpt lat="43.7820911" lon="10.9771481"><ele>370.0</ele><time>2026-04-11T09:07:48.042Z</time></trkpt><trkpt lat="43.7819481" lon="10.9771553"><ele>370.0</ele><time>2026-04-11T09:07:49.042Z</time></trkpt><trkpt lat="43.7817909" lon="10.9771963"><ele>367.3333333333333</ele><time>2026-04-11T09:07:50.042Z</time></trkpt><trkpt lat="43.7816233" lon="10.97726"><ele>364.6666666666667</ele><time>2026-04-11T09:07:51.042Z</time></trkpt><trkpt lat="43.7814496" lon="10.9773234"><ele>362.0</ele><time>2026-04-11T09:07:52.042Z</time></trkpt><trkpt lat="43.7812819" lon="10.9773814"><ele>362.0</ele><time>2026-04-11T09:07:53.042Z</time></trkpt><trkpt lat="43.7811257" lon="10.977427"><ele>362.0</ele><time>2026-04-11T09:07:54.042Z</time></trkpt><trkpt lat="43.7809763" lon="10.9774541"><ele>362.0</ele><time>2026-04-11T09:07:55.042Z</time></trkpt><trkpt lat="43.7808319" lon="10.9774647"><ele>362.75</ele><time>2026-04-11T09:07:56.042Z</time></trkpt><trkpt lat="43.7806982" lon="10.9774608"><ele>363.5</ele><time>2026-04-11T09:07:57.041Z</time></trkpt><trkpt lat="43.7805792" lon="10.9774359"><ele>364.25</ele><time>2026-04-11T09:07:58.042Z</time></trkpt><trkpt lat="43.780482" lon="10.9773796"><ele>365.0</ele><time>2026-04-11T09:07:59.042Z</time></trkpt><trkpt lat="43.7803942" lon="10.9772926"><ele>365.0</ele><time>2026-04-11T09:08:00.042Z</time></trkpt><trkpt lat="43.7803038" lon="10.9771769"><ele>365.0</ele><time>2026-04-11T09:08:01.042Z</time></trkpt><trkpt lat="43.7802138" lon="10.977064"><ele>365.0</ele><time>2026-04-11T09:08:02.042Z</time></trkpt><trkpt lat="43.7801087" lon="10.9769757"><ele>365.0</ele><time>2026-04-11T09:08:03.042Z</time></trkpt><trkpt lat="43.7799786" lon="10.9769409"><ele>361.75</ele><time>2026-04-11T09:08:04.042Z</time></trkpt><trkpt lat="43.7798253" lon="10.9769654"><ele>358.5</ele><time>2026-04-11T09:08:05.041Z</time></trkpt><trkpt lat="43.7796807" lon="10.9769983"><ele>355.25</ele><time>2026-04-11T09:08:06.042Z</time></trkpt><trkpt lat="43.7795496" lon="10.9769893"><ele>352.0</ele><time>2026-04-11T09:08:07.042Z</time></trkpt><trkpt lat="43.7794274" lon="10.9769409"><ele>352.5</ele><time>2026-04-11T09:08:08.042Z</time></trkpt><trkpt lat="43.7793264" lon="10.9768461"><ele>353.0</ele><time>2026-04-11T09:08:09.041Z</time></trkpt><trkpt lat="43.7792378" lon="10.9767187"><ele>353.5</ele><time>2026-04-11T09:08:10.041Z</time></trkpt><trkpt lat="43.7791655" lon="10.9765726"><ele>354.0</ele><time>2026-04-11T09:08:11.042Z</time></trkpt><trkpt lat="43.7791105" lon="10.9764325"><ele>354.0</ele><time>2026-04-11T09:08:12.042Z</time></trkpt><trkpt lat="43.7790824" lon="10.9762935"><ele>354.0</ele><time>2026-04-11T09:08:13.041Z</time></trkpt><trkpt lat="43.7790712" lon="10.9761526"><ele>354.0</ele><time>2026-04-11T09:08:14.042Z</time></trkpt><trkpt lat="43.7790735" lon="10.9760165"><ele>354.0</ele><time>2026-04-11T09:08:15.042Z</time></trkpt><trkpt lat="43.7790976" lon="10.9758927"><ele>354.0</ele><time>2026-04-11T09:08:16.042Z</time></trkpt><trkpt lat="43.77914" lon="10.9757803"><ele>353.6666666666667</ele><time>2026-04-11T09:08:17.042Z</time></trkpt><trkpt lat="43.7791946" lon="10.9756832"><ele>353.3333333333333</ele><time>2026-04-11T09:08:18.042Z</time></trkpt><trkpt lat="43.7792491" lon="10.9755903"><ele>353.0</ele><time>2026-04-11T09:08:19.042Z</time></trkpt><trkpt lat="43.7793001" lon="10.975508"><ele>352.66666666666663</ele><time>2026-04-11T09:08:20.042Z</time></trkpt><trkpt lat="43.7793433" lon="10.9754301"><ele>352.3333333333333</ele><time>2026-04-11T09:08:21.042Z</time></trkpt><trkpt lat="43.7794102" lon="10.9753256"><ele>352.0</ele><time>2026-04-11T09:08:23.042Z</time></trkpt><trkpt lat="43.7793533" lon="10.9753873"><ele>352.0</ele><time>2026-04-11T09:08:28.042Z</time></trkpt><trkpt lat="43.7793215" lon="10.9754851"><ele>352.0</ele><time>2026-04-11T09:08:29.041Z</time></trkpt><trkpt lat="43.7792691" lon="10.9756074"><ele>352.0</ele><time>2026-04-11T09:08:30.041Z</time></trkpt><trkpt lat="43.779203" lon="10.9757313"><ele>352.0</ele><time>2026-04-11T09:08:31.042Z</time></trkpt><trkpt lat="43.7791289" lon="10.97586"><ele>352.0</ele><time>2026-04-11T09:08:32.042Z</time></trkpt><trkpt lat="43.779063" lon="10.9760041"><ele>352.5</ele><time>2026-04-11T09:08:33.042Z</time></trkpt><trkpt lat="43.7790247" lon="10.9761876"><ele>353.0</ele><time>2026-04-11T09:08:34.042Z</time></trkpt><trkpt lat="43.7790317" lon="10.9763752"><ele>353.5</ele><time>2026-04-11T09:08:35.042Z</time></trkpt><trkpt lat="43.7790991" lon="10.9765616"><ele>354.0</ele><time>2026-04-11T09:08:36.042Z</time></trkpt><trkpt lat="43.7791804" lon="10.9767291"><ele>353.5</ele><time>2026-04-11T09:08:37.042Z</time></trkpt><trkpt lat="43.7792647" lon="10.976871"><ele>353.0</ele><time>2026-04-11T09:08:38.042Z</time></trkpt><trkpt lat="43.7793561" lon="10.9769922"><ele>352.5</ele><time>2026-04-11T09:08:39.041Z</time></trkpt><trkpt lat="43.7794582" lon="10.9770653"><ele>352.0</ele><time>2026-04-11T09:08:40.042Z</time></trkpt><trkpt lat="43.7795693" lon="10.9771006"><ele>352.0</ele><time>2026-04-11T09:08:41.041Z</time></trkpt><trkpt lat="43.7796844" lon="10.9771038"><ele>352.0</ele><time>2026-04-11T09:08:42.041Z</time></trkpt><trkpt lat="43.7797867" lon="10.9770811"><ele>352.0</ele><time>2026-04-11T09:08:43.042Z</time></trkpt><trkpt lat="43.7798714" lon="10.9770522"><ele>352.0</ele><time>2026-04-11T09:08:44.042Z</time></trkpt><trkpt lat="43.7799406" lon="10.9770256"><ele>352.0</ele><time>2026-04-11T09:08:45.042Z</time></trkpt><trkpt lat="43.7800142" lon="10.976992"><ele>352.0</ele><time>2026-04-11T09:08:47.042Z</time></trkpt><trkpt lat="43.7800226" lon="10.9768943"><ele>352.0</ele><time>2026-04-11T09:08:49.042Z</time></trkpt><trkpt lat="43.7799804" lon="10.976775"><ele>352.0</ele><time>2026-04-11T09:08:51.041Z</time></trkpt><trkpt lat="43.7799514" lon="10.9766207"><ele>352.0</ele><time>2026-04-11T09:08:53.042Z</time></trkpt><trkpt lat="43.7799484" lon="10.9765311"><ele>352.0</ele><time>2026-04-11T09:08:54.041Z</time></trkpt><trkpt lat="43.7799303" lon="10.9763786"><ele>355.0</ele><time>2026-04-11T09:08:56.042Z</time></trkpt><trkpt lat="43.7799069" lon="10.9762537"><ele>358.0</ele><time>2026-04-11T09:08:58.041Z</time></trkpt><trkpt lat="43.7798959" lon="10.9761546"><ele>361.0</ele><time>2026-04-11T09:09:00.042Z</time></trkpt><trkpt lat="43.7799738" lon="10.976085"><ele>364.0</ele><time>2026-04-11T09:09:03.042Z</time></trkpt><trkpt lat="43.7800632" lon="10.9761061"><ele>367.0</ele><time>2026-04-11T09:09:05.042Z</time></trkpt><trkpt lat="43.7801831" lon="10.9761419"><ele>369.40000000000003</ele><time>2026-04-11T09:09:07.041Z</time></trkpt><trkpt lat="43.7802509" lon="10.9761536"><ele>371.8</ele><time>2026-04-11T09:09:08.041Z</time></trkpt><trkpt lat="43.7803153" lon="10.9761612"><ele>374.2</ele><time>2026-04-11T09:09:09.041Z</time></trkpt><trkpt lat="43.7804304" lon="10.9761646"><ele>376.6</ele><time>2026-04-11T09:09:11.042Z</time></trkpt><trkpt lat="43.7805439" lon="10.9761735"><ele>379.0</ele><time>2026-04-11T09:09:13.042Z</time></trkpt><trkpt lat="43.7806565" lon="10.9761408"><ele>379.0</ele><time>2026-04-11T09:09:15.042Z</time></trkpt><trkpt lat="43.780762" lon="10.9761003"><ele>379.0</ele><time>2026-04-11T09:09:17.042Z</time></trkpt><trkpt lat="43.7808733" lon="10.9760933"><ele>379.0</ele><time>2026-04-11T09:09:19.042Z</time></trkpt><trkpt lat="43.7809862" lon="10.9761008"><ele>379.0</ele><time>2026-04-11T09:09:21.042Z</time></trkpt><trkpt lat="43.7810981" lon="10.976116"><ele>379.0</ele><time>2026-04-11T09:09:23.042Z</time></trkpt><trkpt lat="43.7811858" lon="10.9761288"><ele>380.0</ele><time>2026-04-11T09:09:25.042Z</time></trkpt><trkpt lat="43.7812528" lon="10.9762325"><ele>381.0</ele><time>2026-04-11T09:09:28.042Z</time></trkpt><trkpt lat="43.7812948" lon="10.9763467"><ele>382.0</ele><time>2026-04-11T09:09:30.042Z</time></trkpt><trkpt lat="43.7813317" lon="10.9764912"><ele>383.0</ele><time>2026-04-11T09:09:32.042Z</time></trkpt><trkpt lat="43.7813987" lon="10.9765713"><ele>384.0</ele><time>2026-04-11T09:09:34.042Z</time></trkpt><trkpt lat="43.7815026" lon="10.9765832"><ele>384.0</ele><time>2026-04-11T09:09:36.042Z</time></trkpt><trkpt lat="43.7816261" lon="10.9765814"><ele>384.0</ele><time>2026-04-11T09:09:38.042Z</time></trkpt><trkpt lat="43.7816982" lon="10.9765791"><ele>384.0</ele><time>2026-04-11T09:09:39.042Z</time></trkpt><trkpt lat="43.7817731" lon="10.9765785"><ele>384.0</ele><time>2026-04-11T09:09:40.042Z</time></trkpt><trkpt lat="43.7818454" lon="10.9765809"><ele>384.0</ele><time>2026-04-11T09:09:41.041Z</time></trkpt><trkpt lat="43.7819155" lon="10.9765778"><ele>384.0</ele><time>2026-04-11T09:09:42.042Z</time></trkpt><trkpt lat="43.7819802" lon="10.9765776"><ele>385.5</ele><time>2026-04-11T09:09:43.042Z</time></trkpt><trkpt lat="43.7820448" lon="10.9765767"><ele>387.0</ele><time>2026-04-11T09:09:44.041Z</time></trkpt><trkpt lat="43.7821517" lon="10.9765419"><ele>388.5</ele><time>2026-04-11T09:09:46.042Z</time></trkpt><trkpt lat="43.7821737" lon="10.9764529"><ele>390.0</ele><time>2026-04-11T09:09:48.042Z</time></trkpt><trkpt lat="43.7821899" lon="10.9763247"><ele>391.5</ele><time>2026-04-11T09:09:50.042Z</time></trkpt><trkpt lat="43.7822511" lon="10.9762091"><ele>393.0</ele><time>2026-04-11T09:09:52.042Z</time></trkpt><trkpt lat="43.7822954" lon="10.9761393"><ele>393.0</ele><time>2026-04-11T09:09:53.042Z</time></trkpt><trkpt lat="43.7823376" lon="10.976073"><ele>393.0</ele><time>2026-04-11T09:09:54.042Z</time></trkpt><trkpt lat="43.7823789" lon="10.9760046"><ele>393.0</ele><time>2026-04-11T09:09:55.042Z</time></trkpt><trkpt lat="43.7824509" lon="10.9758834"><ele>393.0</ele><time>2026-04-11T09:09:57.042Z</time></trkpt><trkpt lat="43.782519" lon="10.9757808"><ele>393.0</ele><time>2026-04-11T09:09:59.042Z</time></trkpt><trkpt lat="43.7826" lon="10.9757067"><ele>393.0</ele><time>2026-04-11T09:10:01.042Z</time></trkpt><trkpt lat="43.7826734" lon="10.9756067"><ele>396.0</ele><time>2026-04-11T09:10:03.042Z</time></trkpt><trkpt lat="43.7827254" lon="10.9755513"><ele>399.0</ele><time>2026-04-11T09:10:05.041Z</time></trkpt><trkpt lat="43.7827769" lon="10.9754768"><ele>402.0</ele><time>2026-04-11T09:10:20.041Z</time></trkpt><trkpt lat="43.782863" lon="10.975413"><ele>405.0</ele><time>2026-04-11T09:10:23.041Z</time></trkpt><trkpt lat="43.7829357" lon="10.975355"><ele>408.0</ele><time>2026-04-11T09:10:25.041Z</time></trkpt><trkpt lat="43.7830007" lon="10.975299"><ele>411.0</ele><time>2026-04-11T09:10:27.041Z</time></trkpt><trkpt lat="43.7830619" lon="10.9752134"><ele>411.0</ele><time>2026-04-11T09:10:29.04Z</time></trkpt><trkpt lat="43.7831183" lon="10.975137"><ele>411.0</ele><time>2026-04-11T09:10:31.041Z</time></trkpt><trkpt lat="43.7831781" lon="10.9750635"><ele>411.0</ele><time>2026-04-11T09:10:33.041Z</time></trkpt><trkpt lat="43.7832363" lon="10.9749929"><ele>411.0</ele><time>2026-04-11T09:10:35.041Z</time></trkpt><trkpt lat="43.7833025" lon="10.9749153"><ele>411.0</ele><time>2026-04-11T09:10:37.041Z</time></trkpt><trkpt lat="43.7833744" lon="10.9748222"><ele>411.0</ele><time>2026-04-11T09:10:39.041Z</time></trkpt><trkpt lat="43.7834357" lon="10.9746894"><ele>409.20000000000005</ele><time>2026-04-11T09:10:41.041Z</time></trkpt><trkpt lat="43.7835023" lon="10.9745481"><ele>407.40000000000003</ele><time>2026-04-11T09:10:43.041Z</time></trkpt><trkpt lat="43.7835795" lon="10.9744454"><ele>405.6</ele><time>2026-04-11T09:10:45.04Z</time></trkpt><trkpt lat="43.7836639" lon="10.9743742"><ele>403.8</ele><time>2026-04-11T09:10:47.041Z</time></trkpt><trkpt lat="43.7837552" lon="10.9742946"><ele>402.0</ele><time>2026-04-11T09:10:49.04Z</time></trkpt><trkpt lat="43.7838501" lon="10.9742318"><ele>404.3333333333333</ele><time>2026-04-11T09:10:51.041Z</time></trkpt><trkpt lat="43.7839384" lon="10.974129"><ele>406.66666666666663</ele><time>2026-04-11T09:10:53.041Z</time></trkpt><trkpt lat="43.7839645" lon="10.9740468"><ele>409.0</ele><time>2026-04-11T09:10:54.041Z</time></trkpt><trkpt lat="43.7839863" lon="10.9738824"><ele>411.3333333333333</ele><time>2026-04-11T09:10:56.041Z</time></trkpt><trkpt lat="43.7839987" lon="10.9737916"><ele>413.66666666666663</ele><time>2026-04-11T09:10:57.041Z</time></trkpt><trkpt lat="43.7840061" lon="10.9737"><ele>416.0</ele><time>2026-04-11T09:10:58.041Z</time></trkpt><trkpt lat="43.7840131" lon="10.9736093"><ele>415.99999999999994</ele><time>2026-04-11T09:10:59.041Z</time></trkpt><trkpt lat="43.7840171" lon="10.973519"><ele>416.0</ele><time>2026-04-11T09:11:00.041Z</time></trkpt><trkpt lat="43.7839934" lon="10.973359"><ele>416.0</ele><time>2026-04-11T09:11:02.041Z</time></trkpt><trkpt lat="43.7839679" lon="10.9732443"><ele>416.0</ele><time>2026-04-11T09:11:04.04Z</time></trkpt><trkpt lat="43.7839197" lon="10.9731564"><ele>415.99999999999994</ele><time>2026-04-11T09:11:13.041Z</time></trkpt><trkpt lat="43.7838935" lon="10.97303"><ele>416.0</ele><time>2026-04-11T09:11:15.041Z</time></trkpt><trkpt lat="43.7838866" lon="10.9728906"><ele>415.4</ele><time>2026-04-11T09:11:17.04Z</time></trkpt><trkpt lat="43.7838627" lon="10.972717"><ele>414.8</ele><time>2026-04-11T09:11:19.041Z</time></trkpt><trkpt lat="43.783835" lon="10.9725775"><ele>414.2</ele><time>2026-04-11T09:11:21.041Z</time></trkpt><trkpt lat="43.7838195" lon="10.9724481"><ele>413.59999999999997</ele><time>2026-04-11T09:11:23.041Z</time></trkpt><trkpt lat="43.7838199" lon="10.9723313"><ele>413.0</ele><time>2026-04-11T09:11:25.04Z</time></trkpt><trkpt lat="43.7838315" lon="10.9721805"><ele>412.79999999999995</ele><time>2026-04-11T09:11:27.04Z</time></trkpt><trkpt lat="43.7838456" lon="10.9720241"><ele>412.6</ele><time>2026-04-11T09:11:29.041Z</time></trkpt><trkpt lat="43.7838598" lon="10.9718624"><ele>412.4</ele><time>2026-04-11T09:11:31.041Z</time></trkpt><trkpt lat="43.7838555" lon="10.971702"><ele>412.20000000000005</ele><time>2026-04-11T09:11:33.041Z</time></trkpt><trkpt lat="43.7838544" lon="10.9715813"><ele>412.0</ele><time>2026-04-11T09:11:35.04Z</time></trkpt><trkpt lat="43.783893" lon="10.9714326"><ele>411.20000000000005</ele><time>2026-04-11T09:11:37.041Z</time></trkpt><trkpt lat="43.7839319" lon="10.971363"><ele>410.4</ele><time>2026-04-11T09:11:38.041Z</time></trkpt><trkpt lat="43.7840079" lon="10.9712214"><ele>409.6</ele><time>2026-04-11T09:11:40.041Z</time></trkpt><trkpt lat="43.7840687" lon="10.9710793"><ele>408.79999999999995</ele><time>2026-04-11T09:11:42.04Z</time></trkpt><trkpt lat="43.7841285" lon="10.9709679"><ele>408.0</ele><time>2026-04-11T09:11:44.041Z</time></trkpt><trkpt lat="43.7842103" lon="10.9708945"><ele>408.75</ele><time>2026-04-11T09:11:46.041Z</time></trkpt><trkpt lat="43.7843026" lon="10.9708149"><ele>409.5</ele><time>2026-04-11T09:11:48.041Z</time></trkpt><trkpt lat="43.7844059" lon="10.970738"><ele>410.25</ele><time>2026-04-11T09:11:50.04Z</time></trkpt><trkpt lat="43.7845225" lon="10.9706789"><ele>411.0</ele><time>2026-04-11T09:11:52.041Z</time></trkpt><trkpt lat="43.7846504" lon="10.9706426"><ele>411.0</ele><time>2026-04-11T09:11:54.041Z</time></trkpt><trkpt lat="43.7847664" lon="10.9706132"><ele>411.0</ele><time>2026-04-11T09:11:56.041Z</time></trkpt><trkpt lat="43.7848843" lon="10.9705616"><ele>411.0</ele><time>2026-04-11T09:11:58.041Z</time></trkpt><trkpt lat="43.784998" lon="10.970524"><ele>411.0</ele><time>2026-04-11T09:12:00.041Z</time></trkpt><trkpt lat="43.7851037" lon="10.9704949"><ele>409.8</ele><time>2026-04-11T09:12:02.04Z</time></trkpt><trkpt lat="43.785203" lon="10.9704768"><ele>408.6</ele><time>2026-04-11T09:12:04.04Z</time></trkpt><trkpt lat="43.7852988" lon="10.9705167"><ele>407.4</ele><time>2026-04-11T09:12:06.041Z</time></trkpt><trkpt lat="43.7853606" lon="10.9706227"><ele>406.2</ele><time>2026-04-11T09:12:08.041Z</time></trkpt><trkpt lat="43.7853983" lon="10.9707374"><ele>405.0</ele><time>2026-04-11T09:12:10.04Z</time></trkpt><trkpt lat="43.7854399" lon="10.9708317"><ele>408.4</ele><time>2026-04-11T09:12:12.041Z</time></trkpt><trkpt lat="43.7854887" lon="10.9709105"><ele>411.8</ele><time>2026-04-11T09:12:14.041Z</time></trkpt><trkpt lat="43.7855629" lon="10.9709782"><ele>415.20000000000005</ele><time>2026-04-11T09:12:16.04Z</time></trkpt><trkpt lat="43.7856553" lon="10.9710401"><ele>418.6</ele><time>2026-04-11T09:12:18.041Z</time></trkpt><trkpt lat="43.7857658" lon="10.9711157"><ele>422.0</ele><time>2026-04-11T09:12:20.041Z</time></trkpt><trkpt lat="43.7858314" lon="10.9711477"><ele>421.99999999999994</ele><time>2026-04-11T09:12:21.041Z</time></trkpt><trkpt lat="43.7859007" lon="10.9711892"><ele>422.0</ele><time>2026-04-11T09:12:22.041Z</time></trkpt><trkpt lat="43.7859757" lon="10.9712249"><ele>422.0</ele><time>2026-04-11T09:12:23.041Z</time></trkpt><trkpt lat="43.7860425" lon="10.9712571"><ele>422.0</ele><time>2026-04-11T09:12:24.04Z</time></trkpt><trkpt lat="43.7861046" lon="10.971293"><ele>421.99999999999994</ele><time>2026-04-11T09:12:25.04Z</time></trkpt><trkpt lat="43.786212" lon="10.9713505"><ele>422.0</ele><time>2026-04-11T09:12:27.041Z</time></trkpt><trkpt lat="43.7863202" lon="10.9713903"><ele>419.8</ele><time>2026-04-11T09:12:29.04Z</time></trkpt><trkpt lat="43.7864144" lon="10.9714136"><ele>417.6</ele><time>2026-04-11T09:12:31.041Z</time></trkpt><trkpt lat="43.786509" lon="10.9714643"><ele>415.40000000000003</ele><time>2026-04-11T09:12:33.041Z</time></trkpt><trkpt lat="43.7866046" lon="10.971533"><ele>413.20000000000005</ele><time>2026-04-11T09:12:35.041Z</time></trkpt><trkpt lat="43.7866997" lon="10.9716187"><ele>411.0</ele><time>2026-04-11T09:12:37.041Z</time></trkpt><trkpt lat="43.7867714" lon="10.9717303"><ele>409.5</ele><time>2026-04-11T09:12:39.04Z</time></trkpt><trkpt lat="43.7868403" lon="10.9718448"><ele>408.0</ele><time>2026-04-11T09:12:41.041Z</time></trkpt><trkpt lat="43.7869275" lon="10.9719258"><ele>406.5</ele><time>2026-04-11T09:12:43.041Z</time></trkpt><trkpt lat="43.7870338" lon="10.9720039"><ele>405.0</ele><time>2026-04-11T09:12:45.04Z</time></trkpt><trkpt lat="43.7871285" lon="10.9720998"><ele>405.0</ele><time>2026-04-11T09:12:47.041Z</time></trkpt><trkpt lat="43.7871747" lon="10.9721648"><ele>405.0</ele><time>2026-04-11T09:12:48.041Z</time></trkpt><trkpt lat="43.7872079" lon="10.9722483"><ele>405.0</ele><time>2026-04-11T09:12:49.04Z</time></trkpt><trkpt lat="43.78724" lon="10.9723945"><ele>405.0</ele><time>2026-04-11T09:12:51.041Z</time></trkpt><trkpt lat="43.7872464" lon="10.9725285"><ele>405.0</ele><time>2026-04-11T09:12:53.041Z</time></trkpt><trkpt lat="43.7872913" lon="10.9726532"><ele>405.0</ele><time>2026-04-11T09:12:55.041Z</time></trkpt><trkpt lat="43.787366" lon="10.9727582"><ele>407.6666666666667</ele><time>2026-04-11T09:12:57.041Z</time></trkpt><trkpt lat="43.7874035" lon="10.9728299"><ele>410.33333333333337</ele><time>2026-04-11T09:12:59.041Z</time></trkpt><trkpt lat="43.7874302" lon="10.97294"><ele>413.0</ele><time>2026-04-11T09:13:06.041Z</time></trkpt><trkpt lat="43.7874505" lon="10.9730234"><ele>415.6666666666667</ele><time>2026-04-11T09:13:08.041Z</time></trkpt><trkpt lat="43.7874711" lon="10.9731264"><ele>418.33333333333337</ele><time>2026-04-11T09:13:10.041Z</time></trkpt><trkpt lat="43.7874818" lon="10.9732273"><ele>421.0</ele><time>2026-04-11T09:13:12.041Z</time></trkpt><trkpt lat="43.787503" lon="10.9733476"><ele>419.00000000000006</ele><time>2026-04-11T09:13:15.138Z</time></trkpt><trkpt lat="43.787534" lon="10.9734514"><ele>417.0</ele><time>2026-04-11T09:13:18.624Z</time></trkpt><trkpt lat="43.7876138" lon="10.9734249"><ele>415.0</ele><time>2026-04-11T09:13:21.041Z</time></trkpt><trkpt lat="43.7876787" lon="10.9733694"><ele>413.0</ele><time>2026-04-11T09:13:23.041Z</time></trkpt><trkpt lat="43.7877456" lon="10.9733094"><ele>411.00000000000006</ele><time>2026-04-11T09:13:26.041Z</time></trkpt><trkpt lat="43.7878069" lon="10.973283"><ele>409.0</ele><time>2026-04-11T09:13:28.041Z</time></trkpt><trkpt lat="43.7878763" lon="10.9732626"><ele>409.00000000000006</ele><time>2026-04-11T09:13:31.138Z</time></trkpt><trkpt lat="43.7879443" lon="10.9732673"><ele>409.0</ele><time>2026-04-11T09:13:33.025Z</time></trkpt><trkpt lat="43.7880067" lon="10.9733717"><ele>409.0</ele><time>2026-04-11T09:13:35.04Z</time></trkpt><trkpt lat="43.7880457" lon="10.9734524"><ele>409.0</ele><time>2026-04-11T09:13:37.041Z</time></trkpt><trkpt lat="43.7880839" lon="10.9735487"><ele>409.00000000000006</ele><time>2026-04-11T09:13:40.041Z</time></trkpt><trkpt lat="43.7881446" lon="10.973688"><ele>409.0</ele><time>2026-04-11T09:13:53.04Z</time></trkpt><trkpt lat="43.7881677" lon="10.9737709"><ele>413.33333333333337</ele><time>2026-04-11T09:13:55.041Z</time></trkpt><trkpt lat="43.7881893" lon="10.9738713"><ele>417.6666666666667</ele><time>2026-04-11T09:13:57.041Z</time></trkpt><trkpt lat="43.7882354" lon="10.9739513"><ele>422.0</ele><time>2026-04-11T09:13:59.041Z</time></trkpt><trkpt lat="43.7883146" lon="10.9739529"><ele>426.33333333333337</ele><time>2026-04-11T09:14:01.041Z</time></trkpt><trkpt lat="43.7883803" lon="10.9738895"><ele>430.6666666666667</ele><time>2026-04-11T09:14:03.041Z</time></trkpt><trkpt lat="43.7884355" lon="10.9738273"><ele>435.0</ele><time>2026-04-11T09:14:05.041Z</time></trkpt><trkpt lat="43.7885081" lon="10.9737853"><ele>435.0</ele><time>2026-04-11T09:14:16.041Z</time></trkpt><trkpt lat="43.7885928" lon="10.9737396"><ele>435.0</ele><time>2026-04-11T09:14:19.041Z</time></trkpt><trkpt lat="43.7885261" lon="10.9737616"><ele>435.0</ele><time>2026-04-11T09:20:22.04Z</time></trkpt><trkpt lat="43.788459" lon="10.973804"><ele>435.0</ele><time>2026-04-11T09:20:38.04Z</time></trkpt><trkpt lat="43.7883782" lon="10.9738686"><ele>435.0</ele><time>2026-04-11T09:20:42.07Z</time></trkpt><trkpt lat="43.7883168" lon="10.9739214"><ele>435.0</ele><time>2026-04-11T09:20:45.097Z</time></trkpt><trkpt lat="43.788242" lon="10.9738994"><ele>435.0</ele><time>2026-04-11T09:20:48.126Z</time></trkpt><trkpt lat="43.7881907" lon="10.9738156"><ele>435.0</ele><time>2026-04-11T09:20:51.041Z</time></trkpt><trkpt lat="43.7881117" lon="10.9736447"><ele>435.0</ele><time>2026-04-11T09:20:54.04Z</time></trkpt><trkpt lat="43.7880687" lon="10.9735463"><ele>435.0</ele><time>2026-04-11T09:20:57.039Z</time></trkpt><trkpt lat="43.7880281" lon="10.9734689"><ele>435.0</ele><time>2026-04-11T09:21:00.04Z</time></trkpt><trkpt lat="43.788003" lon="10.9733793"><ele>435.0</ele><time>2026-04-11T09:21:03.04Z</time></trkpt><trkpt lat="43.7879659" lon="10.9732886"><ele>435.0</ele><time>2026-04-11T09:21:06.04Z</time></trkpt><trkpt lat="43.7878834" lon="10.9732643"><ele>435.0</ele><time>2026-04-11T09:21:10.122Z</time></trkpt><trkpt lat="43.7878118" lon="10.9733211"><ele>435.0</ele><time>2026-04-11T09:21:13.04Z</time></trkpt><trkpt lat="43.7877437" lon="10.9733735"><ele>435.0</ele><time>2026-04-11T09:21:16.061Z</time></trkpt><trkpt lat="43.7876702" lon="10.9733954"><ele>435.0</ele><time>2026-04-11T09:21:20.04Z</time></trkpt><trkpt lat="43.7876054" lon="10.9734426"><ele>435.0</ele><time>2026-04-11T09:21:23.039Z</time></trkpt><trkpt lat="43.7875548" lon="10.9733543"><ele>433.00000000000006</ele><time>2026-04-11T09:21:28.048Z</time></trkpt><trkpt lat="43.7875438" lon="10.9732406"><ele>431.0</ele><time>2026-04-11T09:21:31.094Z</time></trkpt><trkpt lat="43.7875208" lon="10.9731543"><ele>429.0</ele><time>2026-04-11T09:21:33.089Z</time></trkpt><trkpt lat="43.7874976" lon="10.973065"><ele>427.0</ele><time>2026-04-11T09:21:35.092Z</time></trkpt><trkpt lat="43.7874729" lon="10.9729694"><ele>425.0</ele><time>2026-04-11T09:21:37.051Z</time></trkpt><trkpt lat="43.7874404" lon="10.9728639"><ele>423.00000000000006</ele><time>2026-04-11T09:21:39.04Z</time></trkpt><trkpt lat="43.7873983" lon="10.9727826"><ele>421.0</ele><time>2026-04-11T09:21:42.05Z</time></trkpt><trkpt lat="43.7873354" lon="10.972704"><ele>421.0</ele><time>2026-04-11T09:21:44.066Z</time></trkpt><trkpt lat="43.7872675" lon="10.9726085"><ele>421.0</ele><time>2026-04-11T09:21:46.04Z</time></trkpt><trkpt lat="43.7872339" lon="10.9725268"><ele>421.0</ele><time>2026-04-11T09:26:08.039Z</time></trkpt><trkpt lat="43.7872299" lon="10.9724142"><ele>421.0</ele><time>2026-04-11T09:26:10.039Z</time></trkpt><trkpt lat="43.7872271" lon="10.9722676"><ele>421.0</ele><time>2026-04-11T09:26:12.038Z</time></trkpt><trkpt lat="43.7871697" lon="10.9721216"><ele>419.33333333333337</ele><time>2026-04-11T09:26:14.039Z</time></trkpt><trkpt lat="43.787119" lon="10.9720432"><ele>417.6666666666667</ele><time>2026-04-11T09:26:15.039Z</time></trkpt><trkpt lat="43.7870603" lon="10.9719789"><ele>416.0</ele><time>2026-04-11T09:26:16.039Z</time></trkpt><trkpt lat="43.7869923" lon="10.9719285"><ele>414.33333333333337</ele><time>2026-04-11T09:26:17.039Z</time></trkpt><trkpt lat="43.7869267" lon="10.9718857"><ele>412.6666666666667</ele><time>2026-04-11T09:26:18.039Z</time></trkpt><trkpt lat="43.7868366" lon="10.9718009"><ele>411.0</ele><time>2026-04-11T09:26:20.039Z</time></trkpt><trkpt lat="43.7867677" lon="10.9716881"><ele>411.0</ele><time>2026-04-11T09:26:22.039Z</time></trkpt><trkpt lat="43.7866722" lon="10.9715818"><ele>411.0</ele><time>2026-04-11T09:26:24.038Z</time></trkpt><trkpt lat="43.7865806" lon="10.9714884"><ele>411.0</ele><time>2026-04-11T09:26:26.039Z</time></trkpt><trkpt lat="43.7864867" lon="10.9714388"><ele>411.0</ele><time>2026-04-11T09:26:28.039Z</time></trkpt><trkpt lat="43.7863969" lon="10.9714091"><ele>411.0</ele><time>2026-04-11T09:26:30.039Z</time></trkpt><trkpt lat="43.7863023" lon="10.9713911"><ele>411.0</ele><time>2026-04-11T09:26:32.039Z</time></trkpt><trkpt lat="43.7862072" lon="10.9713628"><ele>411.0</ele><time>2026-04-11T09:26:34.039Z</time></trkpt><trkpt lat="43.7861106" lon="10.9713098"><ele>411.0</ele><time>2026-04-11T09:26:36.039Z</time></trkpt><trkpt lat="43.7859997" lon="10.9712523"><ele>411.0</ele><time>2026-04-11T09:26:38.039Z</time></trkpt><trkpt lat="43.7859359" lon="10.9712131"><ele>411.0</ele><time>2026-04-11T09:26:39.039Z</time></trkpt><trkpt lat="43.7858608" lon="10.9711674"><ele>412.8333333333333</ele><time>2026-04-11T09:26:40.038Z</time></trkpt><trkpt lat="43.7857807" lon="10.9711234"><ele>414.66666666666663</ele><time>2026-04-11T09:26:41.039Z</time></trkpt><trkpt lat="43.7856995" lon="10.9710761"><ele>416.5</ele><time>2026-04-11T09:26:42.039Z</time></trkpt><trkpt lat="43.78563" lon="10.971028"><ele>418.3333333333333</ele><time>2026-04-11T09:26:43.039Z</time></trkpt><trkpt lat="43.7855655" lon="10.9709806"><ele>420.16666666666663</ele><time>2026-04-11T09:26:44.039Z</time></trkpt><trkpt lat="43.785507" lon="10.970934"><ele>422.0</ele><time>2026-04-11T09:26:45.038Z</time></trkpt><trkpt lat="43.7854483" lon="10.970884"><ele>419.8</ele><time>2026-04-11T09:26:46.039Z</time></trkpt><trkpt lat="43.7853671" lon="10.9707477"><ele>417.6</ele><time>2026-04-11T09:26:48.039Z</time></trkpt><trkpt lat="43.7853414" lon="10.9706638"><ele>415.40000000000003</ele><time>2026-04-11T09:26:49.038Z</time></trkpt><trkpt lat="43.7853144" lon="10.9705756"><ele>413.20000000000005</ele><time>2026-04-11T09:26:50.039Z</time></trkpt><trkpt lat="43.7852381" lon="10.9704837"><ele>411.0</ele><time>2026-04-11T09:26:52.039Z</time></trkpt><trkpt lat="43.7851239" lon="10.970493"><ele>411.0</ele><time>2026-04-11T09:26:54.039Z</time></trkpt><trkpt lat="43.7850535" lon="10.9705084"><ele>411.0</ele><time>2026-04-11T09:26:55.038Z</time></trkpt><trkpt lat="43.7849825" lon="10.9705201"><ele>411.0</ele><time>2026-04-11T09:26:56.039Z</time></trkpt><trkpt lat="43.7849114" lon="10.9705512"><ele>411.0</ele><time>2026-04-11T09:26:57.039Z</time></trkpt><trkpt lat="43.7848441" lon="10.9705836"><ele>411.0</ele><time>2026-04-11T09:26:58.038Z</time></trkpt><trkpt lat="43.7847777" lon="10.9706142"><ele>411.0</ele><time>2026-04-11T09:26:59.038Z</time></trkpt><trkpt lat="43.7847139" lon="10.9706385"><ele>411.0</ele><time>2026-04-11T09:27:00.039Z</time></trkpt><trkpt lat="43.7846059" lon="10.970681"><ele>411.0</ele><time>2026-04-11T09:27:02.039Z</time></trkpt><trkpt lat="43.7844962" lon="10.9707124"><ele>411.0</ele><time>2026-04-11T09:27:04.039Z</time></trkpt><trkpt lat="43.7844047" lon="10.9707812"><ele>411.0</ele><time>2026-04-11T09:27:06.039Z</time></trkpt><trkpt lat="43.7843195" lon="10.970861"><ele>411.0</ele><time>2026-04-11T09:27:08.039Z</time></trkpt><trkpt lat="43.7842421" lon="10.9709421"><ele>411.0</ele><time>2026-04-11T09:27:10.039Z</time></trkpt><trkpt lat="43.7841646" lon="10.9710306"><ele>410.5</ele><time>2026-04-11T09:27:12.038Z</time></trkpt><trkpt lat="43.7840801" lon="10.9711391"><ele>410.0</ele><time>2026-04-11T09:27:14.039Z</time></trkpt><trkpt lat="43.7840286" lon="10.971229"><ele>409.5</ele><time>2026-04-11T09:27:15.039Z</time></trkpt><trkpt lat="43.7839799" lon="10.9713105"><ele>409.0</ele><time>2026-04-11T09:27:16.038Z</time></trkpt><trkpt lat="43.7839319" lon="10.9713892"><ele>408.5</ele><time>2026-04-11T09:27:17.039Z</time></trkpt><trkpt lat="43.7838859" lon="10.9714661"><ele>408.0</ele><time>2026-04-11T09:27:18.039Z</time></trkpt><trkpt lat="43.7838418" lon="10.9715924"><ele>408.79999999999995</ele><time>2026-04-11T09:27:20.038Z</time></trkpt><trkpt lat="43.7838278" lon="10.9717208"><ele>409.6</ele><time>2026-04-11T09:27:22.038Z</time></trkpt><trkpt lat="43.7838371" lon="10.9718592"><ele>410.4</ele><time>2026-04-11T09:27:24.038Z</time></trkpt><trkpt lat="43.7838227" lon="10.9720287"><ele>411.20000000000005</ele><time>2026-04-11T09:27:26.039Z</time></trkpt><trkpt lat="43.7838154" lon="10.9721232"><ele>412.0</ele><time>2026-04-11T09:27:27.039Z</time></trkpt><trkpt lat="43.7838091" lon="10.9722196"><ele>412.0</ele><time>2026-04-11T09:27:28.038Z</time></trkpt><trkpt lat="43.7838045" lon="10.9723073"><ele>412.0</ele><time>2026-04-11T09:27:29.038Z</time></trkpt><trkpt lat="43.7838019" lon="10.9724684"><ele>412.0</ele><time>2026-04-11T09:27:31.039Z</time></trkpt><trkpt lat="43.7838099" lon="10.9726219"><ele>412.0</ele><time>2026-04-11T09:27:33.038Z</time></trkpt><trkpt lat="43.7838384" lon="10.972775"><ele>412.0</ele><time>2026-04-11T09:27:35.038Z</time></trkpt><trkpt lat="43.7838746" lon="10.9729027"><ele>412.1428571428571</ele><time>2026-04-11T09:27:37.039Z</time></trkpt><trkpt lat="43.7838926" lon="10.9729976"><ele>412.2857142857143</ele><time>2026-04-11T09:27:39.039Z</time></trkpt><trkpt lat="43.7838916" lon="10.973099"><ele>412.42857142857144</ele><time>2026-04-11T09:27:41.039Z</time></trkpt><trkpt lat="43.7839055" lon="10.9732004"><ele>412.57142857142856</ele><time>2026-04-11T09:27:43.039Z</time></trkpt><trkpt lat="43.78392" lon="10.9733088"><ele>412.7142857142857</ele><time>2026-04-11T09:27:45.039Z</time></trkpt><trkpt lat="43.7839467" lon="10.9734095"><ele>412.85714285714283</ele><time>2026-04-11T09:27:47.039Z</time></trkpt><trkpt lat="43.7839709" lon="10.9734978"><ele>413.0</ele><time>2026-04-11T09:27:49.039Z</time></trkpt><trkpt lat="43.7839865" lon="10.973587"><ele>416.0</ele><time>2026-04-11T09:27:51.039Z</time></trkpt><trkpt lat="43.7839773" lon="10.9736805"><ele>416.0</ele><time>2026-04-11T09:27:53.039Z</time></trkpt></trkseg></trk></gpx>